<?xml version="1.0" encoding="UTF-8" standalone="no" ?><gpx xmlns="http://www.topografix.com/GPX/1/1" xmlns:gpxx="http://www.garmin.com/xmlschemas/GpxExtensions/v3" xmlns:wptx1="http://www.garmin.com/xmlschemas/WaypointExtension/v1" xmlns:gpxtpx="http://www.garmin.com/xmlschemas/TrackPointExtension/v1" creator="GuideVTT.com" version="1.1" xmlns:xsi="http://www.w3.org/2001/XMLSchema-instance" xsi:schemaLocation="http://www.topografix.com/GPX/1/1 http://www.topografix.com/GPX/1/1/gpx.xsd http://www.garmin.com/xmlschemas/GpxExtensions/v3 http://www8.garmin.com/xmlschemas/GpxExtensionsv3.xsd http://www.garmin.com/xmlschemas/WaypointExtension/v1 http://www8.garmin.com/xmlschemas/WaypointExtensionv1.xsd http://www.garmin.com/xmlschemas/TrackPointExtension/v1 http://www.garmin.com/xmlschemas/TrackPointExtensionv1.xsd">
<metadata><link href="http://www.garmin.com"><text>Garmin International</text></link><time>2013-06-22T15:13:50Z</time></metadata>
<trk><name>b8k95150.gpx</name><extensions><gpxx:TrackExtension><gpxx:DisplayColor>Cyan</gpxx:DisplayColor></gpxx:TrackExtension></extensions><trkseg>
<trkpt lat="46.08481" lon="6.98111"><ele></ele><time>2021-8-27T13:18:4Z</time></trkpt>
<trkpt lat="46.08481" lon="6.98112"><ele></ele><time>2021-8-27T13:18:7Z</time></trkpt>
<trkpt lat="46.08483" lon="6.98114"><ele></ele><time>2021-8-27T13:18:10Z</time></trkpt>
<trkpt lat="46.08495" lon="6.98126"><ele></ele><time>2021-8-27T13:18:13Z</time></trkpt>
<trkpt lat="46.08507" lon="6.98147"><ele></ele><time>2021-8-27T13:18:16Z</time></trkpt>
<trkpt lat="46.08516" lon="6.98163"><ele></ele><time>2021-8-27T13:18:19Z</time></trkpt>
<trkpt lat="46.08524" lon="6.98174"><ele></ele><time>2021-8-27T13:18:22Z</time></trkpt>
<trkpt lat="46.08527" lon="6.98182"><ele></ele><time>2021-8-27T13:18:25Z</time></trkpt>
<trkpt lat="46.08539" lon="6.98199"><ele></ele><time>2021-8-27T13:18:28Z</time></trkpt>
<trkpt lat="46.08543" lon="6.98202"><ele></ele><time>2021-8-27T13:18:31Z</time></trkpt>
<trkpt lat="46.08558" lon="6.98182"><ele></ele><time>2021-8-27T13:18:34Z</time></trkpt>
<trkpt lat="46.08557" lon="6.98155"><ele></ele><time>2021-8-27T13:18:37Z</time></trkpt>
<trkpt lat="46.08556" lon="6.98147"><ele></ele><time>2021-8-27T13:18:40Z</time></trkpt>
<trkpt lat="46.08556" lon="6.98137"><ele></ele><time>2021-8-27T13:18:43Z</time></trkpt>
<trkpt lat="46.08555" lon="6.98125"><ele></ele><time>2021-8-27T13:18:46Z</time></trkpt>
<trkpt lat="46.08552" lon="6.98099"><ele></ele><time>2021-8-27T13:18:49Z</time></trkpt>
<trkpt lat="46.0855" lon="6.98083"><ele></ele><time>2021-8-27T13:18:52Z</time></trkpt>
<trkpt lat="46.08549" lon="6.98081"><ele></ele><time>2021-8-27T13:18:55Z</time></trkpt>
<trkpt lat="46.08546" lon="6.98057"><ele></ele><time>2021-8-27T13:18:58Z</time></trkpt>
<trkpt lat="46.08543" lon="6.98037"><ele></ele><time>2021-8-27T13:19:1Z</time></trkpt>
<trkpt lat="46.08542" lon="6.98034"><ele></ele><time>2021-8-27T13:19:4Z</time></trkpt>
<trkpt lat="46.08541" lon="6.9803"><ele></ele><time>2021-8-27T13:19:7Z</time></trkpt>
<trkpt lat="46.0854" lon="6.98023"><ele></ele><time>2021-8-27T13:19:10Z</time></trkpt>
<trkpt lat="46.08538" lon="6.9801"><ele></ele><time>2021-8-27T13:19:13Z</time></trkpt>
<trkpt lat="46.08535" lon="6.97984"><ele></ele><time>2021-8-27T13:19:16Z</time></trkpt>
<trkpt lat="46.08532" lon="6.97958"><ele></ele><time>2021-8-27T13:19:19Z</time></trkpt>
<trkpt lat="46.08529" lon="6.9793"><ele></ele><time>2021-8-27T13:19:22Z</time></trkpt>
<trkpt lat="46.08521" lon="6.97903"><ele></ele><time>2021-8-27T13:19:25Z</time></trkpt>
<trkpt lat="46.08513" lon="6.97878"><ele></ele><time>2021-8-27T13:19:28Z</time></trkpt>
<trkpt lat="46.08506" lon="6.97852"><ele></ele><time>2021-8-27T13:19:31Z</time></trkpt>
<trkpt lat="46.08504" lon="6.97826"><ele></ele><time>2021-8-27T13:19:34Z</time></trkpt>
<trkpt lat="46.08508" lon="6.978"><ele></ele><time>2021-8-27T13:19:37Z</time></trkpt>
<trkpt lat="46.08524" lon="6.97769"><ele></ele><time>2021-8-27T13:19:40Z</time></trkpt>
<trkpt lat="46.08537" lon="6.97755"><ele></ele><time>2021-8-27T13:19:43Z</time></trkpt>
<trkpt lat="46.0854" lon="6.97751"><ele></ele><time>2021-8-27T13:19:46Z</time></trkpt>
<trkpt lat="46.08555" lon="6.97735"><ele></ele><time>2021-8-27T13:19:49Z</time></trkpt>
<trkpt lat="46.08557" lon="6.97733"><ele></ele><time>2021-8-27T13:19:52Z</time></trkpt>
<trkpt lat="46.08572" lon="6.97716"><ele></ele><time>2021-8-27T13:19:55Z</time></trkpt>
<trkpt lat="46.08584" lon="6.97695"><ele></ele><time>2021-8-27T13:19:58Z</time></trkpt>
<trkpt lat="46.08586" lon="6.97688"><ele></ele><time>2021-8-27T13:20:1Z</time></trkpt>
<trkpt lat="46.08588" lon="6.9766"><ele></ele><time>2021-8-27T13:20:4Z</time></trkpt>
<trkpt lat="46.08586" lon="6.97633"><ele></ele><time>2021-8-27T13:20:7Z</time></trkpt>
<trkpt lat="46.08583" lon="6.97617"><ele></ele><time>2021-8-27T13:20:10Z</time></trkpt>
<trkpt lat="46.0858" lon="6.97606"><ele></ele><time>2021-8-27T13:20:13Z</time></trkpt>
<trkpt lat="46.08573" lon="6.97584"><ele></ele><time>2021-8-27T13:20:16Z</time></trkpt>
<trkpt lat="46.0856" lon="6.97566"><ele></ele><time>2021-8-27T13:20:19Z</time></trkpt>
<trkpt lat="46.08552" lon="6.97553"><ele></ele><time>2021-8-27T13:20:22Z</time></trkpt>
<trkpt lat="46.08538" lon="6.97534"><ele></ele><time>2021-8-27T13:20:25Z</time></trkpt>
<trkpt lat="46.08526" lon="6.97514"><ele></ele><time>2021-8-27T13:20:28Z</time></trkpt>
<trkpt lat="46.08515" lon="6.97497"><ele></ele><time>2021-8-27T13:20:31Z</time></trkpt>
<trkpt lat="46.08502" lon="6.97477"><ele></ele><time>2021-8-27T13:20:34Z</time></trkpt>
<trkpt lat="46.08501" lon="6.97475"><ele></ele><time>2021-8-27T13:20:37Z</time></trkpt>
<trkpt lat="46.08492" lon="6.97461"><ele></ele><time>2021-8-27T13:20:40Z</time></trkpt>
<trkpt lat="46.08492" lon="6.97459"><ele></ele><time>2021-8-27T13:20:43Z</time></trkpt>
<trkpt lat="46.0849" lon="6.97454"><ele></ele><time>2021-8-27T13:20:46Z</time></trkpt>
<trkpt lat="46.08487" lon="6.97447"><ele></ele><time>2021-8-27T13:20:49Z</time></trkpt>
<trkpt lat="46.08482" lon="6.97439"><ele></ele><time>2021-8-27T13:20:52Z</time></trkpt>
<trkpt lat="46.08468" lon="6.97423"><ele></ele><time>2021-8-27T13:20:55Z</time></trkpt>
<trkpt lat="46.08461" lon="6.97408"><ele></ele><time>2021-8-27T13:20:58Z</time></trkpt>
<trkpt lat="46.08443" lon="6.97385"><ele></ele><time>2021-8-27T13:21:1Z</time></trkpt>
<trkpt lat="46.08438" lon="6.97379"><ele></ele><time>2021-8-27T13:21:4Z</time></trkpt>
<trkpt lat="46.08436" lon="6.97371"><ele></ele><time>2021-8-27T13:21:7Z</time></trkpt>
<trkpt lat="46.08433" lon="6.97365"><ele></ele><time>2021-8-27T13:21:10Z</time></trkpt>
<trkpt lat="46.08425" lon="6.9735"><ele></ele><time>2021-8-27T13:21:13Z</time></trkpt>
<trkpt lat="46.0842" lon="6.97338"><ele></ele><time>2021-8-27T13:21:16Z</time></trkpt>
<trkpt lat="46.0841" lon="6.97317"><ele></ele><time>2021-8-27T13:21:19Z</time></trkpt>
<trkpt lat="46.08408" lon="6.97291"><ele></ele><time>2021-8-27T13:21:22Z</time></trkpt>
<trkpt lat="46.08408" lon="6.97264"><ele></ele><time>2021-8-27T13:21:25Z</time></trkpt>
<trkpt lat="46.08407" lon="6.97249"><ele></ele><time>2021-8-27T13:21:28Z</time></trkpt>
<trkpt lat="46.08405" lon="6.97241"><ele></ele><time>2021-8-27T13:21:31Z</time></trkpt>
<trkpt lat="46.084" lon="6.97215"><ele></ele><time>2021-8-27T13:21:34Z</time></trkpt>
<trkpt lat="46.08396" lon="6.97189"><ele></ele><time>2021-8-27T13:21:37Z</time></trkpt>
<trkpt lat="46.08393" lon="6.97181"><ele></ele><time>2021-8-27T13:21:40Z</time></trkpt>
<trkpt lat="46.08392" lon="6.97161"><ele></ele><time>2021-8-27T13:21:43Z</time></trkpt>
<trkpt lat="46.08389" lon="6.97146"><ele></ele><time>2021-8-27T13:21:46Z</time></trkpt>
<trkpt lat="46.08387" lon="6.97139"><ele></ele><time>2021-8-27T13:21:49Z</time></trkpt>
<trkpt lat="46.08387" lon="6.97134"><ele></ele><time>2021-8-27T13:21:52Z</time></trkpt>
<trkpt lat="46.084" lon="6.97146"><ele></ele><time>2021-8-27T13:21:55Z</time></trkpt>
<trkpt lat="46.08403" lon="6.97153"><ele></ele><time>2021-8-27T13:21:58Z</time></trkpt>
<trkpt lat="46.08404" lon="6.97159"><ele></ele><time>2021-8-27T13:22:1Z</time></trkpt>
<trkpt lat="46.08406" lon="6.97163"><ele></ele><time>2021-8-27T13:22:4Z</time></trkpt>
<trkpt lat="46.08408" lon="6.97165"><ele></ele><time>2021-8-27T13:22:7Z</time></trkpt>
<trkpt lat="46.08408" lon="6.9717"><ele></ele><time>2021-8-27T13:22:10Z</time></trkpt>
<trkpt lat="46.0841" lon="6.97172"><ele></ele><time>2021-8-27T13:22:13Z</time></trkpt>
<trkpt lat="46.08411" lon="6.97172"><ele></ele><time>2021-8-27T13:22:16Z</time></trkpt>
<trkpt lat="46.0841" lon="6.97176"><ele></ele><time>2021-8-27T13:22:19Z</time></trkpt>
<trkpt lat="46.08409" lon="6.97177"><ele></ele><time>2021-8-27T13:22:22Z</time></trkpt>
<trkpt lat="46.08409" lon="6.97175"><ele></ele><time>2021-8-27T13:22:25Z</time></trkpt>
<trkpt lat="46.0841" lon="6.97175"><ele></ele><time>2021-8-27T13:22:28Z</time></trkpt>
<trkpt lat="46.08414" lon="6.97172"><ele></ele><time>2021-8-27T13:22:31Z</time></trkpt>
<trkpt lat="46.0841" lon="6.97164"><ele></ele><time>2021-8-27T13:22:34Z</time></trkpt>
<trkpt lat="46.08409" lon="6.97164"><ele></ele><time>2021-8-27T13:22:37Z</time></trkpt>
<trkpt lat="46.08408" lon="6.9716"><ele></ele><time>2021-8-27T13:22:40Z</time></trkpt>
<trkpt lat="46.08408" lon="6.97161"><ele></ele><time>2021-8-27T13:22:43Z</time></trkpt>
<trkpt lat="46.08409" lon="6.97162"><ele></ele><time>2021-8-27T13:22:46Z</time></trkpt>
<trkpt lat="46.08407" lon="6.97162"><ele></ele><time>2021-8-27T13:22:49Z</time></trkpt>
<trkpt lat="46.08405" lon="6.97164"><ele></ele><time>2021-8-27T13:22:52Z</time></trkpt>
<trkpt lat="46.08405" lon="6.9716"><ele></ele><time>2021-8-27T13:22:55Z</time></trkpt>
<trkpt lat="46.08397" lon="6.97137"><ele></ele><time>2021-8-27T13:22:58Z</time></trkpt>
<trkpt lat="46.08385" lon="6.97121"><ele></ele><time>2021-8-27T13:23:1Z</time></trkpt>
<trkpt lat="46.08381" lon="6.97112"><ele></ele><time>2021-8-27T13:23:4Z</time></trkpt>
<trkpt lat="46.08379" lon="6.97106"><ele></ele><time>2021-8-27T13:23:7Z</time></trkpt>
<trkpt lat="46.08377" lon="6.97102"><ele></ele><time>2021-8-27T13:23:10Z</time></trkpt>
<trkpt lat="46.08375" lon="6.97083"><ele></ele><time>2021-8-27T13:23:13Z</time></trkpt>
<trkpt lat="46.08373" lon="6.97073"><ele></ele><time>2021-8-27T13:23:16Z</time></trkpt>
<trkpt lat="46.0837" lon="6.97046"><ele></ele><time>2021-8-27T13:23:19Z</time></trkpt>
<trkpt lat="46.0836" lon="6.97021"><ele></ele><time>2021-8-27T13:23:22Z</time></trkpt>
<trkpt lat="46.08357" lon="6.97016"><ele></ele><time>2021-8-27T13:23:25Z</time></trkpt>
<trkpt lat="46.08346" lon="6.96996"><ele></ele><time>2021-8-27T13:23:28Z</time></trkpt>
<trkpt lat="46.0834" lon="6.96971"><ele></ele><time>2021-8-27T13:23:31Z</time></trkpt>
<trkpt lat="46.0834" lon="6.9695"><ele></ele><time>2021-8-27T13:23:34Z</time></trkpt>
<trkpt lat="46.0834" lon="6.96941"><ele></ele><time>2021-8-27T13:23:37Z</time></trkpt>
<trkpt lat="46.08339" lon="6.9692"><ele></ele><time>2021-8-27T13:23:40Z</time></trkpt>
<trkpt lat="46.08334" lon="6.96893"><ele></ele><time>2021-8-27T13:23:43Z</time></trkpt>
<trkpt lat="46.0833" lon="6.96881"><ele></ele><time>2021-8-27T13:23:46Z</time></trkpt>
<trkpt lat="46.08318" lon="6.96861"><ele></ele><time>2021-8-27T13:23:49Z</time></trkpt>
<trkpt lat="46.08306" lon="6.96841"><ele></ele><time>2021-8-27T13:23:52Z</time></trkpt>
<trkpt lat="46.08299" lon="6.96821"><ele></ele><time>2021-8-27T13:23:55Z</time></trkpt>
<trkpt lat="46.08293" lon="6.96799"><ele></ele><time>2021-8-27T13:23:58Z</time></trkpt>
<trkpt lat="46.08292" lon="6.96791"><ele></ele><time>2021-8-27T13:24:1Z</time></trkpt>
<trkpt lat="46.08288" lon="6.96781"><ele></ele><time>2021-8-27T13:24:4Z</time></trkpt>
<trkpt lat="46.08287" lon="6.96774"><ele></ele><time>2021-8-27T13:24:7Z</time></trkpt>
<trkpt lat="46.08282" lon="6.96754"><ele></ele><time>2021-8-27T13:24:10Z</time></trkpt>
<trkpt lat="46.08279" lon="6.96739"><ele></ele><time>2021-8-27T13:24:13Z</time></trkpt>
<trkpt lat="46.08278" lon="6.96737"><ele></ele><time>2021-8-27T13:24:16Z</time></trkpt>
<trkpt lat="46.08275" lon="6.96723"><ele></ele><time>2021-8-27T13:24:19Z</time></trkpt>
<trkpt lat="46.08267" lon="6.967"><ele></ele><time>2021-8-27T13:24:22Z</time></trkpt>
<trkpt lat="46.08251" lon="6.96689"><ele></ele><time>2021-8-27T13:24:25Z</time></trkpt>
<trkpt lat="46.08244" lon="6.96688"><ele></ele><time>2021-8-27T13:24:28Z</time></trkpt>
<trkpt lat="46.08235" lon="6.96688"><ele></ele><time>2021-8-27T13:24:31Z</time></trkpt>
<trkpt lat="46.0823" lon="6.9669"><ele></ele><time>2021-8-27T13:24:34Z</time></trkpt>
<trkpt lat="46.08225" lon="6.9669"><ele></ele><time>2021-8-27T13:24:37Z</time></trkpt>
<trkpt lat="46.08213" lon="6.96692"><ele></ele><time>2021-8-27T13:24:40Z</time></trkpt>
<trkpt lat="46.08212" lon="6.96693"><ele></ele><time>2021-8-27T13:24:43Z</time></trkpt>
<trkpt lat="46.0821" lon="6.96694"><ele></ele><time>2021-8-27T13:24:46Z</time></trkpt>
<trkpt lat="46.08199" lon="6.96692"><ele></ele><time>2021-8-27T13:24:49Z</time></trkpt>
<trkpt lat="46.08183" lon="6.96679"><ele></ele><time>2021-8-27T13:24:52Z</time></trkpt>
<trkpt lat="46.08171" lon="6.9666"><ele></ele><time>2021-8-27T13:24:55Z</time></trkpt>
<trkpt lat="46.08159" lon="6.96639"><ele></ele><time>2021-8-27T13:24:58Z</time></trkpt>
<trkpt lat="46.08147" lon="6.9662"><ele></ele><time>2021-8-27T13:25:1Z</time></trkpt>
<trkpt lat="46.08135" lon="6.96602"><ele></ele><time>2021-8-27T13:25:4Z</time></trkpt>
<trkpt lat="46.08135" lon="6.96601"><ele></ele><time>2021-8-27T13:25:7Z</time></trkpt>
<trkpt lat="46.08135" lon="6.96601"><ele></ele><time>2021-8-27T13:25:10Z</time></trkpt>
<trkpt lat="46.08134" lon="6.96602"><ele></ele><time>2021-8-27T13:25:13Z</time></trkpt>
<trkpt lat="46.08134" lon="6.96603"><ele></ele><time>2021-8-27T13:25:16Z</time></trkpt>
<trkpt lat="46.08134" lon="6.96603"><ele></ele><time>2021-8-27T13:25:19Z</time></trkpt>
<trkpt lat="46.08134" lon="6.96603"><ele></ele><time>2021-8-27T13:25:22Z</time></trkpt>
<trkpt lat="46.08129" lon="6.96581"><ele></ele><time>2021-8-27T13:25:25Z</time></trkpt>
<trkpt lat="46.08123" lon="6.96562"><ele></ele><time>2021-8-27T13:25:28Z</time></trkpt>
<trkpt lat="46.0812" lon="6.96554"><ele></ele><time>2021-8-27T13:25:31Z</time></trkpt>
<trkpt lat="46.08119" lon="6.9655"><ele></ele><time>2021-8-27T13:25:34Z</time></trkpt>
<trkpt lat="46.08116" lon="6.96537"><ele></ele><time>2021-8-27T13:25:37Z</time></trkpt>
<trkpt lat="46.08113" lon="6.9653"><ele></ele><time>2021-8-27T13:25:40Z</time></trkpt>
<trkpt lat="46.08109" lon="6.96518"><ele></ele><time>2021-8-27T13:25:43Z</time></trkpt>
<trkpt lat="46.08108" lon="6.96517"><ele></ele><time>2021-8-27T13:25:46Z</time></trkpt>
<trkpt lat="46.08103" lon="6.96511"><ele></ele><time>2021-8-27T13:25:49Z</time></trkpt>
<trkpt lat="46.08087" lon="6.96499"><ele></ele><time>2021-8-27T13:25:52Z</time></trkpt>
<trkpt lat="46.08073" lon="6.96497"><ele></ele><time>2021-8-27T13:25:55Z</time></trkpt>
<trkpt lat="46.08067" lon="6.96501"><ele></ele><time>2021-8-27T13:25:58Z</time></trkpt>
<trkpt lat="46.08063" lon="6.96492"><ele></ele><time>2021-8-27T13:26:1Z</time></trkpt>
<trkpt lat="46.0805" lon="6.96489"><ele></ele><time>2021-8-27T13:26:4Z</time></trkpt>
<trkpt lat="46.08048" lon="6.96489"><ele></ele><time>2021-8-27T13:26:7Z</time></trkpt>
<trkpt lat="46.08046" lon="6.96488"><ele></ele><time>2021-8-27T13:26:10Z</time></trkpt>
<trkpt lat="46.08038" lon="6.96488"><ele></ele><time>2021-8-27T13:26:13Z</time></trkpt>
<trkpt lat="46.08024" lon="6.96482"><ele></ele><time>2021-8-27T13:26:16Z</time></trkpt>
<trkpt lat="46.08007" lon="6.96474"><ele></ele><time>2021-8-27T13:26:19Z</time></trkpt>
<trkpt lat="46.08005" lon="6.96473"><ele></ele><time>2021-8-27T13:26:22Z</time></trkpt>
<trkpt lat="46.07989" lon="6.9646"><ele></ele><time>2021-8-27T13:26:25Z</time></trkpt>
<trkpt lat="46.07984" lon="6.96457"><ele></ele><time>2021-8-27T13:26:28Z</time></trkpt>
<trkpt lat="46.07981" lon="6.96455"><ele></ele><time>2021-8-27T13:26:31Z</time></trkpt>
<trkpt lat="46.07973" lon="6.9645"><ele></ele><time>2021-8-27T13:26:34Z</time></trkpt>
<trkpt lat="46.07953" lon="6.96437"><ele></ele><time>2021-8-27T13:26:37Z</time></trkpt>
<trkpt lat="46.07936" lon="6.96424"><ele></ele><time>2021-8-27T13:26:40Z</time></trkpt>
<trkpt lat="46.07927" lon="6.96416"><ele></ele><time>2021-8-27T13:26:43Z</time></trkpt>
<trkpt lat="46.07922" lon="6.96415"><ele></ele><time>2021-8-27T13:26:46Z</time></trkpt>
<trkpt lat="46.07908" lon="6.96397"><ele></ele><time>2021-8-27T13:26:49Z</time></trkpt>
<trkpt lat="46.07894" lon="6.96379"><ele></ele><time>2021-8-27T13:26:52Z</time></trkpt>
<trkpt lat="46.0789" lon="6.96374"><ele></ele><time>2021-8-27T13:26:55Z</time></trkpt>
<trkpt lat="46.07877" lon="6.96355"><ele></ele><time>2021-8-27T13:26:58Z</time></trkpt>
<trkpt lat="46.07861" lon="6.96329"><ele></ele><time>2021-8-27T13:27:1Z</time></trkpt>
<trkpt lat="46.07847" lon="6.96309"><ele></ele><time>2021-8-27T13:27:4Z</time></trkpt>
<trkpt lat="46.07845" lon="6.96306"><ele></ele><time>2021-8-27T13:27:7Z</time></trkpt>
<trkpt lat="46.07834" lon="6.96286"><ele></ele><time>2021-8-27T13:27:10Z</time></trkpt>
<trkpt lat="46.07821" lon="6.96267"><ele></ele><time>2021-8-27T13:27:13Z</time></trkpt>
<trkpt lat="46.07803" lon="6.96243"><ele></ele><time>2021-8-27T13:27:16Z</time></trkpt>
<trkpt lat="46.07789" lon="6.96224"><ele></ele><time>2021-8-27T13:27:19Z</time></trkpt>
<trkpt lat="46.07774" lon="6.96206"><ele></ele><time>2021-8-27T13:27:22Z</time></trkpt>
<trkpt lat="46.0776" lon="6.96189"><ele></ele><time>2021-8-27T13:27:25Z</time></trkpt>
<trkpt lat="46.07746" lon="6.96172"><ele></ele><time>2021-8-27T13:27:28Z</time></trkpt>
<trkpt lat="46.07733" lon="6.96154"><ele></ele><time>2021-8-27T13:27:31Z</time></trkpt>
<trkpt lat="46.07718" lon="6.9614"><ele></ele><time>2021-8-27T13:27:34Z</time></trkpt>
<trkpt lat="46.07697" lon="6.96122"><ele></ele><time>2021-8-27T13:27:37Z</time></trkpt>
<trkpt lat="46.07683" lon="6.96113"><ele></ele><time>2021-8-27T13:27:40Z</time></trkpt>
<trkpt lat="46.07665" lon="6.96104"><ele></ele><time>2021-8-27T13:27:43Z</time></trkpt>
<trkpt lat="46.07649" lon="6.96091"><ele></ele><time>2021-8-27T13:27:46Z</time></trkpt>
<trkpt lat="46.0764" lon="6.96078"><ele></ele><time>2021-8-27T13:27:49Z</time></trkpt>
<trkpt lat="46.07626" lon="6.96059"><ele></ele><time>2021-8-27T13:27:52Z</time></trkpt>
<trkpt lat="46.07609" lon="6.96035"><ele></ele><time>2021-8-27T13:27:55Z</time></trkpt>
<trkpt lat="46.07596" lon="6.96016"><ele></ele><time>2021-8-27T13:27:58Z</time></trkpt>
<trkpt lat="46.07583" lon="6.95997"><ele></ele><time>2021-8-27T13:28:1Z</time></trkpt>
<trkpt lat="46.0757" lon="6.95978"><ele></ele><time>2021-8-27T13:28:4Z</time></trkpt>
<trkpt lat="46.07558" lon="6.95956"><ele></ele><time>2021-8-27T13:28:7Z</time></trkpt>
<trkpt lat="46.07547" lon="6.95935"><ele></ele><time>2021-8-27T13:28:10Z</time></trkpt>
<trkpt lat="46.07537" lon="6.95914"><ele></ele><time>2021-8-27T13:28:13Z</time></trkpt>
<trkpt lat="46.07518" lon="6.95892"><ele></ele><time>2021-8-27T13:28:16Z</time></trkpt>
<trkpt lat="46.07502" lon="6.95876"><ele></ele><time>2021-8-27T13:28:19Z</time></trkpt>
<trkpt lat="46.07489" lon="6.95856"><ele></ele><time>2021-8-27T13:28:22Z</time></trkpt>
<trkpt lat="46.07477" lon="6.95835"><ele></ele><time>2021-8-27T13:28:25Z</time></trkpt>
<trkpt lat="46.07462" lon="6.95817"><ele></ele><time>2021-8-27T13:28:28Z</time></trkpt>
<trkpt lat="46.07447" lon="6.95805"><ele></ele><time>2021-8-27T13:28:31Z</time></trkpt>
<trkpt lat="46.07431" lon="6.9579"><ele></ele><time>2021-8-27T13:28:34Z</time></trkpt>
<trkpt lat="46.0741" lon="6.95772"><ele></ele><time>2021-8-27T13:28:37Z</time></trkpt>
<trkpt lat="46.07396" lon="6.95756"><ele></ele><time>2021-8-27T13:28:40Z</time></trkpt>
<trkpt lat="46.07381" lon="6.95739"><ele></ele><time>2021-8-27T13:28:43Z</time></trkpt>
<trkpt lat="46.07366" lon="6.95723"><ele></ele><time>2021-8-27T13:28:46Z</time></trkpt>
<trkpt lat="46.07344" lon="6.95703"><ele></ele><time>2021-8-27T13:28:49Z</time></trkpt>
<trkpt lat="46.07326" lon="6.95694"><ele></ele><time>2021-8-27T13:28:52Z</time></trkpt>
<trkpt lat="46.07309" lon="6.95681"><ele></ele><time>2021-8-27T13:28:55Z</time></trkpt>
<trkpt lat="46.07294" lon="6.95664"><ele></ele><time>2021-8-27T13:28:58Z</time></trkpt>
<trkpt lat="46.0728" lon="6.95645"><ele></ele><time>2021-8-27T13:29:1Z</time></trkpt>
<trkpt lat="46.07267" lon="6.95627"><ele></ele><time>2021-8-27T13:29:4Z</time></trkpt>
<trkpt lat="46.07252" lon="6.9561"><ele></ele><time>2021-8-27T13:29:7Z</time></trkpt>
<trkpt lat="46.07236" lon="6.95597"><ele></ele><time>2021-8-27T13:29:10Z</time></trkpt>
<trkpt lat="46.07214" lon="6.95581"><ele></ele><time>2021-8-27T13:29:13Z</time></trkpt>
<trkpt lat="46.07197" lon="6.95572"><ele></ele><time>2021-8-27T13:29:16Z</time></trkpt>
<trkpt lat="46.0718" lon="6.95561"><ele></ele><time>2021-8-27T13:29:19Z</time></trkpt>
<trkpt lat="46.07162" lon="6.95553"><ele></ele><time>2021-8-27T13:29:22Z</time></trkpt>
<trkpt lat="46.07154" lon="6.95547"><ele></ele><time>2021-8-27T13:29:25Z</time></trkpt>
<trkpt lat="46.07151" lon="6.95544"><ele></ele><time>2021-8-27T13:29:28Z</time></trkpt>
<trkpt lat="46.07135" lon="6.95535"><ele></ele><time>2021-8-27T13:29:31Z</time></trkpt>
<trkpt lat="46.07128" lon="6.95524"><ele></ele><time>2021-8-27T13:29:34Z</time></trkpt>
<trkpt lat="46.0712" lon="6.95506"><ele></ele><time>2021-8-27T13:29:37Z</time></trkpt>
<trkpt lat="46.07106" lon="6.9549"><ele></ele><time>2021-8-27T13:29:40Z</time></trkpt>
<trkpt lat="46.07092" lon="6.95473"><ele></ele><time>2021-8-27T13:29:43Z</time></trkpt>
<trkpt lat="46.07078" lon="6.95457"><ele></ele><time>2021-8-27T13:29:46Z</time></trkpt>
<trkpt lat="46.07063" lon="6.95441"><ele></ele><time>2021-8-27T13:29:49Z</time></trkpt>
<trkpt lat="46.07049" lon="6.95425"><ele></ele><time>2021-8-27T13:29:52Z</time></trkpt>
<trkpt lat="46.07034" lon="6.9541"><ele></ele><time>2021-8-27T13:29:55Z</time></trkpt>
<trkpt lat="46.07024" lon="6.95398"><ele></ele><time>2021-8-27T13:29:58Z</time></trkpt>
<trkpt lat="46.0701" lon="6.95381"><ele></ele><time>2021-8-27T13:30:1Z</time></trkpt>
<trkpt lat="46.07" lon="6.95372"><ele></ele><time>2021-8-27T13:30:4Z</time></trkpt>
<trkpt lat="46.06984" lon="6.95356"><ele></ele><time>2021-8-27T13:30:7Z</time></trkpt>
<trkpt lat="46.06979" lon="6.95336"><ele></ele><time>2021-8-27T13:30:10Z</time></trkpt>
<trkpt lat="46.06999" lon="6.95348"><ele></ele><time>2021-8-27T13:30:13Z</time></trkpt>
<trkpt lat="46.07014" lon="6.95366"><ele></ele><time>2021-8-27T13:30:16Z</time></trkpt>
<trkpt lat="46.07029" lon="6.95382"><ele></ele><time>2021-8-27T13:30:19Z</time></trkpt>
<trkpt lat="46.07045" lon="6.95397"><ele></ele><time>2021-8-27T13:30:22Z</time></trkpt>
<trkpt lat="46.07058" lon="6.95403"><ele></ele><time>2021-8-27T13:30:25Z</time></trkpt>
<trkpt lat="46.07067" lon="6.95404"><ele></ele><time>2021-8-27T13:30:28Z</time></trkpt>
<trkpt lat="46.07086" lon="6.95406"><ele></ele><time>2021-8-27T13:30:31Z</time></trkpt>
<trkpt lat="46.07091" lon="6.95407"><ele></ele><time>2021-8-27T13:30:34Z</time></trkpt>
<trkpt lat="46.07109" lon="6.95407"><ele></ele><time>2021-8-27T13:30:37Z</time></trkpt>
<trkpt lat="46.07116" lon="6.9541"><ele></ele><time>2021-8-27T13:30:40Z</time></trkpt>
<trkpt lat="46.07139" lon="6.95421"><ele></ele><time>2021-8-27T13:30:43Z</time></trkpt>
<trkpt lat="46.07154" lon="6.95436"><ele></ele><time>2021-8-27T13:30:46Z</time></trkpt>
<trkpt lat="46.07168" lon="6.95454"><ele></ele><time>2021-8-27T13:30:49Z</time></trkpt>
<trkpt lat="46.07176" lon="6.95469"><ele></ele><time>2021-8-27T13:30:52Z</time></trkpt>
<trkpt lat="46.07191" lon="6.95483"><ele></ele><time>2021-8-27T13:30:55Z</time></trkpt>
<trkpt lat="46.07215" lon="6.95489"><ele></ele><time>2021-8-27T13:30:58Z</time></trkpt>
<trkpt lat="46.07234" lon="6.95491"><ele></ele><time>2021-8-27T13:31:1Z</time></trkpt>
<trkpt lat="46.07252" lon="6.95495"><ele></ele><time>2021-8-27T13:31:4Z</time></trkpt>
<trkpt lat="46.07271" lon="6.95496"><ele></ele><time>2021-8-27T13:31:7Z</time></trkpt>
<trkpt lat="46.0729" lon="6.95501"><ele></ele><time>2021-8-27T13:31:10Z</time></trkpt>
<trkpt lat="46.07306" lon="6.95514"><ele></ele><time>2021-8-27T13:31:13Z</time></trkpt>
<trkpt lat="46.07314" lon="6.95519"><ele></ele><time>2021-8-27T13:31:16Z</time></trkpt>
<trkpt lat="46.07325" lon="6.95522"><ele></ele><time>2021-8-27T13:31:19Z</time></trkpt>
<trkpt lat="46.07331" lon="6.95521"><ele></ele><time>2021-8-27T13:31:22Z</time></trkpt>
<trkpt lat="46.07349" lon="6.95518"><ele></ele><time>2021-8-27T13:31:25Z</time></trkpt>
<trkpt lat="46.07368" lon="6.95516"><ele></ele><time>2021-8-27T13:31:28Z</time></trkpt>
<trkpt lat="46.07382" lon="6.9552"><ele></ele><time>2021-8-27T13:31:31Z</time></trkpt>
<trkpt lat="46.07395" lon="6.95526"><ele></ele><time>2021-8-27T13:31:34Z</time></trkpt>
<trkpt lat="46.07399" lon="6.95529"><ele></ele><time>2021-8-27T13:31:37Z</time></trkpt>
<trkpt lat="46.07418" lon="6.95546"><ele></ele><time>2021-8-27T13:31:40Z</time></trkpt>
<trkpt lat="46.07434" lon="6.95559"><ele></ele><time>2021-8-27T13:31:43Z</time></trkpt>
<trkpt lat="46.07451" lon="6.95566"><ele></ele><time>2021-8-27T13:31:46Z</time></trkpt>
<trkpt lat="46.0747" lon="6.9557"><ele></ele><time>2021-8-27T13:31:49Z</time></trkpt>
<trkpt lat="46.07488" lon="6.95575"><ele></ele><time>2021-8-27T13:31:52Z</time></trkpt>
<trkpt lat="46.07506" lon="6.95585"><ele></ele><time>2021-8-27T13:31:55Z</time></trkpt>
<trkpt lat="46.07523" lon="6.95615"><ele></ele><time>2021-8-27T13:31:58Z</time></trkpt>
<trkpt lat="46.07541" lon="6.95621"><ele></ele><time>2021-8-27T13:32:1Z</time></trkpt>
<trkpt lat="46.0754" lon="6.956"><ele></ele><time>2021-8-27T13:32:4Z</time></trkpt>
<trkpt lat="46.07539" lon="6.95598"><ele></ele><time>2021-8-27T13:32:7Z</time></trkpt>
<trkpt lat="46.07533" lon="6.95595"><ele></ele><time>2021-8-27T13:32:10Z</time></trkpt>
<trkpt lat="46.07524" lon="6.95596"><ele></ele><time>2021-8-27T13:32:13Z</time></trkpt>
<trkpt lat="46.07522" lon="6.95593"><ele></ele><time>2021-8-27T13:32:16Z</time></trkpt>
<trkpt lat="46.07522" lon="6.95594"><ele></ele><time>2021-8-27T13:32:19Z</time></trkpt>
<trkpt lat="46.07522" lon="6.95593"><ele></ele><time>2021-8-27T13:32:22Z</time></trkpt>
<trkpt lat="46.07522" lon="6.95593"><ele></ele><time>2021-8-27T13:32:25Z</time></trkpt>
<trkpt lat="46.07522" lon="6.95592"><ele></ele><time>2021-8-27T13:32:28Z</time></trkpt>
<trkpt lat="46.07523" lon="6.95591"><ele></ele><time>2021-8-27T13:32:31Z</time></trkpt>
<trkpt lat="46.07524" lon="6.9559"><ele></ele><time>2021-8-27T13:32:34Z</time></trkpt>
<trkpt lat="46.07524" lon="6.9559"><ele></ele><time>2021-8-27T13:32:37Z</time></trkpt>
<trkpt lat="46.07524" lon="6.9559"><ele></ele><time>2021-8-27T13:32:40Z</time></trkpt>
<trkpt lat="46.07517" lon="6.9557"><ele></ele><time>2021-8-27T13:32:43Z</time></trkpt>
<trkpt lat="46.075" lon="6.95559"><ele></ele><time>2021-8-27T13:32:46Z</time></trkpt>
<trkpt lat="46.07489" lon="6.95554"><ele></ele><time>2021-8-27T13:32:49Z</time></trkpt>
<trkpt lat="46.07484" lon="6.95552"><ele></ele><time>2021-8-27T13:32:52Z</time></trkpt>
<trkpt lat="46.07467" lon="6.95541"><ele></ele><time>2021-8-27T13:32:55Z</time></trkpt>
<trkpt lat="46.07456" lon="6.95532"><ele></ele><time>2021-8-27T13:32:58Z</time></trkpt>
<trkpt lat="46.07444" lon="6.95516"><ele></ele><time>2021-8-27T13:33:1Z</time></trkpt>
<trkpt lat="46.07436" lon="6.95505"><ele></ele><time>2021-8-27T13:33:4Z</time></trkpt>
<trkpt lat="46.07427" lon="6.95492"><ele></ele><time>2021-8-27T13:33:7Z</time></trkpt>
<trkpt lat="46.07417" lon="6.95471"><ele></ele><time>2021-8-27T13:33:10Z</time></trkpt>
<trkpt lat="46.07404" lon="6.95451"><ele></ele><time>2021-8-27T13:33:13Z</time></trkpt>
<trkpt lat="46.07382" lon="6.95434"><ele></ele><time>2021-8-27T13:33:16Z</time></trkpt>
<trkpt lat="46.07366" lon="6.95421"><ele></ele><time>2021-8-27T13:33:19Z</time></trkpt>
<trkpt lat="46.07355" lon="6.95405"><ele></ele><time>2021-8-27T13:33:22Z</time></trkpt>
<trkpt lat="46.0735" lon="6.95388"><ele></ele><time>2021-8-27T13:33:25Z</time></trkpt>
<trkpt lat="46.07341" lon="6.95356"><ele></ele><time>2021-8-27T13:33:28Z</time></trkpt>
<trkpt lat="46.07329" lon="6.95335"><ele></ele><time>2021-8-27T13:33:31Z</time></trkpt>
<trkpt lat="46.07314" lon="6.95319"><ele></ele><time>2021-8-27T13:33:34Z</time></trkpt>
<trkpt lat="46.07301" lon="6.95311"><ele></ele><time>2021-8-27T13:33:37Z</time></trkpt>
<trkpt lat="46.07285" lon="6.95308"><ele></ele><time>2021-8-27T13:33:40Z</time></trkpt>
<trkpt lat="46.07281" lon="6.95305"><ele></ele><time>2021-8-27T13:33:43Z</time></trkpt>
<trkpt lat="46.07257" lon="6.95294"><ele></ele><time>2021-8-27T13:33:46Z</time></trkpt>
<trkpt lat="46.07241" lon="6.9528"><ele></ele><time>2021-8-27T13:33:49Z</time></trkpt>
<trkpt lat="46.07226" lon="6.95263"><ele></ele><time>2021-8-27T13:33:52Z</time></trkpt>
<trkpt lat="46.07223" lon="6.95258"><ele></ele><time>2021-8-27T13:33:55Z</time></trkpt>
<trkpt lat="46.07217" lon="6.95249"><ele></ele><time>2021-8-27T13:33:58Z</time></trkpt>
<trkpt lat="46.07205" lon="6.95229"><ele></ele><time>2021-8-27T13:34:1Z</time></trkpt>
<trkpt lat="46.07201" lon="6.95225"><ele></ele><time>2021-8-27T13:34:4Z</time></trkpt>
<trkpt lat="46.07196" lon="6.9522"><ele></ele><time>2021-8-27T13:34:7Z</time></trkpt>
<trkpt lat="46.07187" lon="6.95212"><ele></ele><time>2021-8-27T13:34:10Z</time></trkpt>
<trkpt lat="46.07174" lon="6.95195"><ele></ele><time>2021-8-27T13:34:13Z</time></trkpt>
<trkpt lat="46.07163" lon="6.95175"><ele></ele><time>2021-8-27T13:34:16Z</time></trkpt>
<trkpt lat="46.0715" lon="6.95156"><ele></ele><time>2021-8-27T13:34:19Z</time></trkpt>
<trkpt lat="46.07137" lon="6.95136"><ele></ele><time>2021-8-27T13:34:22Z</time></trkpt>
<trkpt lat="46.07123" lon="6.95117"><ele></ele><time>2021-8-27T13:34:25Z</time></trkpt>
<trkpt lat="46.07116" lon="6.95105"><ele></ele><time>2021-8-27T13:34:28Z</time></trkpt>
<trkpt lat="46.07101" lon="6.95078"><ele></ele><time>2021-8-27T13:34:31Z</time></trkpt>
<trkpt lat="46.07087" lon="6.95061"><ele></ele><time>2021-8-27T13:34:34Z</time></trkpt>
<trkpt lat="46.07086" lon="6.95048"><ele></ele><time>2021-8-27T13:34:37Z</time></trkpt>
<trkpt lat="46.07099" lon="6.95058"><ele></ele><time>2021-8-27T13:34:40Z</time></trkpt>
<trkpt lat="46.07112" lon="6.95079"><ele></ele><time>2021-8-27T13:34:43Z</time></trkpt>
<trkpt lat="46.07125" lon="6.95099"><ele></ele><time>2021-8-27T13:34:46Z</time></trkpt>
<trkpt lat="46.07139" lon="6.95115"><ele></ele><time>2021-8-27T13:34:49Z</time></trkpt>
<trkpt lat="46.07153" lon="6.95127"><ele></ele><time>2021-8-27T13:34:52Z</time></trkpt>
<trkpt lat="46.07156" lon="6.95129"><ele></ele><time>2021-8-27T13:34:55Z</time></trkpt>
<trkpt lat="46.07164" lon="6.95135"><ele></ele><time>2021-8-27T13:34:58Z</time></trkpt>
<trkpt lat="46.0717" lon="6.95139"><ele></ele><time>2021-8-27T13:35:1Z</time></trkpt>
<trkpt lat="46.07183" lon="6.9515"><ele></ele><time>2021-8-27T13:35:4Z</time></trkpt>
<trkpt lat="46.07189" lon="6.95157"><ele></ele><time>2021-8-27T13:35:7Z</time></trkpt>
<trkpt lat="46.07199" lon="6.95161"><ele></ele><time>2021-8-27T13:35:10Z</time></trkpt>
<trkpt lat="46.07207" lon="6.95165"><ele></ele><time>2021-8-27T13:35:13Z</time></trkpt>
<trkpt lat="46.07213" lon="6.95168"><ele></ele><time>2021-8-27T13:35:16Z</time></trkpt>
<trkpt lat="46.07229" lon="6.95175"><ele></ele><time>2021-8-27T13:35:19Z</time></trkpt>
<trkpt lat="46.07235" lon="6.95177"><ele></ele><time>2021-8-27T13:35:22Z</time></trkpt>
<trkpt lat="46.07239" lon="6.95177"><ele></ele><time>2021-8-27T13:35:25Z</time></trkpt>
<trkpt lat="46.07262" lon="6.95178"><ele></ele><time>2021-8-27T13:35:28Z</time></trkpt>
<trkpt lat="46.07276" lon="6.9518"><ele></ele><time>2021-8-27T13:35:31Z</time></trkpt>
<trkpt lat="46.07295" lon="6.95183"><ele></ele><time>2021-8-27T13:35:34Z</time></trkpt>
<trkpt lat="46.07314" lon="6.95181"><ele></ele><time>2021-8-27T13:35:37Z</time></trkpt>
<trkpt lat="46.07333" lon="6.95174"><ele></ele><time>2021-8-27T13:35:40Z</time></trkpt>
<trkpt lat="46.07351" lon="6.95173"><ele></ele><time>2021-8-27T13:35:43Z</time></trkpt>
<trkpt lat="46.07372" lon="6.95186"><ele></ele><time>2021-8-27T13:35:46Z</time></trkpt>
<trkpt lat="46.07373" lon="6.95187"><ele></ele><time>2021-8-27T13:35:49Z</time></trkpt>
<trkpt lat="46.07384" lon="6.952"><ele></ele><time>2021-8-27T13:35:52Z</time></trkpt>
<trkpt lat="46.07385" lon="6.95201"><ele></ele><time>2021-8-27T13:35:55Z</time></trkpt>
<trkpt lat="46.07391" lon="6.95214"><ele></ele><time>2021-8-27T13:35:58Z</time></trkpt>
<trkpt lat="46.07403" lon="6.95236"><ele></ele><time>2021-8-27T13:36:1Z</time></trkpt>
<trkpt lat="46.07424" lon="6.95256"><ele></ele><time>2021-8-27T13:36:4Z</time></trkpt>
<trkpt lat="46.07427" lon="6.95257"><ele></ele><time>2021-8-27T13:36:7Z</time></trkpt>
<trkpt lat="46.07442" lon="6.9526"><ele></ele><time>2021-8-27T13:36:10Z</time></trkpt>
<trkpt lat="46.07461" lon="6.95263"><ele></ele><time>2021-8-27T13:36:13Z</time></trkpt>
<trkpt lat="46.07479" lon="6.95265"><ele></ele><time>2021-8-27T13:36:16Z</time></trkpt>
<trkpt lat="46.07497" lon="6.95269"><ele></ele><time>2021-8-27T13:36:19Z</time></trkpt>
<trkpt lat="46.07516" lon="6.95276"><ele></ele><time>2021-8-27T13:36:22Z</time></trkpt>
<trkpt lat="46.07539" lon="6.95287"><ele></ele><time>2021-8-27T13:36:25Z</time></trkpt>
<trkpt lat="46.07556" lon="6.95292"><ele></ele><time>2021-8-27T13:36:28Z</time></trkpt>
<trkpt lat="46.07567" lon="6.95298"><ele></ele><time>2021-8-27T13:36:31Z</time></trkpt>
<trkpt lat="46.07582" lon="6.95305"><ele></ele><time>2021-8-27T13:36:34Z</time></trkpt>
<trkpt lat="46.07592" lon="6.95311"><ele></ele><time>2021-8-27T13:36:37Z</time></trkpt>
<trkpt lat="46.07602" lon="6.95318"><ele></ele><time>2021-8-27T13:36:40Z</time></trkpt>
<trkpt lat="46.07624" lon="6.95327"><ele></ele><time>2021-8-27T13:36:43Z</time></trkpt>
<trkpt lat="46.07638" lon="6.95334"><ele></ele><time>2021-8-27T13:36:46Z</time></trkpt>
<trkpt lat="46.07641" lon="6.95335"><ele></ele><time>2021-8-27T13:36:49Z</time></trkpt>
<trkpt lat="46.07656" lon="6.95352"><ele></ele><time>2021-8-27T13:36:52Z</time></trkpt>
<trkpt lat="46.07657" lon="6.95353"><ele></ele><time>2021-8-27T13:36:55Z</time></trkpt>
<trkpt lat="46.07661" lon="6.95363"><ele></ele><time>2021-8-27T13:36:58Z</time></trkpt>
<trkpt lat="46.07674" lon="6.95382"><ele></ele><time>2021-8-27T13:37:1Z</time></trkpt>
<trkpt lat="46.0769" lon="6.95408"><ele></ele><time>2021-8-27T13:37:4Z</time></trkpt>
<trkpt lat="46.07692" lon="6.95412"><ele></ele><time>2021-8-27T13:37:7Z</time></trkpt>
<trkpt lat="46.07695" lon="6.9542"><ele></ele><time>2021-8-27T13:37:10Z</time></trkpt>
<trkpt lat="46.0771" lon="6.95434"><ele></ele><time>2021-8-27T13:37:13Z</time></trkpt>
<trkpt lat="46.07726" lon="6.95446"><ele></ele><time>2021-8-27T13:37:16Z</time></trkpt>
<trkpt lat="46.07743" lon="6.95459"><ele></ele><time>2021-8-27T13:37:19Z</time></trkpt>
<trkpt lat="46.07746" lon="6.9546"><ele></ele><time>2021-8-27T13:37:22Z</time></trkpt>
<trkpt lat="46.07747" lon="6.95434"><ele></ele><time>2021-8-27T13:37:25Z</time></trkpt>
<trkpt lat="46.07731" lon="6.95418"><ele></ele><time>2021-8-27T13:37:28Z</time></trkpt>
<trkpt lat="46.07718" lon="6.95402"><ele></ele><time>2021-8-27T13:37:31Z</time></trkpt>
<trkpt lat="46.07704" lon="6.95383"><ele></ele><time>2021-8-27T13:37:34Z</time></trkpt>
<trkpt lat="46.07696" lon="6.95358"><ele></ele><time>2021-8-27T13:37:37Z</time></trkpt>
<trkpt lat="46.07696" lon="6.95356"><ele></ele><time>2021-8-27T13:37:40Z</time></trkpt>
<trkpt lat="46.07694" lon="6.95342"><ele></ele><time>2021-8-27T13:37:43Z</time></trkpt>
<trkpt lat="46.0769" lon="6.95324"><ele></ele><time>2021-8-27T13:37:46Z</time></trkpt>
<trkpt lat="46.07683" lon="6.953"><ele></ele><time>2021-8-27T13:37:49Z</time></trkpt>
<trkpt lat="46.07669" lon="6.95273"><ele></ele><time>2021-8-27T13:37:52Z</time></trkpt>
<trkpt lat="46.07662" lon="6.95262"><ele></ele><time>2021-8-27T13:37:55Z</time></trkpt>
<trkpt lat="46.07645" lon="6.95249"><ele></ele><time>2021-8-27T13:37:58Z</time></trkpt>
<trkpt lat="46.07631" lon="6.95233"><ele></ele><time>2021-8-27T13:38:1Z</time></trkpt>
<trkpt lat="46.07616" lon="6.95217"><ele></ele><time>2021-8-27T13:38:4Z</time></trkpt>
<trkpt lat="46.07607" lon="6.95208"><ele></ele><time>2021-8-27T13:38:7Z</time></trkpt>
<trkpt lat="46.07594" lon="6.95189"><ele></ele><time>2021-8-27T13:38:10Z</time></trkpt>
<trkpt lat="46.07572" lon="6.95163"><ele></ele><time>2021-8-27T13:38:13Z</time></trkpt>
<trkpt lat="46.07555" lon="6.95149"><ele></ele><time>2021-8-27T13:38:16Z</time></trkpt>
<trkpt lat="46.07549" lon="6.95146"><ele></ele><time>2021-8-27T13:38:19Z</time></trkpt>
<trkpt lat="46.07543" lon="6.95146"><ele></ele><time>2021-8-27T13:38:22Z</time></trkpt>
<trkpt lat="46.07531" lon="6.95141"><ele></ele><time>2021-8-27T13:38:25Z</time></trkpt>
<trkpt lat="46.07524" lon="6.95134"><ele></ele><time>2021-8-27T13:38:28Z</time></trkpt>
<trkpt lat="46.07517" lon="6.95128"><ele></ele><time>2021-8-27T13:38:31Z</time></trkpt>
<trkpt lat="46.07514" lon="6.95125"><ele></ele><time>2021-8-27T13:38:34Z</time></trkpt>
<trkpt lat="46.07515" lon="6.95124"><ele></ele><time>2021-8-27T13:38:37Z</time></trkpt>
<trkpt lat="46.07515" lon="6.95124"><ele></ele><time>2021-8-27T13:38:40Z</time></trkpt>
<trkpt lat="46.07515" lon="6.95124"><ele></ele><time>2021-8-27T13:38:43Z</time></trkpt>
<trkpt lat="46.07515" lon="6.95124"><ele></ele><time>2021-8-27T13:38:46Z</time></trkpt>
<trkpt lat="46.07515" lon="6.95123"><ele></ele><time>2021-8-27T13:38:49Z</time></trkpt>
<trkpt lat="46.07503" lon="6.95103"><ele></ele><time>2021-8-27T13:38:52Z</time></trkpt>
<trkpt lat="46.07494" lon="6.95082"><ele></ele><time>2021-8-27T13:38:55Z</time></trkpt>
<trkpt lat="46.07491" lon="6.95078"><ele></ele><time>2021-8-27T13:38:58Z</time></trkpt>
<trkpt lat="46.07487" lon="6.95073"><ele></ele><time>2021-8-27T13:39:1Z</time></trkpt>
<trkpt lat="46.07484" lon="6.95068"><ele></ele><time>2021-8-27T13:39:4Z</time></trkpt>
<trkpt lat="46.07478" lon="6.95059"><ele></ele><time>2021-8-27T13:39:7Z</time></trkpt>
<trkpt lat="46.07467" lon="6.95038"><ele></ele><time>2021-8-27T13:39:10Z</time></trkpt>
<trkpt lat="46.07458" lon="6.95014"><ele></ele><time>2021-8-27T13:39:13Z</time></trkpt>
<trkpt lat="46.07451" lon="6.9499"><ele></ele><time>2021-8-27T13:39:16Z</time></trkpt>
<trkpt lat="46.07443" lon="6.94968"><ele></ele><time>2021-8-27T13:39:19Z</time></trkpt>
<trkpt lat="46.07431" lon="6.94948"><ele></ele><time>2021-8-27T13:39:22Z</time></trkpt>
<trkpt lat="46.0742" lon="6.94928"><ele></ele><time>2021-8-27T13:39:25Z</time></trkpt>
<trkpt lat="46.07405" lon="6.94914"><ele></ele><time>2021-8-27T13:39:28Z</time></trkpt>
<trkpt lat="46.07398" lon="6.9491"><ele></ele><time>2021-8-27T13:39:31Z</time></trkpt>
<trkpt lat="46.07383" lon="6.94898"><ele></ele><time>2021-8-27T13:39:34Z</time></trkpt>
<trkpt lat="46.0737" lon="6.94877"><ele></ele><time>2021-8-27T13:39:37Z</time></trkpt>
<trkpt lat="46.07369" lon="6.94876"><ele></ele><time>2021-8-27T13:39:40Z</time></trkpt>
<trkpt lat="46.07357" lon="6.94854"><ele></ele><time>2021-8-27T13:39:43Z</time></trkpt>
<trkpt lat="46.07343" lon="6.94836"><ele></ele><time>2021-8-27T13:39:46Z</time></trkpt>
<trkpt lat="46.0733" lon="6.94806"><ele></ele><time>2021-8-27T13:39:49Z</time></trkpt>
<trkpt lat="46.07319" lon="6.94784"><ele></ele><time>2021-8-27T13:39:52Z</time></trkpt>
<trkpt lat="46.07311" lon="6.94759"><ele></ele><time>2021-8-27T13:39:55Z</time></trkpt>
<trkpt lat="46.07305" lon="6.94737"><ele></ele><time>2021-8-27T13:39:58Z</time></trkpt>
<trkpt lat="46.07302" lon="6.9471"><ele></ele><time>2021-8-27T13:40:1Z</time></trkpt>
<trkpt lat="46.07293" lon="6.94686"><ele></ele><time>2021-8-27T13:40:4Z</time></trkpt>
<trkpt lat="46.07284" lon="6.94667"><ele></ele><time>2021-8-27T13:40:7Z</time></trkpt>
<trkpt lat="46.07273" lon="6.94646"><ele></ele><time>2021-8-27T13:40:10Z</time></trkpt>
<trkpt lat="46.07272" lon="6.94645"><ele></ele><time>2021-8-27T13:40:13Z</time></trkpt>
<trkpt lat="46.07267" lon="6.94637"><ele></ele><time>2021-8-27T13:40:16Z</time></trkpt>
<trkpt lat="46.07253" lon="6.94619"><ele></ele><time>2021-8-27T13:40:19Z</time></trkpt>
<trkpt lat="46.07238" lon="6.94603"><ele></ele><time>2021-8-27T13:40:22Z</time></trkpt>
<trkpt lat="46.07225" lon="6.94588"><ele></ele><time>2021-8-27T13:40:25Z</time></trkpt>
<trkpt lat="46.07208" lon="6.94575"><ele></ele><time>2021-8-27T13:40:28Z</time></trkpt>
<trkpt lat="46.07206" lon="6.94573"><ele></ele><time>2021-8-27T13:40:31Z</time></trkpt>
<trkpt lat="46.07192" lon="6.94567"><ele></ele><time>2021-8-27T13:40:34Z</time></trkpt>
<trkpt lat="46.07187" lon="6.94561"><ele></ele><time>2021-8-27T13:40:37Z</time></trkpt>
<trkpt lat="46.07175" lon="6.9454"><ele></ele><time>2021-8-27T13:40:40Z</time></trkpt>
<trkpt lat="46.07166" lon="6.94517"><ele></ele><time>2021-8-27T13:40:43Z</time></trkpt>
<trkpt lat="46.07158" lon="6.94493"><ele></ele><time>2021-8-27T13:40:46Z</time></trkpt>
<trkpt lat="46.0715" lon="6.9446"><ele></ele><time>2021-8-27T13:40:49Z</time></trkpt>
<trkpt lat="46.07142" lon="6.94436"><ele></ele><time>2021-8-27T13:40:52Z</time></trkpt>
<trkpt lat="46.0713" lon="6.94415"><ele></ele><time>2021-8-27T13:40:55Z</time></trkpt>
<trkpt lat="46.07123" lon="6.94399"><ele></ele><time>2021-8-27T13:40:58Z</time></trkpt>
<trkpt lat="46.07118" lon="6.94391"><ele></ele><time>2021-8-27T13:41:1Z</time></trkpt>
<trkpt lat="46.07114" lon="6.9438"><ele></ele><time>2021-8-27T13:41:4Z</time></trkpt>
<trkpt lat="46.07106" lon="6.94357"><ele></ele><time>2021-8-27T13:41:7Z</time></trkpt>
<trkpt lat="46.07092" lon="6.94328"><ele></ele><time>2021-8-27T13:41:10Z</time></trkpt>
<trkpt lat="46.07088" lon="6.94319"><ele></ele><time>2021-8-27T13:41:13Z</time></trkpt>
<trkpt lat="46.0708" lon="6.94312"><ele></ele><time>2021-8-27T13:41:16Z</time></trkpt>
<trkpt lat="46.07065" lon="6.94295"><ele></ele><time>2021-8-27T13:41:19Z</time></trkpt>
<trkpt lat="46.07049" lon="6.94281"><ele></ele><time>2021-8-27T13:41:22Z</time></trkpt>
<trkpt lat="46.07043" lon="6.94267"><ele></ele><time>2021-8-27T13:41:25Z</time></trkpt>
<trkpt lat="46.07038" lon="6.94249"><ele></ele><time>2021-8-27T13:41:28Z</time></trkpt>
<trkpt lat="46.07033" lon="6.94224"><ele></ele><time>2021-8-27T13:41:31Z</time></trkpt>
<trkpt lat="46.0702" lon="6.94203"><ele></ele><time>2021-8-27T13:41:34Z</time></trkpt>
<trkpt lat="46.0701" lon="6.9418"><ele></ele><time>2021-8-27T13:41:37Z</time></trkpt>
<trkpt lat="46.07003" lon="6.94154"><ele></ele><time>2021-8-27T13:41:40Z</time></trkpt>
<trkpt lat="46.06992" lon="6.94132"><ele></ele><time>2021-8-27T13:41:43Z</time></trkpt>
<trkpt lat="46.0698" lon="6.94111"><ele></ele><time>2021-8-27T13:41:46Z</time></trkpt>
<trkpt lat="46.06971" lon="6.94088"><ele></ele><time>2021-8-27T13:41:49Z</time></trkpt>
<trkpt lat="46.06961" lon="6.94057"><ele></ele><time>2021-8-27T13:41:52Z</time></trkpt>
<trkpt lat="46.06954" lon="6.94031"><ele></ele><time>2021-8-27T13:41:55Z</time></trkpt>
<trkpt lat="46.06948" lon="6.94013"><ele></ele><time>2021-8-27T13:41:58Z</time></trkpt>
<trkpt lat="46.06942" lon="6.93988"><ele></ele><time>2021-8-27T13:42:1Z</time></trkpt>
<trkpt lat="46.06935" lon="6.93955"><ele></ele><time>2021-8-27T13:42:4Z</time></trkpt>
<trkpt lat="46.06929" lon="6.93933"><ele></ele><time>2021-8-27T13:42:7Z</time></trkpt>
<trkpt lat="46.06927" lon="6.93915"><ele></ele><time>2021-8-27T13:42:10Z</time></trkpt>
<trkpt lat="46.06923" lon="6.93889"><ele></ele><time>2021-8-27T13:42:13Z</time></trkpt>
<trkpt lat="46.06921" lon="6.93864"><ele></ele><time>2021-8-27T13:42:16Z</time></trkpt>
<trkpt lat="46.06917" lon="6.93838"><ele></ele><time>2021-8-27T13:42:19Z</time></trkpt>
<trkpt lat="46.06906" lon="6.93808"><ele></ele><time>2021-8-27T13:42:22Z</time></trkpt>
<trkpt lat="46.06897" lon="6.93784"><ele></ele><time>2021-8-27T13:42:25Z</time></trkpt>
<trkpt lat="46.06885" lon="6.93764"><ele></ele><time>2021-8-27T13:42:28Z</time></trkpt>
<trkpt lat="46.06884" lon="6.93763"><ele></ele><time>2021-8-27T13:42:31Z</time></trkpt>
<trkpt lat="46.06881" lon="6.9376"><ele></ele><time>2021-8-27T13:42:34Z</time></trkpt>
<trkpt lat="46.06879" lon="6.93755"><ele></ele><time>2021-8-27T13:42:37Z</time></trkpt>
<trkpt lat="46.06866" lon="6.93735"><ele></ele><time>2021-8-27T13:42:40Z</time></trkpt>
<trkpt lat="46.06851" lon="6.93706"><ele></ele><time>2021-8-27T13:42:43Z</time></trkpt>
<trkpt lat="46.06837" lon="6.93689"><ele></ele><time>2021-8-27T13:42:46Z</time></trkpt>
<trkpt lat="46.06822" lon="6.93672"><ele></ele><time>2021-8-27T13:42:49Z</time></trkpt>
<trkpt lat="46.06812" lon="6.9366"><ele></ele><time>2021-8-27T13:42:52Z</time></trkpt>
<trkpt lat="46.06803" lon="6.93651"><ele></ele><time>2021-8-27T13:42:55Z</time></trkpt>
<trkpt lat="46.06798" lon="6.93639"><ele></ele><time>2021-8-27T13:42:58Z</time></trkpt>
<trkpt lat="46.06797" lon="6.93632"><ele></ele><time>2021-8-27T13:43:1Z</time></trkpt>
<trkpt lat="46.06795" lon="6.93616"><ele></ele><time>2021-8-27T13:43:4Z</time></trkpt>
<trkpt lat="46.06796" lon="6.93602"><ele></ele><time>2021-8-27T13:43:7Z</time></trkpt>
<trkpt lat="46.06798" lon="6.93571"><ele></ele><time>2021-8-27T13:43:10Z</time></trkpt>
<trkpt lat="46.06798" lon="6.93562"><ele></ele><time>2021-8-27T13:43:13Z</time></trkpt>
<trkpt lat="46.06797" lon="6.93558"><ele></ele><time>2021-8-27T13:43:16Z</time></trkpt>
<trkpt lat="46.06797" lon="6.93558"><ele></ele><time>2021-8-27T13:43:19Z</time></trkpt>
<trkpt lat="46.06797" lon="6.93559"><ele></ele><time>2021-8-27T13:43:22Z</time></trkpt>
<trkpt lat="46.06797" lon="6.93559"><ele></ele><time>2021-8-27T13:43:25Z</time></trkpt>
<trkpt lat="46.06798" lon="6.9356"><ele></ele><time>2021-8-27T13:43:28Z</time></trkpt>
<trkpt lat="46.06801" lon="6.93572"><ele></ele><time>2021-8-27T13:43:31Z</time></trkpt>
<trkpt lat="46.06802" lon="6.93572"><ele></ele><time>2021-8-27T13:43:34Z</time></trkpt>
<trkpt lat="46.06802" lon="6.93571"><ele></ele><time>2021-8-27T13:43:37Z</time></trkpt>
<trkpt lat="46.06802" lon="6.93571"><ele></ele><time>2021-8-27T13:43:40Z</time></trkpt>
<trkpt lat="46.06802" lon="6.93571"><ele></ele><time>2021-8-27T13:43:43Z</time></trkpt>
<trkpt lat="46.06801" lon="6.93571"><ele></ele><time>2021-8-27T13:43:46Z</time></trkpt>
<trkpt lat="46.06801" lon="6.9357"><ele></ele><time>2021-8-27T13:43:49Z</time></trkpt>
<trkpt lat="46.06801" lon="6.9357"><ele></ele><time>2021-8-27T13:43:52Z</time></trkpt>
<trkpt lat="46.06801" lon="6.93569"><ele></ele><time>2021-8-27T13:43:55Z</time></trkpt>
<trkpt lat="46.06801" lon="6.93568"><ele></ele><time>2021-8-27T13:43:58Z</time></trkpt>
<trkpt lat="46.06798" lon="6.93593"><ele></ele><time>2021-8-27T13:44:1Z</time></trkpt>
<trkpt lat="46.06798" lon="6.93599"><ele></ele><time>2021-8-27T13:44:4Z</time></trkpt>
<trkpt lat="46.06798" lon="6.93611"><ele></ele><time>2021-8-27T13:44:7Z</time></trkpt>
<trkpt lat="46.06795" lon="6.93638"><ele></ele><time>2021-8-27T13:44:10Z</time></trkpt>
<trkpt lat="46.06789" lon="6.93657"><ele></ele><time>2021-8-27T13:44:13Z</time></trkpt>
<trkpt lat="46.06781" lon="6.93679"><ele></ele><time>2021-8-27T13:44:16Z</time></trkpt>
<trkpt lat="46.06772" lon="6.9369"><ele></ele><time>2021-8-27T13:44:19Z</time></trkpt>
<trkpt lat="46.06762" lon="6.93716"><ele></ele><time>2021-8-27T13:44:22Z</time></trkpt>
<trkpt lat="46.06754" lon="6.93729"><ele></ele><time>2021-8-27T13:44:25Z</time></trkpt>
<trkpt lat="46.0674" lon="6.93745"><ele></ele><time>2021-8-27T13:44:28Z</time></trkpt>
<trkpt lat="46.06723" lon="6.93764"><ele></ele><time>2021-8-27T13:44:31Z</time></trkpt>
<trkpt lat="46.06711" lon="6.93767"><ele></ele><time>2021-8-27T13:44:34Z</time></trkpt>
<trkpt lat="46.06715" lon="6.93743"><ele></ele><time>2021-8-27T13:44:37Z</time></trkpt>
<trkpt lat="46.06724" lon="6.93727"><ele></ele><time>2021-8-27T13:44:40Z</time></trkpt>
<trkpt lat="46.06726" lon="6.9372"><ele></ele><time>2021-8-27T13:44:43Z</time></trkpt>
<trkpt lat="46.06729" lon="6.93713"><ele></ele><time>2021-8-27T13:44:46Z</time></trkpt>
<trkpt lat="46.06735" lon="6.9369"><ele></ele><time>2021-8-27T13:44:49Z</time></trkpt>
<trkpt lat="46.06742" lon="6.93662"><ele></ele><time>2021-8-27T13:44:52Z</time></trkpt>
<trkpt lat="46.06745" lon="6.93642"><ele></ele><time>2021-8-27T13:44:55Z</time></trkpt>
<trkpt lat="46.0674" lon="6.93617"><ele></ele><time>2021-8-27T13:44:58Z</time></trkpt>
<trkpt lat="46.06738" lon="6.9361"><ele></ele><time>2021-8-27T13:45:1Z</time></trkpt>
<trkpt lat="46.06736" lon="6.93603"><ele></ele><time>2021-8-27T13:45:4Z</time></trkpt>
<trkpt lat="46.06735" lon="6.93574"><ele></ele><time>2021-8-27T13:45:7Z</time></trkpt>
<trkpt lat="46.06742" lon="6.93549"><ele></ele><time>2021-8-27T13:45:10Z</time></trkpt>
<trkpt lat="46.06746" lon="6.93541"><ele></ele><time>2021-8-27T13:45:13Z</time></trkpt>
<trkpt lat="46.06749" lon="6.93532"><ele></ele><time>2021-8-27T13:45:16Z</time></trkpt>
<trkpt lat="46.06746" lon="6.93506"><ele></ele><time>2021-8-27T13:45:19Z</time></trkpt>
<trkpt lat="46.06748" lon="6.93492"><ele></ele><time>2021-8-27T13:45:22Z</time></trkpt>
<trkpt lat="46.06753" lon="6.93486"><ele></ele><time>2021-8-27T13:45:25Z</time></trkpt>
<trkpt lat="46.0677" lon="6.93472"><ele></ele><time>2021-8-27T13:45:28Z</time></trkpt>
<trkpt lat="46.06774" lon="6.93446"><ele></ele><time>2021-8-27T13:45:31Z</time></trkpt>
<trkpt lat="46.06782" lon="6.93419"><ele></ele><time>2021-8-27T13:45:34Z</time></trkpt>
<trkpt lat="46.06785" lon="6.93392"><ele></ele><time>2021-8-27T13:45:37Z</time></trkpt>
<trkpt lat="46.06785" lon="6.93363"><ele></ele><time>2021-8-27T13:45:40Z</time></trkpt>
<trkpt lat="46.06783" lon="6.93334"><ele></ele><time>2021-8-27T13:45:43Z</time></trkpt>
<trkpt lat="46.0678" lon="6.93306"><ele></ele><time>2021-8-27T13:45:46Z</time></trkpt>
<trkpt lat="46.06775" lon="6.93279"><ele></ele><time>2021-8-27T13:45:49Z</time></trkpt>
<trkpt lat="46.06773" lon="6.93269"><ele></ele><time>2021-8-27T13:45:52Z</time></trkpt>
<trkpt lat="46.06766" lon="6.93241"><ele></ele><time>2021-8-27T13:45:55Z</time></trkpt>
<trkpt lat="46.0676" lon="6.93225"><ele></ele><time>2021-8-27T13:45:58Z</time></trkpt>
<trkpt lat="46.0675" lon="6.932"><ele></ele><time>2021-8-27T13:46:1Z</time></trkpt>
<trkpt lat="46.0674" lon="6.93176"><ele></ele><time>2021-8-27T13:46:4Z</time></trkpt>
<trkpt lat="46.06727" lon="6.93155"><ele></ele><time>2021-8-27T13:46:7Z</time></trkpt>
<trkpt lat="46.06723" lon="6.93147"><ele></ele><time>2021-8-27T13:46:10Z</time></trkpt>
<trkpt lat="46.06702" lon="6.93127"><ele></ele><time>2021-8-27T13:46:13Z</time></trkpt>
<trkpt lat="46.06686" lon="6.93112"><ele></ele><time>2021-8-27T13:46:16Z</time></trkpt>
<trkpt lat="46.0668" lon="6.93108"><ele></ele><time>2021-8-27T13:46:19Z</time></trkpt>
<trkpt lat="46.0668" lon="6.93108"><ele></ele><time>2021-8-27T13:46:22Z</time></trkpt>
<trkpt lat="46.0668" lon="6.93109"><ele></ele><time>2021-8-27T13:46:25Z</time></trkpt>
<trkpt lat="46.0668" lon="6.93109"><ele></ele><time>2021-8-27T13:46:28Z</time></trkpt>
<trkpt lat="46.0668" lon="6.93109"><ele></ele><time>2021-8-27T13:46:31Z</time></trkpt>
<trkpt lat="46.06681" lon="6.93109"><ele></ele><time>2021-8-27T13:46:34Z</time></trkpt>
<trkpt lat="46.06681" lon="6.93109"><ele></ele><time>2021-8-27T13:46:37Z</time></trkpt>
<trkpt lat="46.06672" lon="6.93095"><ele></ele><time>2021-8-27T13:46:40Z</time></trkpt>
<trkpt lat="46.06642" lon="6.93078"><ele></ele><time>2021-8-27T13:46:43Z</time></trkpt>
<trkpt lat="46.06632" lon="6.93075"><ele></ele><time>2021-8-27T13:46:46Z</time></trkpt>
<trkpt lat="46.06614" lon="6.93058"><ele></ele><time>2021-8-27T13:46:49Z</time></trkpt>
<trkpt lat="46.06613" lon="6.93052"><ele></ele><time>2021-8-27T13:46:52Z</time></trkpt>
<trkpt lat="46.0661" lon="6.9303"><ele></ele><time>2021-8-27T13:46:55Z</time></trkpt>
<trkpt lat="46.06607" lon="6.93018"><ele></ele><time>2021-8-27T13:46:58Z</time></trkpt>
<trkpt lat="46.06596" lon="6.92992"><ele></ele><time>2021-8-27T13:47:1Z</time></trkpt>
<trkpt lat="46.06586" lon="6.92976"><ele></ele><time>2021-8-27T13:47:4Z</time></trkpt>
<trkpt lat="46.06578" lon="6.92966"><ele></ele><time>2021-8-27T13:47:7Z</time></trkpt>
<trkpt lat="46.06573" lon="6.9296"><ele></ele><time>2021-8-27T13:47:10Z</time></trkpt>
<trkpt lat="46.06558" lon="6.92942"><ele></ele><time>2021-8-27T13:47:13Z</time></trkpt>
<trkpt lat="46.06547" lon="6.92927"><ele></ele><time>2021-8-27T13:47:16Z</time></trkpt>
<trkpt lat="46.06549" lon="6.9291"><ele></ele><time>2021-8-27T13:47:19Z</time></trkpt>
<trkpt lat="46.06552" lon="6.92902"><ele></ele><time>2021-8-27T13:47:22Z</time></trkpt>
<trkpt lat="46.06554" lon="6.92891"><ele></ele><time>2021-8-27T13:47:25Z</time></trkpt>
<trkpt lat="46.06554" lon="6.92887"><ele></ele><time>2021-8-27T13:47:28Z</time></trkpt>
<trkpt lat="46.06558" lon="6.92869"><ele></ele><time>2021-8-27T13:47:31Z</time></trkpt>
<trkpt lat="46.06562" lon="6.92872"><ele></ele><time>2021-8-27T13:47:34Z</time></trkpt>
<trkpt lat="46.06563" lon="6.92873"><ele></ele><time>2021-8-27T13:47:37Z</time></trkpt>
<trkpt lat="46.06561" lon="6.92873"><ele></ele><time>2021-8-27T13:47:40Z</time></trkpt>
<trkpt lat="46.06561" lon="6.92875"><ele></ele><time>2021-8-27T13:47:43Z</time></trkpt>
<trkpt lat="46.06561" lon="6.92874"><ele></ele><time>2021-8-27T13:47:46Z</time></trkpt>
<trkpt lat="46.06561" lon="6.92875"><ele></ele><time>2021-8-27T13:47:49Z</time></trkpt>
<trkpt lat="46.06562" lon="6.92876"><ele></ele><time>2021-8-27T13:47:52Z</time></trkpt>
<trkpt lat="46.06562" lon="6.92875"><ele></ele><time>2021-8-27T13:47:55Z</time></trkpt>
<trkpt lat="46.06562" lon="6.92875"><ele></ele><time>2021-8-27T13:47:58Z</time></trkpt>
<trkpt lat="46.06563" lon="6.92876"><ele></ele><time>2021-8-27T13:48:1Z</time></trkpt>
<trkpt lat="46.06564" lon="6.92875"><ele></ele><time>2021-8-27T13:48:4Z</time></trkpt>
<trkpt lat="46.06564" lon="6.92875"><ele></ele><time>2021-8-27T13:48:7Z</time></trkpt>
<trkpt lat="46.06563" lon="6.92874"><ele></ele><time>2021-8-27T13:48:10Z</time></trkpt>
<trkpt lat="46.06563" lon="6.92875"><ele></ele><time>2021-8-27T13:48:13Z</time></trkpt>
<trkpt lat="46.06563" lon="6.92874"><ele></ele><time>2021-8-27T13:48:16Z</time></trkpt>
<trkpt lat="46.06564" lon="6.92874"><ele></ele><time>2021-8-27T13:48:19Z</time></trkpt>
<trkpt lat="46.06564" lon="6.92874"><ele></ele><time>2021-8-27T13:48:22Z</time></trkpt>
<trkpt lat="46.06564" lon="6.92874"><ele></ele><time>2021-8-27T13:48:25Z</time></trkpt>
<trkpt lat="46.06564" lon="6.92875"><ele></ele><time>2021-8-27T13:48:28Z</time></trkpt>
<trkpt lat="46.06564" lon="6.92875"><ele></ele><time>2021-8-27T13:48:31Z</time></trkpt>
<trkpt lat="46.06564" lon="6.92875"><ele></ele><time>2021-8-27T13:48:34Z</time></trkpt>
<trkpt lat="46.06563" lon="6.92876"><ele></ele><time>2021-8-27T13:48:37Z</time></trkpt>
<trkpt lat="46.06562" lon="6.92875"><ele></ele><time>2021-8-27T13:48:40Z</time></trkpt>
<trkpt lat="46.06562" lon="6.92875"><ele></ele><time>2021-8-27T13:48:43Z</time></trkpt>
<trkpt lat="46.06563" lon="6.92875"><ele></ele><time>2021-8-27T13:48:46Z</time></trkpt>
<trkpt lat="46.06563" lon="6.92875"><ele></ele><time>2021-8-27T13:48:49Z</time></trkpt>
<trkpt lat="46.06563" lon="6.92875"><ele></ele><time>2021-8-27T13:48:52Z</time></trkpt>
<trkpt lat="46.06563" lon="6.92875"><ele></ele><time>2021-8-27T13:48:55Z</time></trkpt>
<trkpt lat="46.06562" lon="6.92876"><ele></ele><time>2021-8-27T13:48:58Z</time></trkpt>
<trkpt lat="46.06562" lon="6.92876"><ele></ele><time>2021-8-27T13:49:1Z</time></trkpt>
<trkpt lat="46.06562" lon="6.92876"><ele></ele><time>2021-8-27T13:49:4Z</time></trkpt>
<trkpt lat="46.06562" lon="6.92876"><ele></ele><time>2021-8-27T13:49:7Z</time></trkpt>
<trkpt lat="46.06562" lon="6.92875"><ele></ele><time>2021-8-27T13:49:10Z</time></trkpt>
<trkpt lat="46.06562" lon="6.92875"><ele></ele><time>2021-8-27T13:49:13Z</time></trkpt>
<trkpt lat="46.06562" lon="6.92875"><ele></ele><time>2021-8-27T13:49:16Z</time></trkpt>
<trkpt lat="46.06562" lon="6.92875"><ele></ele><time>2021-8-27T13:49:19Z</time></trkpt>
<trkpt lat="46.06562" lon="6.92875"><ele></ele><time>2021-8-27T13:49:22Z</time></trkpt>
<trkpt lat="46.06562" lon="6.92875"><ele></ele><time>2021-8-27T13:49:25Z</time></trkpt>
<trkpt lat="46.06562" lon="6.92875"><ele></ele><time>2021-8-27T13:49:28Z</time></trkpt>
<trkpt lat="46.06561" lon="6.92876"><ele></ele><time>2021-8-27T13:49:31Z</time></trkpt>
<trkpt lat="46.06562" lon="6.92875"><ele></ele><time>2021-8-27T13:49:34Z</time></trkpt>
<trkpt lat="46.06562" lon="6.92875"><ele></ele><time>2021-8-27T13:49:37Z</time></trkpt>
<trkpt lat="46.06563" lon="6.92874"><ele></ele><time>2021-8-27T13:49:40Z</time></trkpt>
<trkpt lat="46.06564" lon="6.92874"><ele></ele><time>2021-8-27T13:49:43Z</time></trkpt>
<trkpt lat="46.06564" lon="6.92873"><ele></ele><time>2021-8-27T13:49:46Z</time></trkpt>
<trkpt lat="46.06563" lon="6.92874"><ele></ele><time>2021-8-27T13:49:49Z</time></trkpt>
<trkpt lat="46.06563" lon="6.92873"><ele></ele><time>2021-8-27T13:49:52Z</time></trkpt>
<trkpt lat="46.06563" lon="6.92874"><ele></ele><time>2021-8-27T13:49:55Z</time></trkpt>
<trkpt lat="46.06561" lon="6.92875"><ele></ele><time>2021-8-27T13:49:58Z</time></trkpt>
<trkpt lat="46.06563" lon="6.92874"><ele></ele><time>2021-8-27T13:50:1Z</time></trkpt>
<trkpt lat="46.06563" lon="6.92874"><ele></ele><time>2021-8-27T13:50:4Z</time></trkpt>
<trkpt lat="46.06563" lon="6.92875"><ele></ele><time>2021-8-27T13:50:7Z</time></trkpt>
<trkpt lat="46.06563" lon="6.92874"><ele></ele><time>2021-8-27T13:50:10Z</time></trkpt>
<trkpt lat="46.06562" lon="6.92873"><ele></ele><time>2021-8-27T13:50:13Z</time></trkpt>
<trkpt lat="46.06561" lon="6.92871"><ele></ele><time>2021-8-27T13:50:16Z</time></trkpt>
<trkpt lat="46.06559" lon="6.9287"><ele></ele><time>2021-8-27T13:50:19Z</time></trkpt>
<trkpt lat="46.06559" lon="6.9287"><ele></ele><time>2021-8-27T13:50:22Z</time></trkpt>
<trkpt lat="46.06559" lon="6.92871"><ele></ele><time>2021-8-27T13:50:25Z</time></trkpt>
<trkpt lat="46.06559" lon="6.92871"><ele></ele><time>2021-8-27T13:50:28Z</time></trkpt>
<trkpt lat="46.06557" lon="6.92869"><ele></ele><time>2021-8-27T13:50:31Z</time></trkpt>
<trkpt lat="46.06558" lon="6.92868"><ele></ele><time>2021-8-27T13:50:34Z</time></trkpt>
<trkpt lat="46.06557" lon="6.92869"><ele></ele><time>2021-8-27T13:50:37Z</time></trkpt>
<trkpt lat="46.06557" lon="6.92869"><ele></ele><time>2021-8-27T13:50:40Z</time></trkpt>
<trkpt lat="46.06557" lon="6.92869"><ele></ele><time>2021-8-27T13:50:43Z</time></trkpt>
<trkpt lat="46.06555" lon="6.92883"><ele></ele><time>2021-8-27T13:50:46Z</time></trkpt>
<trkpt lat="46.06554" lon="6.92889"><ele></ele><time>2021-8-27T13:50:49Z</time></trkpt>
<trkpt lat="46.06549" lon="6.92886"><ele></ele><time>2021-8-27T13:50:52Z</time></trkpt>
<trkpt lat="46.06549" lon="6.92882"><ele></ele><time>2021-8-27T13:50:55Z</time></trkpt>
<trkpt lat="46.06545" lon="6.92834"><ele></ele><time>2021-8-27T13:50:58Z</time></trkpt>
<trkpt lat="46.06535" lon="6.92809"><ele></ele><time>2021-8-27T13:51:1Z</time></trkpt>
<trkpt lat="46.06519" lon="6.92796"><ele></ele><time>2021-8-27T13:51:4Z</time></trkpt>
<trkpt lat="46.06503" lon="6.92778"><ele></ele><time>2021-8-27T13:51:7Z</time></trkpt>
<trkpt lat="46.06497" lon="6.92753"><ele></ele><time>2021-8-27T13:51:10Z</time></trkpt>
<trkpt lat="46.06496" lon="6.92739"><ele></ele><time>2021-8-27T13:51:13Z</time></trkpt>
<trkpt lat="46.06495" lon="6.92712"><ele></ele><time>2021-8-27T13:51:16Z</time></trkpt>
<trkpt lat="46.06496" lon="6.92705"><ele></ele><time>2021-8-27T13:51:19Z</time></trkpt>
<trkpt lat="46.06499" lon="6.92698"><ele></ele><time>2021-8-27T13:51:22Z</time></trkpt>
<trkpt lat="46.06502" lon="6.92688"><ele></ele><time>2021-8-27T13:51:25Z</time></trkpt>
<trkpt lat="46.06506" lon="6.92673"><ele></ele><time>2021-8-27T13:51:28Z</time></trkpt>
<trkpt lat="46.06513" lon="6.92644"><ele></ele><time>2021-8-27T13:51:31Z</time></trkpt>
<trkpt lat="46.06523" lon="6.92618"><ele></ele><time>2021-8-27T13:51:34Z</time></trkpt>
<trkpt lat="46.06527" lon="6.92602"><ele></ele><time>2021-8-27T13:51:37Z</time></trkpt>
<trkpt lat="46.0653" lon="6.92579"><ele></ele><time>2021-8-27T13:51:40Z</time></trkpt>
<trkpt lat="46.0654" lon="6.92552"><ele></ele><time>2021-8-27T13:51:43Z</time></trkpt>
<trkpt lat="46.06552" lon="6.92527"><ele></ele><time>2021-8-27T13:51:46Z</time></trkpt>
<trkpt lat="46.06558" lon="6.92497"><ele></ele><time>2021-8-27T13:51:49Z</time></trkpt>
<trkpt lat="46.06552" lon="6.92466"><ele></ele><time>2021-8-27T13:51:52Z</time></trkpt>
<trkpt lat="46.06544" lon="6.92442"><ele></ele><time>2021-8-27T13:51:55Z</time></trkpt>
<trkpt lat="46.06537" lon="6.92414"><ele></ele><time>2021-8-27T13:51:58Z</time></trkpt>
<trkpt lat="46.06531" lon="6.92386"><ele></ele><time>2021-8-27T13:52:1Z</time></trkpt>
<trkpt lat="46.0653" lon="6.92378"><ele></ele><time>2021-8-27T13:52:4Z</time></trkpt>
<trkpt lat="46.06526" lon="6.92352"><ele></ele><time>2021-8-27T13:52:7Z</time></trkpt>
<trkpt lat="46.06526" lon="6.92334"><ele></ele><time>2021-8-27T13:52:10Z</time></trkpt>
<trkpt lat="46.06532" lon="6.92307"><ele></ele><time>2021-8-27T13:52:13Z</time></trkpt>
<trkpt lat="46.06543" lon="6.92281"><ele></ele><time>2021-8-27T13:52:16Z</time></trkpt>
<trkpt lat="46.06549" lon="6.92262"><ele></ele><time>2021-8-27T13:52:19Z</time></trkpt>
<trkpt lat="46.06553" lon="6.92242"><ele></ele><time>2021-8-27T13:52:22Z</time></trkpt>
<trkpt lat="46.06569" lon="6.92231"><ele></ele><time>2021-8-27T13:52:25Z</time></trkpt>
<trkpt lat="46.06589" lon="6.92245"><ele></ele><time>2021-8-27T13:52:28Z</time></trkpt>
<trkpt lat="46.06604" lon="6.92256"><ele></ele><time>2021-8-27T13:52:31Z</time></trkpt>
<trkpt lat="46.06623" lon="6.9226"><ele></ele><time>2021-8-27T13:52:34Z</time></trkpt>
<trkpt lat="46.06642" lon="6.92262"><ele></ele><time>2021-8-27T13:52:37Z</time></trkpt>
<trkpt lat="46.06661" lon="6.92264"><ele></ele><time>2021-8-27T13:52:40Z</time></trkpt>
<trkpt lat="46.06668" lon="6.92264"><ele></ele><time>2021-8-27T13:52:43Z</time></trkpt>
<trkpt lat="46.06686" lon="6.92254"><ele></ele><time>2021-8-27T13:52:46Z</time></trkpt>
<trkpt lat="46.067" lon="6.92234"><ele></ele><time>2021-8-27T13:52:49Z</time></trkpt>
<trkpt lat="46.06708" lon="6.92208"><ele></ele><time>2021-8-27T13:52:52Z</time></trkpt>
<trkpt lat="46.0671" lon="6.92201"><ele></ele><time>2021-8-27T13:52:55Z</time></trkpt>
<trkpt lat="46.06715" lon="6.92174"><ele></ele><time>2021-8-27T13:52:58Z</time></trkpt>
<trkpt lat="46.06719" lon="6.92155"><ele></ele><time>2021-8-27T13:53:1Z</time></trkpt>
<trkpt lat="46.06716" lon="6.92112"><ele></ele><time>2021-8-27T13:53:4Z</time></trkpt>
<trkpt lat="46.06712" lon="6.92101"><ele></ele><time>2021-8-27T13:53:7Z</time></trkpt>
<trkpt lat="46.06705" lon="6.92076"><ele></ele><time>2021-8-27T13:53:10Z</time></trkpt>
<trkpt lat="46.06697" lon="6.92048"><ele></ele><time>2021-8-27T13:53:13Z</time></trkpt>
<trkpt lat="46.06695" lon="6.92034"><ele></ele><time>2021-8-27T13:53:16Z</time></trkpt>
<trkpt lat="46.06693" lon="6.9202"><ele></ele><time>2021-8-27T13:53:19Z</time></trkpt>
<trkpt lat="46.06692" lon="6.9199"><ele></ele><time>2021-8-27T13:53:22Z</time></trkpt>
<trkpt lat="46.06691" lon="6.91983"><ele></ele><time>2021-8-27T13:53:25Z</time></trkpt>
<trkpt lat="46.06682" lon="6.91959"><ele></ele><time>2021-8-27T13:53:28Z</time></trkpt>
<trkpt lat="46.0667" lon="6.91935"><ele></ele><time>2021-8-27T13:53:31Z</time></trkpt>
<trkpt lat="46.06662" lon="6.91915"><ele></ele><time>2021-8-27T13:53:34Z</time></trkpt>
<trkpt lat="46.06652" lon="6.91887"><ele></ele><time>2021-8-27T13:53:37Z</time></trkpt>
<trkpt lat="46.06642" lon="6.9186"><ele></ele><time>2021-8-27T13:53:40Z</time></trkpt>
<trkpt lat="46.06628" lon="6.91836"><ele></ele><time>2021-8-27T13:53:43Z</time></trkpt>
<trkpt lat="46.06613" lon="6.91812"><ele></ele><time>2021-8-27T13:53:46Z</time></trkpt>
<trkpt lat="46.066" lon="6.91787"><ele></ele><time>2021-8-27T13:53:49Z</time></trkpt>
<trkpt lat="46.06596" lon="6.91773"><ele></ele><time>2021-8-27T13:53:52Z</time></trkpt>
<trkpt lat="46.06584" lon="6.91745"><ele></ele><time>2021-8-27T13:53:55Z</time></trkpt>
<trkpt lat="46.0657" lon="6.91719"><ele></ele><time>2021-8-27T13:53:58Z</time></trkpt>
<trkpt lat="46.06562" lon="6.91706"><ele></ele><time>2021-8-27T13:54:1Z</time></trkpt>
<trkpt lat="46.06549" lon="6.91678"><ele></ele><time>2021-8-27T13:54:4Z</time></trkpt>
<trkpt lat="46.06547" lon="6.91647"><ele></ele><time>2021-8-27T13:54:7Z</time></trkpt>
<trkpt lat="46.06544" lon="6.91615"><ele></ele><time>2021-8-27T13:54:10Z</time></trkpt>
<trkpt lat="46.06541" lon="6.91589"><ele></ele><time>2021-8-27T13:54:13Z</time></trkpt>
<trkpt lat="46.06541" lon="6.91582"><ele></ele><time>2021-8-27T13:54:16Z</time></trkpt>
<trkpt lat="46.06539" lon="6.91555"><ele></ele><time>2021-8-27T13:54:19Z</time></trkpt>
<trkpt lat="46.06538" lon="6.91526"><ele></ele><time>2021-8-27T13:54:22Z</time></trkpt>
<trkpt lat="46.06538" lon="6.91509"><ele></ele><time>2021-8-27T13:54:25Z</time></trkpt>
<trkpt lat="46.06538" lon="6.91492"><ele></ele><time>2021-8-27T13:54:28Z</time></trkpt>
<trkpt lat="46.06538" lon="6.91484"><ele></ele><time>2021-8-27T13:54:31Z</time></trkpt>
<trkpt lat="46.06536" lon="6.91447"><ele></ele><time>2021-8-27T13:54:34Z</time></trkpt>
<trkpt lat="46.06534" lon="6.91432"><ele></ele><time>2021-8-27T13:54:37Z</time></trkpt>
<trkpt lat="46.06533" lon="6.91429"><ele></ele><time>2021-8-27T13:54:40Z</time></trkpt>
<trkpt lat="46.06531" lon="6.91422"><ele></ele><time>2021-8-27T13:54:43Z</time></trkpt>
<trkpt lat="46.06523" lon="6.91406"><ele></ele><time>2021-8-27T13:54:46Z</time></trkpt>
<trkpt lat="46.06507" lon="6.91386"><ele></ele><time>2021-8-27T13:54:49Z</time></trkpt>
<trkpt lat="46.06494" lon="6.91368"><ele></ele><time>2021-8-27T13:54:52Z</time></trkpt>
<trkpt lat="46.06484" lon="6.91355"><ele></ele><time>2021-8-27T13:54:55Z</time></trkpt>
<trkpt lat="46.06471" lon="6.91335"><ele></ele><time>2021-8-27T13:54:58Z</time></trkpt>
<trkpt lat="46.06466" lon="6.91328"><ele></ele><time>2021-8-27T13:55:1Z</time></trkpt>
<trkpt lat="46.06453" lon="6.91308"><ele></ele><time>2021-8-27T13:55:4Z</time></trkpt>
<trkpt lat="46.06438" lon="6.91289"><ele></ele><time>2021-8-27T13:55:7Z</time></trkpt>
<trkpt lat="46.06419" lon="6.91261"><ele></ele><time>2021-8-27T13:55:10Z</time></trkpt>
<trkpt lat="46.06418" lon="6.91243"><ele></ele><time>2021-8-27T13:55:13Z</time></trkpt>
<trkpt lat="46.06423" lon="6.91218"><ele></ele><time>2021-8-27T13:55:16Z</time></trkpt>
<trkpt lat="46.06425" lon="6.91192"><ele></ele><time>2021-8-27T13:55:19Z</time></trkpt>
<trkpt lat="46.06422" lon="6.91166"><ele></ele><time>2021-8-27T13:55:22Z</time></trkpt>
<trkpt lat="46.06412" lon="6.91137"><ele></ele><time>2021-8-27T13:55:25Z</time></trkpt>
<trkpt lat="46.06406" lon="6.91106"><ele></ele><time>2021-8-27T13:55:28Z</time></trkpt>
<trkpt lat="46.06394" lon="6.91085"><ele></ele><time>2021-8-27T13:55:31Z</time></trkpt>
<trkpt lat="46.06385" lon="6.91073"><ele></ele><time>2021-8-27T13:55:34Z</time></trkpt>
<trkpt lat="46.06371" lon="6.91055"><ele></ele><time>2021-8-27T13:55:37Z</time></trkpt>
<trkpt lat="46.06364" lon="6.91039"><ele></ele><time>2021-8-27T13:55:40Z</time></trkpt>
<trkpt lat="46.06365" lon="6.91039"><ele></ele><time>2021-8-27T13:55:43Z</time></trkpt>
<trkpt lat="46.06354" lon="6.91019"><ele></ele><time>2021-8-27T13:55:46Z</time></trkpt>
<trkpt lat="46.06352" lon="6.91012"><ele></ele><time>2021-8-27T13:55:49Z</time></trkpt>
<trkpt lat="46.06355" lon="6.90985"><ele></ele><time>2021-8-27T13:55:52Z</time></trkpt>
<trkpt lat="46.06361" lon="6.90959"><ele></ele><time>2021-8-27T13:55:55Z</time></trkpt>
<trkpt lat="46.06368" lon="6.90937"><ele></ele><time>2021-8-27T13:55:58Z</time></trkpt>
<trkpt lat="46.06389" lon="6.90926"><ele></ele><time>2021-8-27T13:56:1Z</time></trkpt>
<trkpt lat="46.06401" lon="6.90934"><ele></ele><time>2021-8-27T13:56:4Z</time></trkpt>
<trkpt lat="46.06431" lon="6.90957"><ele></ele><time>2021-8-27T13:56:7Z</time></trkpt>
<trkpt lat="46.06433" lon="6.90959"><ele></ele><time>2021-8-27T13:56:10Z</time></trkpt>
<trkpt lat="46.06437" lon="6.90961"><ele></ele><time>2021-8-27T13:56:13Z</time></trkpt>
<trkpt lat="46.06442" lon="6.90964"><ele></ele><time>2021-8-27T13:56:16Z</time></trkpt>
<trkpt lat="46.06444" lon="6.90966"><ele></ele><time>2021-8-27T13:56:19Z</time></trkpt>
<trkpt lat="46.0646" lon="6.90978"><ele></ele><time>2021-8-27T13:56:22Z</time></trkpt>
<trkpt lat="46.06474" lon="6.90998"><ele></ele><time>2021-8-27T13:56:25Z</time></trkpt>
<trkpt lat="46.06484" lon="6.91021"><ele></ele><time>2021-8-27T13:56:28Z</time></trkpt>
<trkpt lat="46.06494" lon="6.91044"><ele></ele><time>2021-8-27T13:56:31Z</time></trkpt>
<trkpt lat="46.06504" lon="6.91065"><ele></ele><time>2021-8-27T13:56:34Z</time></trkpt>
<trkpt lat="46.0651" lon="6.91077"><ele></ele><time>2021-8-27T13:56:37Z</time></trkpt>
<trkpt lat="46.06518" lon="6.91096"><ele></ele><time>2021-8-27T13:56:40Z</time></trkpt>
<trkpt lat="46.06534" lon="6.91122"><ele></ele><time>2021-8-27T13:56:43Z</time></trkpt>
<trkpt lat="46.06546" lon="6.91138"><ele></ele><time>2021-8-27T13:56:46Z</time></trkpt>
<trkpt lat="46.06561" lon="6.91157"><ele></ele><time>2021-8-27T13:56:49Z</time></trkpt>
<trkpt lat="46.0657" lon="6.91169"><ele></ele><time>2021-8-27T13:56:52Z</time></trkpt>
<trkpt lat="46.06584" lon="6.91188"><ele></ele><time>2021-8-27T13:56:55Z</time></trkpt>
<trkpt lat="46.06596" lon="6.91206"><ele></ele><time>2021-8-27T13:56:58Z</time></trkpt>
<trkpt lat="46.06611" lon="6.91224"><ele></ele><time>2021-8-27T13:57:1Z</time></trkpt>
<trkpt lat="46.06625" lon="6.91242"><ele></ele><time>2021-8-27T13:57:4Z</time></trkpt>
<trkpt lat="46.06637" lon="6.91262"><ele></ele><time>2021-8-27T13:57:7Z</time></trkpt>
<trkpt lat="46.06654" lon="6.91289"><ele></ele><time>2021-8-27T13:57:10Z</time></trkpt>
<trkpt lat="46.06668" lon="6.91306"><ele></ele><time>2021-8-27T13:57:13Z</time></trkpt>
<trkpt lat="46.06675" lon="6.91314"><ele></ele><time>2021-8-27T13:57:16Z</time></trkpt>
<trkpt lat="46.06687" lon="6.91315"><ele></ele><time>2021-8-27T13:57:19Z</time></trkpt>
<trkpt lat="46.06688" lon="6.91314"><ele></ele><time>2021-8-27T13:57:22Z</time></trkpt>
<trkpt lat="46.06679" lon="6.91303"><ele></ele><time>2021-8-27T13:57:25Z</time></trkpt>
<trkpt lat="46.06672" lon="6.9129"><ele></ele><time>2021-8-27T13:57:28Z</time></trkpt>
<trkpt lat="46.06671" lon="6.91287"><ele></ele><time>2021-8-27T13:57:31Z</time></trkpt>
<trkpt lat="46.06662" lon="6.9127"><ele></ele><time>2021-8-27T13:57:34Z</time></trkpt>
<trkpt lat="46.06658" lon="6.91263"><ele></ele><time>2021-8-27T13:57:37Z</time></trkpt>
<trkpt lat="46.06656" lon="6.9126"><ele></ele><time>2021-8-27T13:57:40Z</time></trkpt>
<trkpt lat="46.0665" lon="6.91247"><ele></ele><time>2021-8-27T13:57:43Z</time></trkpt>
<trkpt lat="46.0664" lon="6.91227"><ele></ele><time>2021-8-27T13:57:46Z</time></trkpt>
<trkpt lat="46.06636" lon="6.91207"><ele></ele><time>2021-8-27T13:57:49Z</time></trkpt>
<trkpt lat="46.06629" lon="6.91192"><ele></ele><time>2021-8-27T13:57:52Z</time></trkpt>
<trkpt lat="46.06625" lon="6.91184"><ele></ele><time>2021-8-27T13:57:55Z</time></trkpt>
<trkpt lat="46.06615" lon="6.9116"><ele></ele><time>2021-8-27T13:57:58Z</time></trkpt>
<trkpt lat="46.0661" lon="6.91146"><ele></ele><time>2021-8-27T13:58:1Z</time></trkpt>
<trkpt lat="46.06608" lon="6.91141"><ele></ele><time>2021-8-27T13:58:4Z</time></trkpt>
<trkpt lat="46.06606" lon="6.91137"><ele></ele><time>2021-8-27T13:58:7Z</time></trkpt>
<trkpt lat="46.06604" lon="6.91131"><ele></ele><time>2021-8-27T13:58:10Z</time></trkpt>
<trkpt lat="46.06601" lon="6.91119"><ele></ele><time>2021-8-27T13:58:13Z</time></trkpt>
<trkpt lat="46.06601" lon="6.91117"><ele></ele><time>2021-8-27T13:58:16Z</time></trkpt>
<trkpt lat="46.06598" lon="6.91108"><ele></ele><time>2021-8-27T13:58:19Z</time></trkpt>
<trkpt lat="46.06597" lon="6.91106"><ele></ele><time>2021-8-27T13:58:22Z</time></trkpt>
<trkpt lat="46.06591" lon="6.91095"><ele></ele><time>2021-8-27T13:58:25Z</time></trkpt>
<trkpt lat="46.06588" lon="6.91077"><ele></ele><time>2021-8-27T13:58:28Z</time></trkpt>
<trkpt lat="46.06587" lon="6.91066"><ele></ele><time>2021-8-27T13:58:31Z</time></trkpt>
<trkpt lat="46.06583" lon="6.9104"><ele></ele><time>2021-8-27T13:58:34Z</time></trkpt>
<trkpt lat="46.06578" lon="6.91015"><ele></ele><time>2021-8-27T13:58:37Z</time></trkpt>
<trkpt lat="46.06577" lon="6.91011"><ele></ele><time>2021-8-27T13:58:40Z</time></trkpt>
<trkpt lat="46.06575" lon="6.90999"><ele></ele><time>2021-8-27T13:58:43Z</time></trkpt>
<trkpt lat="46.06565" lon="6.90979"><ele></ele><time>2021-8-27T13:58:46Z</time></trkpt>
<trkpt lat="46.06562" lon="6.90973"><ele></ele><time>2021-8-27T13:58:49Z</time></trkpt>
<trkpt lat="46.06559" lon="6.9096"><ele></ele><time>2021-8-27T13:58:52Z</time></trkpt>
<trkpt lat="46.06559" lon="6.90948"><ele></ele><time>2021-8-27T13:58:55Z</time></trkpt>
<trkpt lat="46.06558" lon="6.90939"><ele></ele><time>2021-8-27T13:58:58Z</time></trkpt>
<trkpt lat="46.06557" lon="6.90933"><ele></ele><time>2021-8-27T13:59:1Z</time></trkpt>
<trkpt lat="46.06555" lon="6.90927"><ele></ele><time>2021-8-27T13:59:4Z</time></trkpt>
<trkpt lat="46.06552" lon="6.90916"><ele></ele><time>2021-8-27T13:59:7Z</time></trkpt>
<trkpt lat="46.06548" lon="6.90891"><ele></ele><time>2021-8-27T13:59:10Z</time></trkpt>
<trkpt lat="46.06549" lon="6.90877"><ele></ele><time>2021-8-27T13:59:13Z</time></trkpt>
<trkpt lat="46.06552" lon="6.90851"><ele></ele><time>2021-8-27T13:59:16Z</time></trkpt>
<trkpt lat="46.06552" lon="6.90846"><ele></ele><time>2021-8-27T13:59:19Z</time></trkpt>
<trkpt lat="46.06547" lon="6.90816"><ele></ele><time>2021-8-27T13:59:22Z</time></trkpt>
<trkpt lat="46.06544" lon="6.90806"><ele></ele><time>2021-8-27T13:59:25Z</time></trkpt>
<trkpt lat="46.0654" lon="6.90789"><ele></ele><time>2021-8-27T13:59:28Z</time></trkpt>
<trkpt lat="46.06539" lon="6.90771"><ele></ele><time>2021-8-27T13:59:31Z</time></trkpt>
<trkpt lat="46.06526" lon="6.90748"><ele></ele><time>2021-8-27T13:59:34Z</time></trkpt>
<trkpt lat="46.0651" lon="6.90736"><ele></ele><time>2021-8-27T13:59:37Z</time></trkpt>
<trkpt lat="46.06502" lon="6.90733"><ele></ele><time>2021-8-27T13:59:40Z</time></trkpt>
<trkpt lat="46.06502" lon="6.90733"><ele></ele><time>2021-8-27T13:59:43Z</time></trkpt>
<trkpt lat="46.06503" lon="6.90734"><ele></ele><time>2021-8-27T13:59:46Z</time></trkpt>
<trkpt lat="46.06502" lon="6.90734"><ele></ele><time>2021-8-27T13:59:49Z</time></trkpt>
<trkpt lat="46.06501" lon="6.90722"><ele></ele><time>2021-8-27T13:59:52Z</time></trkpt>
<trkpt lat="46.06507" lon="6.90709"><ele></ele><time>2021-8-27T13:59:55Z</time></trkpt>
<trkpt lat="46.06508" lon="6.90703"><ele></ele><time>2021-8-27T13:59:58Z</time></trkpt>
<trkpt lat="46.06507" lon="6.90687"><ele></ele><time>2021-8-27T14:0:1Z</time></trkpt>
<trkpt lat="46.06506" lon="6.90684"><ele></ele><time>2021-8-27T14:0:4Z</time></trkpt>
<trkpt lat="46.06505" lon="6.90682"><ele></ele><time>2021-8-27T14:0:7Z</time></trkpt>
<trkpt lat="46.06503" lon="6.90673"><ele></ele><time>2021-8-27T14:0:10Z</time></trkpt>
<trkpt lat="46.065" lon="6.90664"><ele></ele><time>2021-8-27T14:0:13Z</time></trkpt>
<trkpt lat="46.06495" lon="6.90649"><ele></ele><time>2021-8-27T14:0:16Z</time></trkpt>
<trkpt lat="46.06499" lon="6.90625"><ele></ele><time>2021-8-27T14:0:19Z</time></trkpt>
<trkpt lat="46.06503" lon="6.90621"><ele></ele><time>2021-8-27T14:0:22Z</time></trkpt>
<trkpt lat="46.06517" lon="6.90612"><ele></ele><time>2021-8-27T14:0:25Z</time></trkpt>
<trkpt lat="46.0652" lon="6.90611"><ele></ele><time>2021-8-27T14:0:28Z</time></trkpt>
<trkpt lat="46.06531" lon="6.90606"><ele></ele><time>2021-8-27T14:0:31Z</time></trkpt>
<trkpt lat="46.06535" lon="6.90594"><ele></ele><time>2021-8-27T14:0:34Z</time></trkpt>
<trkpt lat="46.0653" lon="6.90569"><ele></ele><time>2021-8-27T14:0:37Z</time></trkpt>
<trkpt lat="46.06519" lon="6.90557"><ele></ele><time>2021-8-27T14:0:40Z</time></trkpt>
<trkpt lat="46.06518" lon="6.90556"><ele></ele><time>2021-8-27T14:0:43Z</time></trkpt>
<trkpt lat="46.06506" lon="6.90536"><ele></ele><time>2021-8-27T14:0:46Z</time></trkpt>
<trkpt lat="46.06505" lon="6.9053"><ele></ele><time>2021-8-27T14:0:49Z</time></trkpt>
<trkpt lat="46.06508" lon="6.90515"><ele></ele><time>2021-8-27T14:0:52Z</time></trkpt>
<trkpt lat="46.06511" lon="6.90508"><ele></ele><time>2021-8-27T14:0:55Z</time></trkpt>
<trkpt lat="46.06512" lon="6.90503"><ele></ele><time>2021-8-27T14:0:58Z</time></trkpt>
<trkpt lat="46.06514" lon="6.90499"><ele></ele><time>2021-8-27T14:1:1Z</time></trkpt>
<trkpt lat="46.06516" lon="6.90485"><ele></ele><time>2021-8-27T14:1:4Z</time></trkpt>
<trkpt lat="46.06516" lon="6.9047"><ele></ele><time>2021-8-27T14:1:7Z</time></trkpt>
<trkpt lat="46.06513" lon="6.90464"><ele></ele><time>2021-8-27T14:1:10Z</time></trkpt>
<trkpt lat="46.06499" lon="6.90455"><ele></ele><time>2021-8-27T14:1:13Z</time></trkpt>
<trkpt lat="46.06483" lon="6.90447"><ele></ele><time>2021-8-27T14:1:16Z</time></trkpt>
<trkpt lat="46.06471" lon="6.90437"><ele></ele><time>2021-8-27T14:1:19Z</time></trkpt>
<trkpt lat="46.06457" lon="6.90429"><ele></ele><time>2021-8-27T14:1:22Z</time></trkpt>
<trkpt lat="46.06453" lon="6.90424"><ele></ele><time>2021-8-27T14:1:25Z</time></trkpt>
<trkpt lat="46.06433" lon="6.90413"><ele></ele><time>2021-8-27T14:1:28Z</time></trkpt>
<trkpt lat="46.06429" lon="6.9041"><ele></ele><time>2021-8-27T14:1:31Z</time></trkpt>
<trkpt lat="46.06386" lon="6.90396"><ele></ele><time>2021-8-27T14:1:34Z</time></trkpt>
<trkpt lat="46.06375" lon="6.90375"><ele></ele><time>2021-8-27T14:1:37Z</time></trkpt>
<trkpt lat="46.06372" lon="6.90366"><ele></ele><time>2021-8-27T14:1:40Z</time></trkpt>
<trkpt lat="46.06363" lon="6.90344"><ele></ele><time>2021-8-27T14:1:43Z</time></trkpt>
<trkpt lat="46.06355" lon="6.90333"><ele></ele><time>2021-8-27T14:1:46Z</time></trkpt>
<trkpt lat="46.06356" lon="6.90333"><ele></ele><time>2021-8-27T14:1:49Z</time></trkpt>
<trkpt lat="46.06355" lon="6.90333"><ele></ele><time>2021-8-27T14:1:52Z</time></trkpt>
<trkpt lat="46.06356" lon="6.90333"><ele></ele><time>2021-8-27T14:1:55Z</time></trkpt>
<trkpt lat="46.06355" lon="6.90333"><ele></ele><time>2021-8-27T14:1:58Z</time></trkpt>
<trkpt lat="46.06355" lon="6.90334"><ele></ele><time>2021-8-27T14:2:1Z</time></trkpt>
<trkpt lat="46.06356" lon="6.90334"><ele></ele><time>2021-8-27T14:2:4Z</time></trkpt>
<trkpt lat="46.06357" lon="6.90334"><ele></ele><time>2021-8-27T14:2:7Z</time></trkpt>
<trkpt lat="46.06356" lon="6.90306"><ele></ele><time>2021-8-27T14:2:10Z</time></trkpt>
<trkpt lat="46.06354" lon="6.90289"><ele></ele><time>2021-8-27T14:2:13Z</time></trkpt>
<trkpt lat="46.06354" lon="6.90286"><ele></ele><time>2021-8-27T14:2:16Z</time></trkpt>
<trkpt lat="46.06349" lon="6.90269"><ele></ele><time>2021-8-27T14:2:19Z</time></trkpt>
<trkpt lat="46.0632" lon="6.9028"><ele></ele><time>2021-8-27T14:2:22Z</time></trkpt>
<trkpt lat="46.06292" lon="6.90289"><ele></ele><time>2021-8-27T14:2:25Z</time></trkpt>
<trkpt lat="46.06284" lon="6.90282"><ele></ele><time>2021-8-27T14:2:28Z</time></trkpt>
<trkpt lat="46.06273" lon="6.90287"><ele></ele><time>2021-8-27T14:2:31Z</time></trkpt>
<trkpt lat="46.06286" lon="6.90276"><ele></ele><time>2021-8-27T14:2:34Z</time></trkpt>
<trkpt lat="46.06298" lon="6.90267"><ele></ele><time>2021-8-27T14:2:37Z</time></trkpt>
<trkpt lat="46.06329" lon="6.9025"><ele></ele><time>2021-8-27T14:2:40Z</time></trkpt>
<trkpt lat="46.06331" lon="6.90247"><ele></ele><time>2021-8-27T14:2:43Z</time></trkpt>
<trkpt lat="46.06333" lon="6.90242"><ele></ele><time>2021-8-27T14:2:46Z</time></trkpt>
<trkpt lat="46.06333" lon="6.90242"><ele></ele><time>2021-8-27T14:2:49Z</time></trkpt>
<trkpt lat="46.06325" lon="6.90218"><ele></ele><time>2021-8-27T14:2:52Z</time></trkpt>
<trkpt lat="46.0632" lon="6.90192"><ele></ele><time>2021-8-27T14:2:55Z</time></trkpt>
<trkpt lat="46.06312" lon="6.90168"><ele></ele><time>2021-8-27T14:2:58Z</time></trkpt>
<trkpt lat="46.06302" lon="6.90142"><ele></ele><time>2021-8-27T14:3:1Z</time></trkpt>
<trkpt lat="46.06291" lon="6.9012"><ele></ele><time>2021-8-27T14:3:4Z</time></trkpt>
<trkpt lat="46.06289" lon="6.90104"><ele></ele><time>2021-8-27T14:3:7Z</time></trkpt>
<trkpt lat="46.06288" lon="6.901"><ele></ele><time>2021-8-27T14:3:10Z</time></trkpt>
<trkpt lat="46.06284" lon="6.90079"><ele></ele><time>2021-8-27T14:3:13Z</time></trkpt>
<trkpt lat="46.0628" lon="6.90066"><ele></ele><time>2021-8-27T14:3:16Z</time></trkpt>
<trkpt lat="46.06271" lon="6.90042"><ele></ele><time>2021-8-27T14:3:19Z</time></trkpt>
<trkpt lat="46.0627" lon="6.90039"><ele></ele><time>2021-8-27T14:3:22Z</time></trkpt>
<trkpt lat="46.06267" lon="6.90032"><ele></ele><time>2021-8-27T14:3:25Z</time></trkpt>
<trkpt lat="46.06258" lon="6.90009"><ele></ele><time>2021-8-27T14:3:28Z</time></trkpt>
<trkpt lat="46.06255" lon="6.90003"><ele></ele><time>2021-8-27T14:3:31Z</time></trkpt>
<trkpt lat="46.06256" lon="6.89982"><ele></ele><time>2021-8-27T14:3:34Z</time></trkpt>
<trkpt lat="46.06256" lon="6.8998"><ele></ele><time>2021-8-27T14:3:37Z</time></trkpt>
<trkpt lat="46.06256" lon="6.89979"><ele></ele><time>2021-8-27T14:3:40Z</time></trkpt>
<trkpt lat="46.06255" lon="6.8998"><ele></ele><time>2021-8-27T14:3:43Z</time></trkpt>
<trkpt lat="46.06256" lon="6.89981"><ele></ele><time>2021-8-27T14:3:46Z</time></trkpt>
<trkpt lat="46.06256" lon="6.89981"><ele></ele><time>2021-8-27T14:3:49Z</time></trkpt>
<trkpt lat="46.06256" lon="6.8998"><ele></ele><time>2021-8-27T14:3:52Z</time></trkpt>
<trkpt lat="46.06256" lon="6.8998"><ele></ele><time>2021-8-27T14:3:55Z</time></trkpt>
<trkpt lat="46.06256" lon="6.8998"><ele></ele><time>2021-8-27T14:3:58Z</time></trkpt>
<trkpt lat="46.06255" lon="6.8998"><ele></ele><time>2021-8-27T14:4:1Z</time></trkpt>
<trkpt lat="46.06255" lon="6.8998"><ele></ele><time>2021-8-27T14:4:4Z</time></trkpt>
<trkpt lat="46.06256" lon="6.89983"><ele></ele><time>2021-8-27T14:4:7Z</time></trkpt>
<trkpt lat="46.06254" lon="6.89983"><ele></ele><time>2021-8-27T14:4:10Z</time></trkpt>
<trkpt lat="46.06255" lon="6.90001"><ele></ele><time>2021-8-27T14:4:13Z</time></trkpt>
<trkpt lat="46.06262" lon="6.89995"><ele></ele><time>2021-8-27T14:4:16Z</time></trkpt>
<trkpt lat="46.06266" lon="6.89982"><ele></ele><time>2021-8-27T14:4:19Z</time></trkpt>
<trkpt lat="46.06268" lon="6.89976"><ele></ele><time>2021-8-27T14:4:22Z</time></trkpt>
<trkpt lat="46.06271" lon="6.89969"><ele></ele><time>2021-8-27T14:4:25Z</time></trkpt>
<trkpt lat="46.06271" lon="6.89966"><ele></ele><time>2021-8-27T14:4:28Z</time></trkpt>
<trkpt lat="46.06272" lon="6.89963"><ele></ele><time>2021-8-27T14:4:31Z</time></trkpt>
<trkpt lat="46.06273" lon="6.8996"><ele></ele><time>2021-8-27T14:4:34Z</time></trkpt>
<trkpt lat="46.0628" lon="6.89952"><ele></ele><time>2021-8-27T14:4:37Z</time></trkpt>
<trkpt lat="46.06281" lon="6.89952"><ele></ele><time>2021-8-27T14:4:40Z</time></trkpt>
<trkpt lat="46.06284" lon="6.89957"><ele></ele><time>2021-8-27T14:4:43Z</time></trkpt>
<trkpt lat="46.06277" lon="6.89968"><ele></ele><time>2021-8-27T14:4:46Z</time></trkpt>
<trkpt lat="46.0628" lon="6.89996"><ele></ele><time>2021-8-27T14:4:49Z</time></trkpt>
<trkpt lat="46.06285" lon="6.9001"><ele></ele><time>2021-8-27T14:4:52Z</time></trkpt>
<trkpt lat="46.06294" lon="6.90027"><ele></ele><time>2021-8-27T14:4:55Z</time></trkpt>
<trkpt lat="46.06295" lon="6.90029"><ele></ele><time>2021-8-27T14:4:58Z</time></trkpt>
<trkpt lat="46.06308" lon="6.90017"><ele></ele><time>2021-8-27T14:5:1Z</time></trkpt>
<trkpt lat="46.06308" lon="6.90014"><ele></ele><time>2021-8-27T14:5:4Z</time></trkpt>
<trkpt lat="46.06307" lon="6.90001"><ele></ele><time>2021-8-27T14:5:7Z</time></trkpt>
<trkpt lat="46.06306" lon="6.89976"><ele></ele><time>2021-8-27T14:5:10Z</time></trkpt>
<trkpt lat="46.06308" lon="6.89949"><ele></ele><time>2021-8-27T14:5:13Z</time></trkpt>
<trkpt lat="46.06308" lon="6.89938"><ele></ele><time>2021-8-27T14:5:16Z</time></trkpt>
<trkpt lat="46.0631" lon="6.89929"><ele></ele><time>2021-8-27T14:5:19Z</time></trkpt>
<trkpt lat="46.06311" lon="6.89957"><ele></ele><time>2021-8-27T14:5:22Z</time></trkpt>
<trkpt lat="46.0631" lon="6.89988"><ele></ele><time>2021-8-27T14:5:25Z</time></trkpt>
<trkpt lat="46.06309" lon="6.90014"><ele></ele><time>2021-8-27T14:5:28Z</time></trkpt>
<trkpt lat="46.06305" lon="6.9003"><ele></ele><time>2021-8-27T14:5:31Z</time></trkpt>
<trkpt lat="46.06302" lon="6.90035"><ele></ele><time>2021-8-27T14:5:34Z</time></trkpt>
<trkpt lat="46.06303" lon="6.90038"><ele></ele><time>2021-8-27T14:5:37Z</time></trkpt>
<trkpt lat="46.06312" lon="6.90056"><ele></ele><time>2021-8-27T14:5:40Z</time></trkpt>
<trkpt lat="46.06316" lon="6.90056"><ele></ele><time>2021-8-27T14:5:43Z</time></trkpt>
<trkpt lat="46.06317" lon="6.90043"><ele></ele><time>2021-8-27T14:5:46Z</time></trkpt>
<trkpt lat="46.06322" lon="6.90027"><ele></ele><time>2021-8-27T14:5:49Z</time></trkpt>
<trkpt lat="46.06325" lon="6.90008"><ele></ele><time>2021-8-27T14:5:52Z</time></trkpt>
<trkpt lat="46.06325" lon="6.89983"><ele></ele><time>2021-8-27T14:5:55Z</time></trkpt>
<trkpt lat="46.06326" lon="6.89977"><ele></ele><time>2021-8-27T14:5:58Z</time></trkpt>
<trkpt lat="46.06329" lon="6.89952"><ele></ele><time>2021-8-27T14:6:1Z</time></trkpt>
<trkpt lat="46.06327" lon="6.8993"><ele></ele><time>2021-8-27T14:6:4Z</time></trkpt>
<trkpt lat="46.06338" lon="6.8993"><ele></ele><time>2021-8-27T14:6:7Z</time></trkpt>
<trkpt lat="46.06334" lon="6.89912"><ele></ele><time>2021-8-27T14:6:10Z</time></trkpt>
<trkpt lat="46.06325" lon="6.89891"><ele></ele><time>2021-8-27T14:6:13Z</time></trkpt>
<trkpt lat="46.0632" lon="6.89887"><ele></ele><time>2021-8-27T14:6:16Z</time></trkpt>
<trkpt lat="46.06314" lon="6.89878"><ele></ele><time>2021-8-27T14:6:19Z</time></trkpt>
<trkpt lat="46.06312" lon="6.89875"><ele></ele><time>2021-8-27T14:6:22Z</time></trkpt>
<trkpt lat="46.06311" lon="6.89874"><ele></ele><time>2021-8-27T14:6:25Z</time></trkpt>
<trkpt lat="46.06311" lon="6.89876"><ele></ele><time>2021-8-27T14:6:28Z</time></trkpt>
<trkpt lat="46.06311" lon="6.89876"><ele></ele><time>2021-8-27T14:6:31Z</time></trkpt>
<trkpt lat="46.0631" lon="6.89877"><ele></ele><time>2021-8-27T14:6:34Z</time></trkpt>
<trkpt lat="46.06309" lon="6.89878"><ele></ele><time>2021-8-27T14:6:37Z</time></trkpt>
<trkpt lat="46.06299" lon="6.8986"><ele></ele><time>2021-8-27T14:6:40Z</time></trkpt>
<trkpt lat="46.06291" lon="6.8985"><ele></ele><time>2021-8-27T14:6:43Z</time></trkpt>
<trkpt lat="46.0629" lon="6.89849"><ele></ele><time>2021-8-27T14:6:46Z</time></trkpt>
<trkpt lat="46.06288" lon="6.89847"><ele></ele><time>2021-8-27T14:6:49Z</time></trkpt>
<trkpt lat="46.06275" lon="6.89836"><ele></ele><time>2021-8-27T14:6:52Z</time></trkpt>
<trkpt lat="46.06258" lon="6.89826"><ele></ele><time>2021-8-27T14:6:55Z</time></trkpt>
<trkpt lat="46.06236" lon="6.89822"><ele></ele><time>2021-8-27T14:6:58Z</time></trkpt>
<trkpt lat="46.06217" lon="6.89824"><ele></ele><time>2021-8-27T14:7:1Z</time></trkpt>
<trkpt lat="46.06199" lon="6.89834"><ele></ele><time>2021-8-27T14:7:4Z</time></trkpt>
<trkpt lat="46.06195" lon="6.89837"><ele></ele><time>2021-8-27T14:7:7Z</time></trkpt>
<trkpt lat="46.06195" lon="6.89836"><ele></ele><time>2021-8-27T14:7:10Z</time></trkpt>
<trkpt lat="46.06195" lon="6.89835"><ele></ele><time>2021-8-27T14:7:13Z</time></trkpt>
<trkpt lat="46.06194" lon="6.89832"><ele></ele><time>2021-8-27T14:7:16Z</time></trkpt>
<trkpt lat="46.06195" lon="6.89837"><ele></ele><time>2021-8-27T14:7:19Z</time></trkpt>
<trkpt lat="46.06185" lon="6.89844"><ele></ele><time>2021-8-27T14:7:22Z</time></trkpt>
<trkpt lat="46.06174" lon="6.89849"><ele></ele><time>2021-8-27T14:7:25Z</time></trkpt>
<trkpt lat="46.06173" lon="6.89845"><ele></ele><time>2021-8-27T14:7:28Z</time></trkpt>
<trkpt lat="46.06163" lon="6.89823"><ele></ele><time>2021-8-27T14:7:31Z</time></trkpt>
<trkpt lat="46.06155" lon="6.89806"><ele></ele><time>2021-8-27T14:7:34Z</time></trkpt>
<trkpt lat="46.0615" lon="6.89814"><ele></ele><time>2021-8-27T14:7:37Z</time></trkpt>
<trkpt lat="46.06147" lon="6.89814"><ele></ele><time>2021-8-27T14:7:40Z</time></trkpt>
<trkpt lat="46.06144" lon="6.89814"><ele></ele><time>2021-8-27T14:7:43Z</time></trkpt>
<trkpt lat="46.06142" lon="6.89814"><ele></ele><time>2021-8-27T14:7:46Z</time></trkpt>
<trkpt lat="46.06138" lon="6.89809"><ele></ele><time>2021-8-27T14:7:49Z</time></trkpt>
<trkpt lat="46.06137" lon="6.89807"><ele></ele><time>2021-8-27T14:7:52Z</time></trkpt>
<trkpt lat="46.06135" lon="6.89803"><ele></ele><time>2021-8-27T14:7:55Z</time></trkpt>
<trkpt lat="46.06132" lon="6.89797"><ele></ele><time>2021-8-27T14:7:58Z</time></trkpt>
<trkpt lat="46.06128" lon="6.89789"><ele></ele><time>2021-8-27T14:8:1Z</time></trkpt>
<trkpt lat="46.0613" lon="6.89765"><ele></ele><time>2021-8-27T14:8:4Z</time></trkpt>
<trkpt lat="46.06135" lon="6.89744"><ele></ele><time>2021-8-27T14:8:7Z</time></trkpt>
<trkpt lat="46.06142" lon="6.89733"><ele></ele><time>2021-8-27T14:8:10Z</time></trkpt>
<trkpt lat="46.06143" lon="6.89731"><ele></ele><time>2021-8-27T14:8:13Z</time></trkpt>
<trkpt lat="46.06142" lon="6.8973"><ele></ele><time>2021-8-27T14:8:16Z</time></trkpt>
<trkpt lat="46.06143" lon="6.8973"><ele></ele><time>2021-8-27T14:8:19Z</time></trkpt>
<trkpt lat="46.0614" lon="6.89732"><ele></ele><time>2021-8-27T14:8:22Z</time></trkpt>
<trkpt lat="46.06141" lon="6.89733"><ele></ele><time>2021-8-27T14:8:25Z</time></trkpt>
<trkpt lat="46.0614" lon="6.89733"><ele></ele><time>2021-8-27T14:8:28Z</time></trkpt>
<trkpt lat="46.0614" lon="6.89733"><ele></ele><time>2021-8-27T14:8:31Z</time></trkpt>
<trkpt lat="46.0614" lon="6.89733"><ele></ele><time>2021-8-27T14:8:34Z</time></trkpt>
<trkpt lat="46.0614" lon="6.89733"><ele></ele><time>2021-8-27T14:8:37Z</time></trkpt>
<trkpt lat="46.0614" lon="6.89733"><ele></ele><time>2021-8-27T14:8:40Z</time></trkpt>
<trkpt lat="46.0614" lon="6.89733"><ele></ele><time>2021-8-27T14:8:43Z</time></trkpt>
<trkpt lat="46.0614" lon="6.89731"><ele></ele><time>2021-8-27T14:8:46Z</time></trkpt>
<trkpt lat="46.0614" lon="6.89731"><ele></ele><time>2021-8-27T14:8:49Z</time></trkpt>
<trkpt lat="46.0614" lon="6.89732"><ele></ele><time>2021-8-27T14:8:52Z</time></trkpt>
<trkpt lat="46.06141" lon="6.89733"><ele></ele><time>2021-8-27T14:8:55Z</time></trkpt>
<trkpt lat="46.06141" lon="6.89734"><ele></ele><time>2021-8-27T14:8:58Z</time></trkpt>
<trkpt lat="46.06141" lon="6.89734"><ele></ele><time>2021-8-27T14:9:1Z</time></trkpt>
<trkpt lat="46.06141" lon="6.89734"><ele></ele><time>2021-8-27T14:9:4Z</time></trkpt>
<trkpt lat="46.06141" lon="6.89734"><ele></ele><time>2021-8-27T14:9:7Z</time></trkpt>
<trkpt lat="46.06141" lon="6.89734"><ele></ele><time>2021-8-27T14:9:10Z</time></trkpt>
<trkpt lat="46.06141" lon="6.89733"><ele></ele><time>2021-8-27T14:9:13Z</time></trkpt>
<trkpt lat="46.06141" lon="6.89733"><ele></ele><time>2021-8-27T14:9:16Z</time></trkpt>
<trkpt lat="46.0614" lon="6.89734"><ele></ele><time>2021-8-27T14:9:19Z</time></trkpt>
<trkpt lat="46.0614" lon="6.89734"><ele></ele><time>2021-8-27T14:9:22Z</time></trkpt>
<trkpt lat="46.06139" lon="6.89734"><ele></ele><time>2021-8-27T14:9:25Z</time></trkpt>
<trkpt lat="46.0614" lon="6.89733"><ele></ele><time>2021-8-27T14:9:28Z</time></trkpt>
<trkpt lat="46.06141" lon="6.89732"><ele></ele><time>2021-8-27T14:9:31Z</time></trkpt>
<trkpt lat="46.06141" lon="6.89733"><ele></ele><time>2021-8-27T14:9:34Z</time></trkpt>
<trkpt lat="46.06141" lon="6.89733"><ele></ele><time>2021-8-27T14:9:37Z</time></trkpt>
<trkpt lat="46.06141" lon="6.89733"><ele></ele><time>2021-8-27T14:9:40Z</time></trkpt>
<trkpt lat="46.06141" lon="6.89734"><ele></ele><time>2021-8-27T14:9:43Z</time></trkpt>
<trkpt lat="46.0614" lon="6.89736"><ele></ele><time>2021-8-27T14:9:46Z</time></trkpt>
<trkpt lat="46.0614" lon="6.89736"><ele></ele><time>2021-8-27T14:9:49Z</time></trkpt>
<trkpt lat="46.0614" lon="6.89735"><ele></ele><time>2021-8-27T14:9:52Z</time></trkpt>
<trkpt lat="46.0614" lon="6.89735"><ele></ele><time>2021-8-27T14:9:55Z</time></trkpt>
<trkpt lat="46.0614" lon="6.89735"><ele></ele><time>2021-8-27T14:9:58Z</time></trkpt>
<trkpt lat="46.0614" lon="6.89735"><ele></ele><time>2021-8-27T14:10:1Z</time></trkpt>
<trkpt lat="46.0614" lon="6.89736"><ele></ele><time>2021-8-27T14:10:4Z</time></trkpt>
<trkpt lat="46.0614" lon="6.89737"><ele></ele><time>2021-8-27T14:10:7Z</time></trkpt>
<trkpt lat="46.0614" lon="6.89738"><ele></ele><time>2021-8-27T14:10:10Z</time></trkpt>
<trkpt lat="46.0614" lon="6.89737"><ele></ele><time>2021-8-27T14:10:13Z</time></trkpt>
<trkpt lat="46.06141" lon="6.89735"><ele></ele><time>2021-8-27T14:10:16Z</time></trkpt>
<trkpt lat="46.06141" lon="6.89735"><ele></ele><time>2021-8-27T14:10:19Z</time></trkpt>
<trkpt lat="46.0614" lon="6.89734"><ele></ele><time>2021-8-27T14:10:22Z</time></trkpt>
<trkpt lat="46.06141" lon="6.89733"><ele></ele><time>2021-8-27T14:10:25Z</time></trkpt>
<trkpt lat="46.06141" lon="6.89733"><ele></ele><time>2021-8-27T14:10:28Z</time></trkpt>
<trkpt lat="46.06141" lon="6.89733"><ele></ele><time>2021-8-27T14:10:31Z</time></trkpt>
<trkpt lat="46.0614" lon="6.89734"><ele></ele><time>2021-8-27T14:10:34Z</time></trkpt>
<trkpt lat="46.06141" lon="6.89735"><ele></ele><time>2021-8-27T14:10:37Z</time></trkpt>
<trkpt lat="46.06141" lon="6.89735"><ele></ele><time>2021-8-27T14:10:40Z</time></trkpt>
<trkpt lat="46.06141" lon="6.89736"><ele></ele><time>2021-8-27T14:10:43Z</time></trkpt>
<trkpt lat="46.0614" lon="6.89734"><ele></ele><time>2021-8-27T14:10:46Z</time></trkpt>
<trkpt lat="46.0614" lon="6.8973"><ele></ele><time>2021-8-27T14:10:49Z</time></trkpt>
<trkpt lat="46.06141" lon="6.8973"><ele></ele><time>2021-8-27T14:10:52Z</time></trkpt>
<trkpt lat="46.06141" lon="6.8973"><ele></ele><time>2021-8-27T14:10:55Z</time></trkpt>
<trkpt lat="46.06141" lon="6.89731"><ele></ele><time>2021-8-27T14:10:58Z</time></trkpt>
<trkpt lat="46.06141" lon="6.89731"><ele></ele><time>2021-8-27T14:11:1Z</time></trkpt>
<trkpt lat="46.06141" lon="6.89731"><ele></ele><time>2021-8-27T14:11:4Z</time></trkpt>
<trkpt lat="46.06141" lon="6.89731"><ele></ele><time>2021-8-27T14:11:7Z</time></trkpt>
<trkpt lat="46.06142" lon="6.8973"><ele></ele><time>2021-8-27T14:11:10Z</time></trkpt>
<trkpt lat="46.06142" lon="6.8973"><ele></ele><time>2021-8-27T14:11:13Z</time></trkpt>
<trkpt lat="46.06142" lon="6.8973"><ele></ele><time>2021-8-27T14:11:16Z</time></trkpt>
<trkpt lat="46.06142" lon="6.8973"><ele></ele><time>2021-8-27T14:11:19Z</time></trkpt>
<trkpt lat="46.06142" lon="6.8973"><ele></ele><time>2021-8-27T14:11:22Z</time></trkpt>
<trkpt lat="46.06141" lon="6.89736"><ele></ele><time>2021-8-27T14:11:25Z</time></trkpt>
<trkpt lat="46.0614" lon="6.89732"><ele></ele><time>2021-8-27T14:11:28Z</time></trkpt>
<trkpt lat="46.0614" lon="6.89732"><ele></ele><time>2021-8-27T14:11:31Z</time></trkpt>
<trkpt lat="46.0614" lon="6.89732"><ele></ele><time>2021-8-27T14:11:34Z</time></trkpt>
<trkpt lat="46.0614" lon="6.89732"><ele></ele><time>2021-8-27T14:11:37Z</time></trkpt>
<trkpt lat="46.06141" lon="6.89732"><ele></ele><time>2021-8-27T14:11:40Z</time></trkpt>
<trkpt lat="46.06143" lon="6.89732"><ele></ele><time>2021-8-27T14:11:43Z</time></trkpt>
<trkpt lat="46.06143" lon="6.89733"><ele></ele><time>2021-8-27T14:11:46Z</time></trkpt>
<trkpt lat="46.06143" lon="6.89734"><ele></ele><time>2021-8-27T14:11:49Z</time></trkpt>
<trkpt lat="46.06143" lon="6.89735"><ele></ele><time>2021-8-27T14:11:52Z</time></trkpt>
<trkpt lat="46.06143" lon="6.89735"><ele></ele><time>2021-8-27T14:11:55Z</time></trkpt>
<trkpt lat="46.06143" lon="6.89735"><ele></ele><time>2021-8-27T14:11:58Z</time></trkpt>
<trkpt lat="46.06143" lon="6.89735"><ele></ele><time>2021-8-27T14:12:1Z</time></trkpt>
<trkpt lat="46.06143" lon="6.89733"><ele></ele><time>2021-8-27T14:12:4Z</time></trkpt>
<trkpt lat="46.06143" lon="6.89733"><ele></ele><time>2021-8-27T14:12:7Z</time></trkpt>
<trkpt lat="46.06143" lon="6.89733"><ele></ele><time>2021-8-27T14:12:10Z</time></trkpt>
<trkpt lat="46.06142" lon="6.89733"><ele></ele><time>2021-8-27T14:12:13Z</time></trkpt>
<trkpt lat="46.06142" lon="6.89736"><ele></ele><time>2021-8-27T14:12:16Z</time></trkpt>
<trkpt lat="46.06143" lon="6.89732"><ele></ele><time>2021-8-27T14:12:19Z</time></trkpt>
<trkpt lat="46.06144" lon="6.89731"><ele></ele><time>2021-8-27T14:12:22Z</time></trkpt>
<trkpt lat="46.06145" lon="6.89732"><ele></ele><time>2021-8-27T14:12:25Z</time></trkpt>
<trkpt lat="46.06145" lon="6.89732"><ele></ele><time>2021-8-27T14:12:28Z</time></trkpt>
<trkpt lat="46.06144" lon="6.89733"><ele></ele><time>2021-8-27T14:12:31Z</time></trkpt>
<trkpt lat="46.06144" lon="6.89733"><ele></ele><time>2021-8-27T14:12:34Z</time></trkpt>
<trkpt lat="46.06144" lon="6.89732"><ele></ele><time>2021-8-27T14:12:37Z</time></trkpt>
<trkpt lat="46.06143" lon="6.89732"><ele></ele><time>2021-8-27T14:12:40Z</time></trkpt>
<trkpt lat="46.06142" lon="6.89732"><ele></ele><time>2021-8-27T14:12:43Z</time></trkpt>
<trkpt lat="46.06143" lon="6.89732"><ele></ele><time>2021-8-27T14:12:46Z</time></trkpt>
<trkpt lat="46.06143" lon="6.89732"><ele></ele><time>2021-8-27T14:12:49Z</time></trkpt>
<trkpt lat="46.06142" lon="6.89732"><ele></ele><time>2021-8-27T14:12:52Z</time></trkpt>
<trkpt lat="46.06142" lon="6.89732"><ele></ele><time>2021-8-27T14:12:55Z</time></trkpt>
<trkpt lat="46.06142" lon="6.89732"><ele></ele><time>2021-8-27T14:12:58Z</time></trkpt>
<trkpt lat="46.06142" lon="6.89732"><ele></ele><time>2021-8-27T14:13:1Z</time></trkpt>
<trkpt lat="46.06143" lon="6.89733"><ele></ele><time>2021-8-27T14:13:4Z</time></trkpt>
<trkpt lat="46.06144" lon="6.89735"><ele></ele><time>2021-8-27T14:13:7Z</time></trkpt>
<trkpt lat="46.06144" lon="6.89736"><ele></ele><time>2021-8-27T14:13:10Z</time></trkpt>
<trkpt lat="46.06142" lon="6.89729"><ele></ele><time>2021-8-27T14:13:13Z</time></trkpt>
<trkpt lat="46.06142" lon="6.8973"><ele></ele><time>2021-8-27T14:13:16Z</time></trkpt>
<trkpt lat="46.0614" lon="6.89732"><ele></ele><time>2021-8-27T14:13:19Z</time></trkpt>
<trkpt lat="46.0614" lon="6.89732"><ele></ele><time>2021-8-27T14:13:22Z</time></trkpt>
<trkpt lat="46.0614" lon="6.89735"><ele></ele><time>2021-8-27T14:13:25Z</time></trkpt>
<trkpt lat="46.06142" lon="6.89734"><ele></ele><time>2021-8-27T14:13:28Z</time></trkpt>
<trkpt lat="46.06144" lon="6.89734"><ele></ele><time>2021-8-27T14:13:31Z</time></trkpt>
<trkpt lat="46.06144" lon="6.89734"><ele></ele><time>2021-8-27T14:13:34Z</time></trkpt>
<trkpt lat="46.06143" lon="6.89733"><ele></ele><time>2021-8-27T14:13:37Z</time></trkpt>
<trkpt lat="46.06143" lon="6.89733"><ele></ele><time>2021-8-27T14:13:40Z</time></trkpt>
<trkpt lat="46.06143" lon="6.89731"><ele></ele><time>2021-8-27T14:13:43Z</time></trkpt>
<trkpt lat="46.06142" lon="6.89731"><ele></ele><time>2021-8-27T14:13:46Z</time></trkpt>
<trkpt lat="46.06142" lon="6.89731"><ele></ele><time>2021-8-27T14:13:49Z</time></trkpt>
<trkpt lat="46.06142" lon="6.89731"><ele></ele><time>2021-8-27T14:13:52Z</time></trkpt>
<trkpt lat="46.06142" lon="6.89731"><ele></ele><time>2021-8-27T14:13:55Z</time></trkpt>
<trkpt lat="46.06143" lon="6.89731"><ele></ele><time>2021-8-27T14:13:58Z</time></trkpt>
<trkpt lat="46.06143" lon="6.89731"><ele></ele><time>2021-8-27T14:14:1Z</time></trkpt>
<trkpt lat="46.06143" lon="6.89731"><ele></ele><time>2021-8-27T14:14:4Z</time></trkpt>
<trkpt lat="46.06143" lon="6.89733"><ele></ele><time>2021-8-27T14:14:7Z</time></trkpt>
<trkpt lat="46.06144" lon="6.89734"><ele></ele><time>2021-8-27T14:14:10Z</time></trkpt>
<trkpt lat="46.06144" lon="6.89734"><ele></ele><time>2021-8-27T14:14:13Z</time></trkpt>
<trkpt lat="46.06143" lon="6.89732"><ele></ele><time>2021-8-27T14:14:16Z</time></trkpt>
<trkpt lat="46.06143" lon="6.89733"><ele></ele><time>2021-8-27T14:14:19Z</time></trkpt>
<trkpt lat="46.06142" lon="6.89732"><ele></ele><time>2021-8-27T14:14:22Z</time></trkpt>
<trkpt lat="46.06142" lon="6.89733"><ele></ele><time>2021-8-27T14:14:25Z</time></trkpt>
<trkpt lat="46.06143" lon="6.89735"><ele></ele><time>2021-8-27T14:14:28Z</time></trkpt>
<trkpt lat="46.06143" lon="6.89735"><ele></ele><time>2021-8-27T14:14:31Z</time></trkpt>
<trkpt lat="46.06143" lon="6.89736"><ele></ele><time>2021-8-27T14:14:34Z</time></trkpt>
<trkpt lat="46.06141" lon="6.89738"><ele></ele><time>2021-8-27T14:14:37Z</time></trkpt>
<trkpt lat="46.06143" lon="6.89733"><ele></ele><time>2021-8-27T14:14:40Z</time></trkpt>
<trkpt lat="46.06142" lon="6.89734"><ele></ele><time>2021-8-27T14:14:43Z</time></trkpt>
<trkpt lat="46.06142" lon="6.89733"><ele></ele><time>2021-8-27T14:14:46Z</time></trkpt>
<trkpt lat="46.06142" lon="6.89734"><ele></ele><time>2021-8-27T14:14:49Z</time></trkpt>
<trkpt lat="46.06142" lon="6.89734"><ele></ele><time>2021-8-27T14:14:52Z</time></trkpt>
<trkpt lat="46.06141" lon="6.89731"><ele></ele><time>2021-8-27T14:14:55Z</time></trkpt>
<trkpt lat="46.06142" lon="6.89731"><ele></ele><time>2021-8-27T14:14:58Z</time></trkpt>
<trkpt lat="46.06142" lon="6.89731"><ele></ele><time>2021-8-27T14:15:1Z</time></trkpt>
<trkpt lat="46.06142" lon="6.89731"><ele></ele><time>2021-8-27T14:15:4Z</time></trkpt>
<trkpt lat="46.06143" lon="6.89732"><ele></ele><time>2021-8-27T14:15:7Z</time></trkpt>
<trkpt lat="46.06143" lon="6.89732"><ele></ele><time>2021-8-27T14:15:10Z</time></trkpt>
<trkpt lat="46.06142" lon="6.89731"><ele></ele><time>2021-8-27T14:15:13Z</time></trkpt>
<trkpt lat="46.06143" lon="6.89731"><ele></ele><time>2021-8-27T14:15:16Z</time></trkpt>
<trkpt lat="46.06142" lon="6.89729"><ele></ele><time>2021-8-27T14:15:19Z</time></trkpt>
<trkpt lat="46.06143" lon="6.89729"><ele></ele><time>2021-8-27T14:15:22Z</time></trkpt>
<trkpt lat="46.06143" lon="6.89728"><ele></ele><time>2021-8-27T14:15:25Z</time></trkpt>
<trkpt lat="46.06143" lon="6.89726"><ele></ele><time>2021-8-27T14:15:28Z</time></trkpt>
<trkpt lat="46.06144" lon="6.89728"><ele></ele><time>2021-8-27T14:15:31Z</time></trkpt>
<trkpt lat="46.06143" lon="6.89728"><ele></ele><time>2021-8-27T14:15:34Z</time></trkpt>
<trkpt lat="46.06142" lon="6.89727"><ele></ele><time>2021-8-27T14:15:37Z</time></trkpt>
<trkpt lat="46.06142" lon="6.89728"><ele></ele><time>2021-8-27T14:15:40Z</time></trkpt>
<trkpt lat="46.06144" lon="6.89732"><ele></ele><time>2021-8-27T14:15:43Z</time></trkpt>
<trkpt lat="46.06143" lon="6.89731"><ele></ele><time>2021-8-27T14:15:46Z</time></trkpt>
<trkpt lat="46.06143" lon="6.89731"><ele></ele><time>2021-8-27T14:15:49Z</time></trkpt>
<trkpt lat="46.06142" lon="6.89731"><ele></ele><time>2021-8-27T14:15:52Z</time></trkpt>
<trkpt lat="46.06142" lon="6.89731"><ele></ele><time>2021-8-27T14:15:55Z</time></trkpt>
<trkpt lat="46.06142" lon="6.89731"><ele></ele><time>2021-8-27T14:15:58Z</time></trkpt>
<trkpt lat="46.06143" lon="6.89732"><ele></ele><time>2021-8-27T14:16:1Z</time></trkpt>
<trkpt lat="46.06143" lon="6.89732"><ele></ele><time>2021-8-27T14:16:4Z</time></trkpt>
<trkpt lat="46.06143" lon="6.89732"><ele></ele><time>2021-8-27T14:16:7Z</time></trkpt>
<trkpt lat="46.06143" lon="6.89732"><ele></ele><time>2021-8-27T14:16:10Z</time></trkpt>
<trkpt lat="46.06143" lon="6.89732"><ele></ele><time>2021-8-27T14:16:13Z</time></trkpt>
<trkpt lat="46.06143" lon="6.89732"><ele></ele><time>2021-8-27T14:16:16Z</time></trkpt>
<trkpt lat="46.06143" lon="6.89732"><ele></ele><time>2021-8-27T14:16:19Z</time></trkpt>
<trkpt lat="46.06143" lon="6.89732"><ele></ele><time>2021-8-27T14:16:22Z</time></trkpt>
<trkpt lat="46.06143" lon="6.89732"><ele></ele><time>2021-8-27T14:16:25Z</time></trkpt>
<trkpt lat="46.06143" lon="6.89732"><ele></ele><time>2021-8-27T14:16:28Z</time></trkpt>
<trkpt lat="46.06143" lon="6.89732"><ele></ele><time>2021-8-27T14:16:31Z</time></trkpt>
<trkpt lat="46.06144" lon="6.89732"><ele></ele><time>2021-8-27T14:16:34Z</time></trkpt>
<trkpt lat="46.06144" lon="6.89732"><ele></ele><time>2021-8-27T14:16:37Z</time></trkpt>
<trkpt lat="46.06144" lon="6.89733"><ele></ele><time>2021-8-27T14:16:40Z</time></trkpt>
<trkpt lat="46.06144" lon="6.89732"><ele></ele><time>2021-8-27T14:16:43Z</time></trkpt>
<trkpt lat="46.06144" lon="6.89732"><ele></ele><time>2021-8-27T14:16:46Z</time></trkpt>
<trkpt lat="46.06143" lon="6.89732"><ele></ele><time>2021-8-27T14:16:49Z</time></trkpt>
<trkpt lat="46.06143" lon="6.89733"><ele></ele><time>2021-8-27T14:16:52Z</time></trkpt>
<trkpt lat="46.06145" lon="6.89733"><ele></ele><time>2021-8-27T14:16:55Z</time></trkpt>
<trkpt lat="46.06145" lon="6.89733"><ele></ele><time>2021-8-27T14:16:58Z</time></trkpt>
<trkpt lat="46.06145" lon="6.89733"><ele></ele><time>2021-8-27T14:17:1Z</time></trkpt>
<trkpt lat="46.06145" lon="6.89733"><ele></ele><time>2021-8-27T14:17:4Z</time></trkpt>
<trkpt lat="46.06145" lon="6.89732"><ele></ele><time>2021-8-27T14:17:7Z</time></trkpt>
<trkpt lat="46.06145" lon="6.89732"><ele></ele><time>2021-8-27T14:17:10Z</time></trkpt>
<trkpt lat="46.06145" lon="6.89732"><ele></ele><time>2021-8-27T14:17:13Z</time></trkpt>
<trkpt lat="46.06146" lon="6.89732"><ele></ele><time>2021-8-27T14:17:16Z</time></trkpt>
<trkpt lat="46.06146" lon="6.89732"><ele></ele><time>2021-8-27T14:17:19Z</time></trkpt>
<trkpt lat="46.06146" lon="6.89732"><ele></ele><time>2021-8-27T14:17:22Z</time></trkpt>
<trkpt lat="46.06146" lon="6.89732"><ele></ele><time>2021-8-27T14:17:25Z</time></trkpt>
<trkpt lat="46.06146" lon="6.89732"><ele></ele><time>2021-8-27T14:17:28Z</time></trkpt>
<trkpt lat="46.06145" lon="6.89733"><ele></ele><time>2021-8-27T14:17:31Z</time></trkpt>
<trkpt lat="46.06145" lon="6.89731"><ele></ele><time>2021-8-27T14:17:34Z</time></trkpt>
<trkpt lat="46.06144" lon="6.89731"><ele></ele><time>2021-8-27T14:17:37Z</time></trkpt>
<trkpt lat="46.06144" lon="6.8973"><ele></ele><time>2021-8-27T14:17:40Z</time></trkpt>
<trkpt lat="46.06144" lon="6.8973"><ele></ele><time>2021-8-27T14:17:43Z</time></trkpt>
<trkpt lat="46.06144" lon="6.8973"><ele></ele><time>2021-8-27T14:17:46Z</time></trkpt>
<trkpt lat="46.06143" lon="6.8973"><ele></ele><time>2021-8-27T14:17:49Z</time></trkpt>
<trkpt lat="46.06143" lon="6.89731"><ele></ele><time>2021-8-27T14:17:52Z</time></trkpt>
<trkpt lat="46.06143" lon="6.89731"><ele></ele><time>2021-8-27T14:17:55Z</time></trkpt>
<trkpt lat="46.06144" lon="6.89731"><ele></ele><time>2021-8-27T14:17:58Z</time></trkpt>
<trkpt lat="46.06144" lon="6.89731"><ele></ele><time>2021-8-27T14:18:1Z</time></trkpt>
<trkpt lat="46.06144" lon="6.89731"><ele></ele><time>2021-8-27T14:18:4Z</time></trkpt>
<trkpt lat="46.06143" lon="6.89732"><ele></ele><time>2021-8-27T14:18:7Z</time></trkpt>
<trkpt lat="46.06143" lon="6.89732"><ele></ele><time>2021-8-27T14:18:10Z</time></trkpt>
<trkpt lat="46.06144" lon="6.89732"><ele></ele><time>2021-8-27T14:18:13Z</time></trkpt>
<trkpt lat="46.06144" lon="6.89732"><ele></ele><time>2021-8-27T14:18:16Z</time></trkpt>
<trkpt lat="46.06144" lon="6.89732"><ele></ele><time>2021-8-27T14:18:19Z</time></trkpt>
<trkpt lat="46.06144" lon="6.89732"><ele></ele><time>2021-8-27T14:18:22Z</time></trkpt>
<trkpt lat="46.06144" lon="6.89733"><ele></ele><time>2021-8-27T14:18:25Z</time></trkpt>
<trkpt lat="46.06144" lon="6.89732"><ele></ele><time>2021-8-27T14:18:28Z</time></trkpt>
<trkpt lat="46.06144" lon="6.89732"><ele></ele><time>2021-8-27T14:18:31Z</time></trkpt>
<trkpt lat="46.06145" lon="6.89733"><ele></ele><time>2021-8-27T14:18:34Z</time></trkpt>
<trkpt lat="46.06144" lon="6.89733"><ele></ele><time>2021-8-27T14:18:37Z</time></trkpt>
<trkpt lat="46.06144" lon="6.89733"><ele></ele><time>2021-8-27T14:18:40Z</time></trkpt>
<trkpt lat="46.06144" lon="6.89733"><ele></ele><time>2021-8-27T14:18:43Z</time></trkpt>
<trkpt lat="46.06144" lon="6.89733"><ele></ele><time>2021-8-27T14:18:46Z</time></trkpt>
<trkpt lat="46.06144" lon="6.89733"><ele></ele><time>2021-8-27T14:18:49Z</time></trkpt>
<trkpt lat="46.06144" lon="6.89733"><ele></ele><time>2021-8-27T14:18:52Z</time></trkpt>
<trkpt lat="46.06144" lon="6.89733"><ele></ele><time>2021-8-27T14:18:55Z</time></trkpt>
<trkpt lat="46.06144" lon="6.89733"><ele></ele><time>2021-8-27T14:18:58Z</time></trkpt>
<trkpt lat="46.06144" lon="6.89732"><ele></ele><time>2021-8-27T14:19:1Z</time></trkpt>
<trkpt lat="46.06144" lon="6.89732"><ele></ele><time>2021-8-27T14:19:4Z</time></trkpt>
<trkpt lat="46.06143" lon="6.89732"><ele></ele><time>2021-8-27T14:19:7Z</time></trkpt>
<trkpt lat="46.06143" lon="6.89732"><ele></ele><time>2021-8-27T14:19:10Z</time></trkpt>
<trkpt lat="46.06143" lon="6.89732"><ele></ele><time>2021-8-27T14:19:13Z</time></trkpt>
<trkpt lat="46.06144" lon="6.89734"><ele></ele><time>2021-8-27T14:19:16Z</time></trkpt>
<trkpt lat="46.06144" lon="6.89734"><ele></ele><time>2021-8-27T14:19:19Z</time></trkpt>
<trkpt lat="46.06144" lon="6.89734"><ele></ele><time>2021-8-27T14:19:22Z</time></trkpt>
<trkpt lat="46.06144" lon="6.89734"><ele></ele><time>2021-8-27T14:19:25Z</time></trkpt>
<trkpt lat="46.06144" lon="6.89734"><ele></ele><time>2021-8-27T14:19:28Z</time></trkpt>
<trkpt lat="46.06144" lon="6.89734"><ele></ele><time>2021-8-27T14:19:31Z</time></trkpt>
<trkpt lat="46.06144" lon="6.89734"><ele></ele><time>2021-8-27T14:19:34Z</time></trkpt>
<trkpt lat="46.06144" lon="6.89734"><ele></ele><time>2021-8-27T14:19:37Z</time></trkpt>
<trkpt lat="46.06144" lon="6.89735"><ele></ele><time>2021-8-27T14:19:40Z</time></trkpt>
<trkpt lat="46.06144" lon="6.89733"><ele></ele><time>2021-8-27T14:19:43Z</time></trkpt>
<trkpt lat="46.06143" lon="6.89732"><ele></ele><time>2021-8-27T14:19:46Z</time></trkpt>
<trkpt lat="46.06144" lon="6.89731"><ele></ele><time>2021-8-27T14:19:49Z</time></trkpt>
<trkpt lat="46.06144" lon="6.8973"><ele></ele><time>2021-8-27T14:19:52Z</time></trkpt>
<trkpt lat="46.06144" lon="6.8973"><ele></ele><time>2021-8-27T14:19:55Z</time></trkpt>
<trkpt lat="46.06146" lon="6.89732"><ele></ele><time>2021-8-27T14:19:58Z</time></trkpt>
<trkpt lat="46.06147" lon="6.89731"><ele></ele><time>2021-8-27T14:20:1Z</time></trkpt>
<trkpt lat="46.06146" lon="6.89731"><ele></ele><time>2021-8-27T14:20:4Z</time></trkpt>
<trkpt lat="46.06144" lon="6.89732"><ele></ele><time>2021-8-27T14:20:7Z</time></trkpt>
<trkpt lat="46.06143" lon="6.89732"><ele></ele><time>2021-8-27T14:20:10Z</time></trkpt>
<trkpt lat="46.06142" lon="6.89733"><ele></ele><time>2021-8-27T14:20:13Z</time></trkpt>
<trkpt lat="46.06143" lon="6.89733"><ele></ele><time>2021-8-27T14:20:16Z</time></trkpt>
<trkpt lat="46.06143" lon="6.89733"><ele></ele><time>2021-8-27T14:20:19Z</time></trkpt>
<trkpt lat="46.06143" lon="6.89732"><ele></ele><time>2021-8-27T14:20:22Z</time></trkpt>
<trkpt lat="46.06143" lon="6.89732"><ele></ele><time>2021-8-27T14:20:25Z</time></trkpt>
<trkpt lat="46.06143" lon="6.89732"><ele></ele><time>2021-8-27T14:20:28Z</time></trkpt>
<trkpt lat="46.06144" lon="6.8973"><ele></ele><time>2021-8-27T14:20:31Z</time></trkpt>
<trkpt lat="46.06146" lon="6.89729"><ele></ele><time>2021-8-27T14:20:34Z</time></trkpt>
<trkpt lat="46.06142" lon="6.89726"><ele></ele><time>2021-8-27T14:20:37Z</time></trkpt>
<trkpt lat="46.06142" lon="6.89729"><ele></ele><time>2021-8-27T14:20:40Z</time></trkpt>
<trkpt lat="46.06142" lon="6.89729"><ele></ele><time>2021-8-27T14:20:43Z</time></trkpt>
<trkpt lat="46.06142" lon="6.8973"><ele></ele><time>2021-8-27T14:20:46Z</time></trkpt>
<trkpt lat="46.06144" lon="6.89732"><ele></ele><time>2021-8-27T14:20:49Z</time></trkpt>
<trkpt lat="46.06144" lon="6.89732"><ele></ele><time>2021-8-27T14:20:52Z</time></trkpt>
<trkpt lat="46.06145" lon="6.89733"><ele></ele><time>2021-8-27T14:20:55Z</time></trkpt>
<trkpt lat="46.06146" lon="6.89736"><ele></ele><time>2021-8-27T14:20:58Z</time></trkpt>
<trkpt lat="46.06145" lon="6.89737"><ele></ele><time>2021-8-27T14:21:1Z</time></trkpt>
<trkpt lat="46.06145" lon="6.89736"><ele></ele><time>2021-8-27T14:21:4Z</time></trkpt>
<trkpt lat="46.06145" lon="6.89735"><ele></ele><time>2021-8-27T14:21:7Z</time></trkpt>
<trkpt lat="46.06145" lon="6.89733"><ele></ele><time>2021-8-27T14:21:10Z</time></trkpt>
<trkpt lat="46.06146" lon="6.89732"><ele></ele><time>2021-8-27T14:21:13Z</time></trkpt>
<trkpt lat="46.06145" lon="6.89729"><ele></ele><time>2021-8-27T14:21:16Z</time></trkpt>
<trkpt lat="46.06144" lon="6.89728"><ele></ele><time>2021-8-27T14:21:19Z</time></trkpt>
<trkpt lat="46.06146" lon="6.89729"><ele></ele><time>2021-8-27T14:21:22Z</time></trkpt>
<trkpt lat="46.06148" lon="6.89731"><ele></ele><time>2021-8-27T14:21:25Z</time></trkpt>
<trkpt lat="46.06148" lon="6.89732"><ele></ele><time>2021-8-27T14:21:28Z</time></trkpt>
<trkpt lat="46.06148" lon="6.89732"><ele></ele><time>2021-8-27T14:21:31Z</time></trkpt>
<trkpt lat="46.06148" lon="6.89733"><ele></ele><time>2021-8-27T14:21:34Z</time></trkpt>
<trkpt lat="46.06148" lon="6.89733"><ele></ele><time>2021-8-27T14:21:37Z</time></trkpt>
<trkpt lat="46.06149" lon="6.89734"><ele></ele><time>2021-8-27T14:21:40Z</time></trkpt>
<trkpt lat="46.0615" lon="6.89735"><ele></ele><time>2021-8-27T14:21:43Z</time></trkpt>
<trkpt lat="46.06153" lon="6.89737"><ele></ele><time>2021-8-27T14:21:46Z</time></trkpt>
<trkpt lat="46.06153" lon="6.89738"><ele></ele><time>2021-8-27T14:21:49Z</time></trkpt>
<trkpt lat="46.06146" lon="6.89736"><ele></ele><time>2021-8-27T14:21:52Z</time></trkpt>
<trkpt lat="46.06145" lon="6.89734"><ele></ele><time>2021-8-27T14:21:55Z</time></trkpt>
<trkpt lat="46.06144" lon="6.89734"><ele></ele><time>2021-8-27T14:21:58Z</time></trkpt>
<trkpt lat="46.06143" lon="6.89735"><ele></ele><time>2021-8-27T14:22:1Z</time></trkpt>
<trkpt lat="46.06144" lon="6.89733"><ele></ele><time>2021-8-27T14:22:4Z</time></trkpt>
<trkpt lat="46.06145" lon="6.89726"><ele></ele><time>2021-8-27T14:22:7Z</time></trkpt>
<trkpt lat="46.06146" lon="6.89731"><ele></ele><time>2021-8-27T14:22:10Z</time></trkpt>
<trkpt lat="46.06144" lon="6.89731"><ele></ele><time>2021-8-27T14:22:13Z</time></trkpt>
<trkpt lat="46.06143" lon="6.89732"><ele></ele><time>2021-8-27T14:22:16Z</time></trkpt>
<trkpt lat="46.06143" lon="6.8973"><ele></ele><time>2021-8-27T14:22:19Z</time></trkpt>
<trkpt lat="46.06144" lon="6.8973"><ele></ele><time>2021-8-27T14:22:22Z</time></trkpt>
<trkpt lat="46.06144" lon="6.89731"><ele></ele><time>2021-8-27T14:22:25Z</time></trkpt>
<trkpt lat="46.06145" lon="6.89732"><ele></ele><time>2021-8-27T14:22:28Z</time></trkpt>
<trkpt lat="46.06144" lon="6.89732"><ele></ele><time>2021-8-27T14:22:31Z</time></trkpt>
<trkpt lat="46.06144" lon="6.89732"><ele></ele><time>2021-8-27T14:22:34Z</time></trkpt>
<trkpt lat="46.06144" lon="6.89732"><ele></ele><time>2021-8-27T14:22:37Z</time></trkpt>
<trkpt lat="46.06144" lon="6.89733"><ele></ele><time>2021-8-27T14:22:40Z</time></trkpt>
<trkpt lat="46.06145" lon="6.89733"><ele></ele><time>2021-8-27T14:22:43Z</time></trkpt>
<trkpt lat="46.06145" lon="6.89732"><ele></ele><time>2021-8-27T14:22:46Z</time></trkpt>
<trkpt lat="46.06144" lon="6.89732"><ele></ele><time>2021-8-27T14:22:49Z</time></trkpt>
<trkpt lat="46.06143" lon="6.89732"><ele></ele><time>2021-8-27T14:22:52Z</time></trkpt>
<trkpt lat="46.06143" lon="6.89732"><ele></ele><time>2021-8-27T14:22:55Z</time></trkpt>
<trkpt lat="46.06143" lon="6.89732"><ele></ele><time>2021-8-27T14:22:58Z</time></trkpt>
<trkpt lat="46.06143" lon="6.89731"><ele></ele><time>2021-8-27T14:23:1Z</time></trkpt>
<trkpt lat="46.06143" lon="6.89731"><ele></ele><time>2021-8-27T14:23:4Z</time></trkpt>
<trkpt lat="46.06143" lon="6.89732"><ele></ele><time>2021-8-27T14:23:7Z</time></trkpt>
<trkpt lat="46.06143" lon="6.89733"><ele></ele><time>2021-8-27T14:23:10Z</time></trkpt>
<trkpt lat="46.06143" lon="6.89733"><ele></ele><time>2021-8-27T14:23:13Z</time></trkpt>
<trkpt lat="46.06142" lon="6.89732"><ele></ele><time>2021-8-27T14:23:16Z</time></trkpt>
<trkpt lat="46.06143" lon="6.89732"><ele></ele><time>2021-8-27T14:23:19Z</time></trkpt>
<trkpt lat="46.06143" lon="6.89732"><ele></ele><time>2021-8-27T14:23:22Z</time></trkpt>
<trkpt lat="46.06143" lon="6.89733"><ele></ele><time>2021-8-27T14:23:25Z</time></trkpt>
<trkpt lat="46.06143" lon="6.89733"><ele></ele><time>2021-8-27T14:23:28Z</time></trkpt>
<trkpt lat="46.06138" lon="6.89744"><ele></ele><time>2021-8-27T14:23:31Z</time></trkpt>
<trkpt lat="46.06138" lon="6.89744"><ele></ele><time>2021-8-27T14:23:34Z</time></trkpt>
<trkpt lat="46.06138" lon="6.89745"><ele></ele><time>2021-8-27T14:23:37Z</time></trkpt>
<trkpt lat="46.06137" lon="6.89746"><ele></ele><time>2021-8-27T14:23:40Z</time></trkpt>
<trkpt lat="46.06136" lon="6.89747"><ele></ele><time>2021-8-27T14:23:43Z</time></trkpt>
<trkpt lat="46.06136" lon="6.89767"><ele></ele><time>2021-8-27T14:23:46Z</time></trkpt>
<trkpt lat="46.06134" lon="6.89773"><ele></ele><time>2021-8-27T14:23:49Z</time></trkpt>
<trkpt lat="46.06133" lon="6.89776"><ele></ele><time>2021-8-27T14:23:52Z</time></trkpt>
<trkpt lat="46.06131" lon="6.89781"><ele></ele><time>2021-8-27T14:23:55Z</time></trkpt>
<trkpt lat="46.06131" lon="6.89782"><ele></ele><time>2021-8-27T14:23:58Z</time></trkpt>
<trkpt lat="46.06133" lon="6.89799"><ele></ele><time>2021-8-27T14:24:1Z</time></trkpt>
<trkpt lat="46.06136" lon="6.89806"><ele></ele><time>2021-8-27T14:24:4Z</time></trkpt>
<trkpt lat="46.06137" lon="6.8981"><ele></ele><time>2021-8-27T14:24:7Z</time></trkpt>
<trkpt lat="46.06138" lon="6.89812"><ele></ele><time>2021-8-27T14:24:10Z</time></trkpt>
<trkpt lat="46.06138" lon="6.89816"><ele></ele><time>2021-8-27T14:24:13Z</time></trkpt>
<trkpt lat="46.06139" lon="6.89816"><ele></ele><time>2021-8-27T14:24:16Z</time></trkpt>
<trkpt lat="46.06146" lon="6.89819"><ele></ele><time>2021-8-27T14:24:19Z</time></trkpt>
<trkpt lat="46.06158" lon="6.89821"><ele></ele><time>2021-8-27T14:24:22Z</time></trkpt>
<trkpt lat="46.06164" lon="6.89831"><ele></ele><time>2021-8-27T14:24:25Z</time></trkpt>
<trkpt lat="46.06166" lon="6.89835"><ele></ele><time>2021-8-27T14:24:28Z</time></trkpt>
<trkpt lat="46.06175" lon="6.89846"><ele></ele><time>2021-8-27T14:24:31Z</time></trkpt>
<trkpt lat="46.06178" lon="6.89849"><ele></ele><time>2021-8-27T14:24:34Z</time></trkpt>
<trkpt lat="46.06178" lon="6.89848"><ele></ele><time>2021-8-27T14:24:37Z</time></trkpt>
<trkpt lat="46.06178" lon="6.89848"><ele></ele><time>2021-8-27T14:24:40Z</time></trkpt>
<trkpt lat="46.0618" lon="6.89846"><ele></ele><time>2021-8-27T14:24:43Z</time></trkpt>
<trkpt lat="46.06182" lon="6.89845"><ele></ele><time>2021-8-27T14:24:46Z</time></trkpt>
<trkpt lat="46.06199" lon="6.89831"><ele></ele><time>2021-8-27T14:24:49Z</time></trkpt>
<trkpt lat="46.06217" lon="6.89824"><ele></ele><time>2021-8-27T14:24:52Z</time></trkpt>
<trkpt lat="46.06234" lon="6.89819"><ele></ele><time>2021-8-27T14:24:55Z</time></trkpt>
<trkpt lat="46.06246" lon="6.8982"><ele></ele><time>2021-8-27T14:24:58Z</time></trkpt>
<trkpt lat="46.06265" lon="6.89826"><ele></ele><time>2021-8-27T14:25:1Z</time></trkpt>
<trkpt lat="46.0628" lon="6.89836"><ele></ele><time>2021-8-27T14:25:4Z</time></trkpt>
<trkpt lat="46.06282" lon="6.89837"><ele></ele><time>2021-8-27T14:25:7Z</time></trkpt>
<trkpt lat="46.06284" lon="6.89839"><ele></ele><time>2021-8-27T14:25:10Z</time></trkpt>
<trkpt lat="46.063" lon="6.89857"><ele></ele><time>2021-8-27T14:25:13Z</time></trkpt>
<trkpt lat="46.06309" lon="6.89868"><ele></ele><time>2021-8-27T14:25:16Z</time></trkpt>
<trkpt lat="46.06313" lon="6.89873"><ele></ele><time>2021-8-27T14:25:19Z</time></trkpt>
<trkpt lat="46.06333" lon="6.89905"><ele></ele><time>2021-8-27T14:25:22Z</time></trkpt>
<trkpt lat="46.0634" lon="6.89929"><ele></ele><time>2021-8-27T14:25:25Z</time></trkpt>
<trkpt lat="46.06339" lon="6.89937"><ele></ele><time>2021-8-27T14:25:28Z</time></trkpt>
<trkpt lat="46.06337" lon="6.89937"><ele></ele><time>2021-8-27T14:25:31Z</time></trkpt>
<trkpt lat="46.06326" lon="6.89937"><ele></ele><time>2021-8-27T14:25:34Z</time></trkpt>
<trkpt lat="46.0633" lon="6.89963"><ele></ele><time>2021-8-27T14:25:37Z</time></trkpt>
<trkpt lat="46.06327" lon="6.89996"><ele></ele><time>2021-8-27T14:25:40Z</time></trkpt>
<trkpt lat="46.06326" lon="6.90012"><ele></ele><time>2021-8-27T14:25:43Z</time></trkpt>
<trkpt lat="46.06324" lon="6.90024"><ele></ele><time>2021-8-27T14:25:46Z</time></trkpt>
<trkpt lat="46.06322" lon="6.90032"><ele></ele><time>2021-8-27T14:25:49Z</time></trkpt>
<trkpt lat="46.06315" lon="6.90057"><ele></ele><time>2021-8-27T14:25:52Z</time></trkpt>
<trkpt lat="46.06314" lon="6.90063"><ele></ele><time>2021-8-27T14:25:55Z</time></trkpt>
<trkpt lat="46.06304" lon="6.9004"><ele></ele><time>2021-8-27T14:25:58Z</time></trkpt>
<trkpt lat="46.06289" lon="6.90018"><ele></ele><time>2021-8-27T14:26:1Z</time></trkpt>
<trkpt lat="46.06281" lon="6.89997"><ele></ele><time>2021-8-27T14:26:4Z</time></trkpt>
<trkpt lat="46.06278" lon="6.89968"><ele></ele><time>2021-8-27T14:26:7Z</time></trkpt>
<trkpt lat="46.0628" lon="6.89964"><ele></ele><time>2021-8-27T14:26:10Z</time></trkpt>
<trkpt lat="46.06275" lon="6.89957"><ele></ele><time>2021-8-27T14:26:13Z</time></trkpt>
<trkpt lat="46.06274" lon="6.89961"><ele></ele><time>2021-8-27T14:26:16Z</time></trkpt>
<trkpt lat="46.06268" lon="6.89976"><ele></ele><time>2021-8-27T14:26:19Z</time></trkpt>
<trkpt lat="46.06261" lon="6.89997"><ele></ele><time>2021-8-27T14:26:22Z</time></trkpt>
<trkpt lat="46.0626" lon="6.9001"><ele></ele><time>2021-8-27T14:26:25Z</time></trkpt>
<trkpt lat="46.06265" lon="6.90034"><ele></ele><time>2021-8-27T14:26:28Z</time></trkpt>
<trkpt lat="46.06275" lon="6.90061"><ele></ele><time>2021-8-27T14:26:31Z</time></trkpt>
<trkpt lat="46.06284" lon="6.90086"><ele></ele><time>2021-8-27T14:26:34Z</time></trkpt>
<trkpt lat="46.06291" lon="6.90113"><ele></ele><time>2021-8-27T14:26:37Z</time></trkpt>
<trkpt lat="46.06301" lon="6.90139"><ele></ele><time>2021-8-27T14:26:40Z</time></trkpt>
<trkpt lat="46.06316" lon="6.90179"><ele></ele><time>2021-8-27T14:26:43Z</time></trkpt>
<trkpt lat="46.06323" lon="6.90206"><ele></ele><time>2021-8-27T14:26:46Z</time></trkpt>
<trkpt lat="46.0633" lon="6.90229"><ele></ele><time>2021-8-27T14:26:49Z</time></trkpt>
<trkpt lat="46.06342" lon="6.90252"><ele></ele><time>2021-8-27T14:26:52Z</time></trkpt>
<trkpt lat="46.06353" lon="6.90277"><ele></ele><time>2021-8-27T14:26:55Z</time></trkpt>
<trkpt lat="46.06355" lon="6.90303"><ele></ele><time>2021-8-27T14:26:58Z</time></trkpt>
<trkpt lat="46.06357" lon="6.90331"><ele></ele><time>2021-8-27T14:27:1Z</time></trkpt>
<trkpt lat="46.0637" lon="6.90357"><ele></ele><time>2021-8-27T14:27:4Z</time></trkpt>
<trkpt lat="46.06377" lon="6.90372"><ele></ele><time>2021-8-27T14:27:7Z</time></trkpt>
<trkpt lat="46.06389" lon="6.90395"><ele></ele><time>2021-8-27T14:27:10Z</time></trkpt>
<trkpt lat="46.06416" lon="6.90428"><ele></ele><time>2021-8-27T14:27:13Z</time></trkpt>
<trkpt lat="46.06425" lon="6.9044"><ele></ele><time>2021-8-27T14:27:16Z</time></trkpt>
<trkpt lat="46.06449" lon="6.90437"><ele></ele><time>2021-8-27T14:27:19Z</time></trkpt>
<trkpt lat="46.06468" lon="6.90445"><ele></ele><time>2021-8-27T14:27:22Z</time></trkpt>
<trkpt lat="46.06488" lon="6.90456"><ele></ele><time>2021-8-27T14:27:25Z</time></trkpt>
<trkpt lat="46.06507" lon="6.90461"><ele></ele><time>2021-8-27T14:27:28Z</time></trkpt>
<trkpt lat="46.06512" lon="6.90467"><ele></ele><time>2021-8-27T14:27:31Z</time></trkpt>
<trkpt lat="46.06517" lon="6.90483"><ele></ele><time>2021-8-27T14:27:34Z</time></trkpt>
<trkpt lat="46.06516" lon="6.90499"><ele></ele><time>2021-8-27T14:27:37Z</time></trkpt>
<trkpt lat="46.06514" lon="6.90509"><ele></ele><time>2021-8-27T14:27:40Z</time></trkpt>
<trkpt lat="46.06508" lon="6.90526"><ele></ele><time>2021-8-27T14:27:43Z</time></trkpt>
<trkpt lat="46.06512" lon="6.90551"><ele></ele><time>2021-8-27T14:27:46Z</time></trkpt>
<trkpt lat="46.06531" lon="6.90581"><ele></ele><time>2021-8-27T14:27:49Z</time></trkpt>
<trkpt lat="46.06534" lon="6.90598"><ele></ele><time>2021-8-27T14:27:52Z</time></trkpt>
<trkpt lat="46.0652" lon="6.90617"><ele></ele><time>2021-8-27T14:27:55Z</time></trkpt>
<trkpt lat="46.06515" lon="6.90618"><ele></ele><time>2021-8-27T14:27:58Z</time></trkpt>
<trkpt lat="46.06497" lon="6.90634"><ele></ele><time>2021-8-27T14:28:1Z</time></trkpt>
<trkpt lat="46.06493" lon="6.90646"><ele></ele><time>2021-8-27T14:28:4Z</time></trkpt>
<trkpt lat="46.06502" lon="6.90677"><ele></ele><time>2021-8-27T14:28:7Z</time></trkpt>
<trkpt lat="46.06508" lon="6.90706"><ele></ele><time>2021-8-27T14:28:10Z</time></trkpt>
<trkpt lat="46.06501" lon="6.90729"><ele></ele><time>2021-8-27T14:28:13Z</time></trkpt>
<trkpt lat="46.06514" lon="6.90751"><ele></ele><time>2021-8-27T14:28:16Z</time></trkpt>
<trkpt lat="46.06526" lon="6.90761"><ele></ele><time>2021-8-27T14:28:19Z</time></trkpt>
<trkpt lat="46.06541" lon="6.90786"><ele></ele><time>2021-8-27T14:28:22Z</time></trkpt>
<trkpt lat="46.06546" lon="6.90815"><ele></ele><time>2021-8-27T14:28:25Z</time></trkpt>
<trkpt lat="46.0655" lon="6.90844"><ele></ele><time>2021-8-27T14:28:28Z</time></trkpt>
<trkpt lat="46.06549" lon="6.90875"><ele></ele><time>2021-8-27T14:28:31Z</time></trkpt>
<trkpt lat="46.06548" lon="6.90885"><ele></ele><time>2021-8-27T14:28:34Z</time></trkpt>
<trkpt lat="46.06548" lon="6.90896"><ele></ele><time>2021-8-27T14:28:37Z</time></trkpt>
<trkpt lat="46.06554" lon="6.90927"><ele></ele><time>2021-8-27T14:28:40Z</time></trkpt>
<trkpt lat="46.06555" lon="6.90933"><ele></ele><time>2021-8-27T14:28:43Z</time></trkpt>
<trkpt lat="46.06559" lon="6.9096"><ele></ele><time>2021-8-27T14:28:46Z</time></trkpt>
<trkpt lat="46.0656" lon="6.90971"><ele></ele><time>2021-8-27T14:28:49Z</time></trkpt>
<trkpt lat="46.06573" lon="6.90997"><ele></ele><time>2021-8-27T14:28:52Z</time></trkpt>
<trkpt lat="46.0658" lon="6.91024"><ele></ele><time>2021-8-27T14:28:55Z</time></trkpt>
<trkpt lat="46.06587" lon="6.91051"><ele></ele><time>2021-8-27T14:28:58Z</time></trkpt>
<trkpt lat="46.06588" lon="6.91059"><ele></ele><time>2021-8-27T14:29:1Z</time></trkpt>
<trkpt lat="46.06589" lon="6.91066"><ele></ele><time>2021-8-27T14:29:4Z</time></trkpt>
<trkpt lat="46.06589" lon="6.91091"><ele></ele><time>2021-8-27T14:29:7Z</time></trkpt>
<trkpt lat="46.06598" lon="6.9111"><ele></ele><time>2021-8-27T14:29:10Z</time></trkpt>
<trkpt lat="46.06604" lon="6.91131"><ele></ele><time>2021-8-27T14:29:13Z</time></trkpt>
<trkpt lat="46.06606" lon="6.91138"><ele></ele><time>2021-8-27T14:29:16Z</time></trkpt>
<trkpt lat="46.06617" lon="6.91165"><ele></ele><time>2021-8-27T14:29:19Z</time></trkpt>
<trkpt lat="46.06628" lon="6.91193"><ele></ele><time>2021-8-27T14:29:22Z</time></trkpt>
<trkpt lat="46.06637" lon="6.91217"><ele></ele><time>2021-8-27T14:29:25Z</time></trkpt>
<trkpt lat="46.06644" lon="6.9124"><ele></ele><time>2021-8-27T14:29:28Z</time></trkpt>
<trkpt lat="46.06656" lon="6.91265"><ele></ele><time>2021-8-27T14:29:31Z</time></trkpt>
<trkpt lat="46.06669" lon="6.91291"><ele></ele><time>2021-8-27T14:29:34Z</time></trkpt>
<trkpt lat="46.06676" lon="6.91303"><ele></ele><time>2021-8-27T14:29:37Z</time></trkpt>
<trkpt lat="46.06687" lon="6.91317"><ele></ele><time>2021-8-27T14:29:40Z</time></trkpt>
<trkpt lat="46.06682" lon="6.91328"><ele></ele><time>2021-8-27T14:29:43Z</time></trkpt>
<trkpt lat="46.06679" lon="6.91327"><ele></ele><time>2021-8-27T14:29:46Z</time></trkpt>
<trkpt lat="46.06669" lon="6.91316"><ele></ele><time>2021-8-27T14:29:49Z</time></trkpt>
<trkpt lat="46.06656" lon="6.91298"><ele></ele><time>2021-8-27T14:29:52Z</time></trkpt>
<trkpt lat="46.06641" lon="6.91275"><ele></ele><time>2021-8-27T14:29:55Z</time></trkpt>
<trkpt lat="46.06632" lon="6.9126"><ele></ele><time>2021-8-27T14:29:58Z</time></trkpt>
<trkpt lat="46.06618" lon="6.9124"><ele></ele><time>2021-8-27T14:30:1Z</time></trkpt>
<trkpt lat="46.06601" lon="6.91219"><ele></ele><time>2021-8-27T14:30:4Z</time></trkpt>
<trkpt lat="46.06592" lon="6.91207"><ele></ele><time>2021-8-27T14:30:7Z</time></trkpt>
<trkpt lat="46.06579" lon="6.91186"><ele></ele><time>2021-8-27T14:30:10Z</time></trkpt>
<trkpt lat="46.06565" lon="6.91166"><ele></ele><time>2021-8-27T14:30:13Z</time></trkpt>
<trkpt lat="46.0655" lon="6.91148"><ele></ele><time>2021-8-27T14:30:16Z</time></trkpt>
<trkpt lat="46.06535" lon="6.9113"><ele></ele><time>2021-8-27T14:30:19Z</time></trkpt>
<trkpt lat="46.06522" lon="6.91108"><ele></ele><time>2021-8-27T14:30:22Z</time></trkpt>
<trkpt lat="46.0651" lon="6.91086"><ele></ele><time>2021-8-27T14:30:25Z</time></trkpt>
<trkpt lat="46.06498" lon="6.91062"><ele></ele><time>2021-8-27T14:30:28Z</time></trkpt>
<trkpt lat="46.06487" lon="6.91036"><ele></ele><time>2021-8-27T14:30:31Z</time></trkpt>
<trkpt lat="46.06476" lon="6.9101"><ele></ele><time>2021-8-27T14:30:34Z</time></trkpt>
<trkpt lat="46.06461" lon="6.90985"><ele></ele><time>2021-8-27T14:30:37Z</time></trkpt>
<trkpt lat="46.06441" lon="6.90968"><ele></ele><time>2021-8-27T14:30:40Z</time></trkpt>
<trkpt lat="46.06418" lon="6.90954"><ele></ele><time>2021-8-27T14:30:43Z</time></trkpt>
<trkpt lat="46.06411" lon="6.90949"><ele></ele><time>2021-8-27T14:30:46Z</time></trkpt>
<trkpt lat="46.0639" lon="6.90929"><ele></ele><time>2021-8-27T14:30:49Z</time></trkpt>
<trkpt lat="46.06365" lon="6.90933"><ele></ele><time>2021-8-27T14:30:52Z</time></trkpt>
<trkpt lat="46.06352" lon="6.90958"><ele></ele><time>2021-8-27T14:30:55Z</time></trkpt>
<trkpt lat="46.0635" lon="6.90966"><ele></ele><time>2021-8-27T14:30:58Z</time></trkpt>
<trkpt lat="46.06344" lon="6.90992"><ele></ele><time>2021-8-27T14:31:1Z</time></trkpt>
<trkpt lat="46.06344" lon="6.91"><ele></ele><time>2021-8-27T14:31:4Z</time></trkpt>
<trkpt lat="46.0635" lon="6.91031"><ele></ele><time>2021-8-27T14:31:7Z</time></trkpt>
<trkpt lat="46.06357" lon="6.91044"><ele></ele><time>2021-8-27T14:31:10Z</time></trkpt>
<trkpt lat="46.06369" lon="6.91066"><ele></ele><time>2021-8-27T14:31:13Z</time></trkpt>
<trkpt lat="46.06385" lon="6.91081"><ele></ele><time>2021-8-27T14:31:16Z</time></trkpt>
<trkpt lat="46.06399" lon="6.91097"><ele></ele><time>2021-8-27T14:31:19Z</time></trkpt>
<trkpt lat="46.06403" lon="6.91112"><ele></ele><time>2021-8-27T14:31:22Z</time></trkpt>
<trkpt lat="46.06409" lon="6.91137"><ele></ele><time>2021-8-27T14:31:25Z</time></trkpt>
<trkpt lat="46.06418" lon="6.9116"><ele></ele><time>2021-8-27T14:31:28Z</time></trkpt>
<trkpt lat="46.06424" lon="6.91183"><ele></ele><time>2021-8-27T14:31:31Z</time></trkpt>
<trkpt lat="46.06424" lon="6.91206"><ele></ele><time>2021-8-27T14:31:34Z</time></trkpt>
<trkpt lat="46.06424" lon="6.91213"><ele></ele><time>2021-8-27T14:31:37Z</time></trkpt>
<trkpt lat="46.0642" lon="6.9124"><ele></ele><time>2021-8-27T14:31:40Z</time></trkpt>
<trkpt lat="46.06419" lon="6.91246"><ele></ele><time>2021-8-27T14:31:43Z</time></trkpt>
<trkpt lat="46.06424" lon="6.91274"><ele></ele><time>2021-8-27T14:31:46Z</time></trkpt>
<trkpt lat="46.06438" lon="6.9129"><ele></ele><time>2021-8-27T14:31:49Z</time></trkpt>
<trkpt lat="46.06441" lon="6.91294"><ele></ele><time>2021-8-27T14:31:52Z</time></trkpt>
<trkpt lat="46.06444" lon="6.91297"><ele></ele><time>2021-8-27T14:31:55Z</time></trkpt>
<trkpt lat="46.06455" lon="6.9132"><ele></ele><time>2021-8-27T14:31:58Z</time></trkpt>
<trkpt lat="46.06458" lon="6.91324"><ele></ele><time>2021-8-27T14:32:1Z</time></trkpt>
<trkpt lat="46.06463" lon="6.91334"><ele></ele><time>2021-8-27T14:32:4Z</time></trkpt>
<trkpt lat="46.06478" lon="6.91358"><ele></ele><time>2021-8-27T14:32:7Z</time></trkpt>
<trkpt lat="46.06491" lon="6.91378"><ele></ele><time>2021-8-27T14:32:10Z</time></trkpt>
<trkpt lat="46.06499" lon="6.91387"><ele></ele><time>2021-8-27T14:32:13Z</time></trkpt>
<trkpt lat="46.06514" lon="6.91407"><ele></ele><time>2021-8-27T14:32:16Z</time></trkpt>
<trkpt lat="46.06522" lon="6.91418"><ele></ele><time>2021-8-27T14:32:19Z</time></trkpt>
<trkpt lat="46.06532" lon="6.91446"><ele></ele><time>2021-8-27T14:32:22Z</time></trkpt>
<trkpt lat="46.06533" lon="6.91453"><ele></ele><time>2021-8-27T14:32:25Z</time></trkpt>
<trkpt lat="46.06535" lon="6.91476"><ele></ele><time>2021-8-27T14:32:28Z</time></trkpt>
<trkpt lat="46.06536" lon="6.91508"><ele></ele><time>2021-8-27T14:32:31Z</time></trkpt>
<trkpt lat="46.06536" lon="6.91541"><ele></ele><time>2021-8-27T14:32:34Z</time></trkpt>
<trkpt lat="46.06535" lon="6.91573"><ele></ele><time>2021-8-27T14:32:37Z</time></trkpt>
<trkpt lat="46.06536" lon="6.91605"><ele></ele><time>2021-8-27T14:32:40Z</time></trkpt>
<trkpt lat="46.06538" lon="6.91635"><ele></ele><time>2021-8-27T14:32:43Z</time></trkpt>
<trkpt lat="46.06539" lon="6.91642"><ele></ele><time>2021-8-27T14:32:46Z</time></trkpt>
<trkpt lat="46.0654" lon="6.91655"><ele></ele><time>2021-8-27T14:32:49Z</time></trkpt>
<trkpt lat="46.06542" lon="6.91674"><ele></ele><time>2021-8-27T14:32:52Z</time></trkpt>
<trkpt lat="46.06542" lon="6.91679"><ele></ele><time>2021-8-27T14:32:55Z</time></trkpt>
<trkpt lat="46.06547" lon="6.91694"><ele></ele><time>2021-8-27T14:32:58Z</time></trkpt>
<trkpt lat="46.06561" lon="6.9172"><ele></ele><time>2021-8-27T14:33:1Z</time></trkpt>
<trkpt lat="46.06574" lon="6.91741"><ele></ele><time>2021-8-27T14:33:4Z</time></trkpt>
<trkpt lat="46.06585" lon="6.91765"><ele></ele><time>2021-8-27T14:33:7Z</time></trkpt>
<trkpt lat="46.06594" lon="6.91792"><ele></ele><time>2021-8-27T14:33:10Z</time></trkpt>
<trkpt lat="46.06605" lon="6.91817"><ele></ele><time>2021-8-27T14:33:13Z</time></trkpt>
<trkpt lat="46.06618" lon="6.91838"><ele></ele><time>2021-8-27T14:33:16Z</time></trkpt>
<trkpt lat="46.06627" lon="6.91853"><ele></ele><time>2021-8-27T14:33:19Z</time></trkpt>
<trkpt lat="46.06637" lon="6.91874"><ele></ele><time>2021-8-27T14:33:22Z</time></trkpt>
<trkpt lat="46.06647" lon="6.91902"><ele></ele><time>2021-8-27T14:33:25Z</time></trkpt>
<trkpt lat="46.06655" lon="6.91926"><ele></ele><time>2021-8-27T14:33:28Z</time></trkpt>
<trkpt lat="46.06664" lon="6.91949"><ele></ele><time>2021-8-27T14:33:31Z</time></trkpt>
<trkpt lat="46.06676" lon="6.91969"><ele></ele><time>2021-8-27T14:33:34Z</time></trkpt>
<trkpt lat="46.06682" lon="6.91979"><ele></ele><time>2021-8-27T14:33:37Z</time></trkpt>
<trkpt lat="46.06687" lon="6.9201"><ele></ele><time>2021-8-27T14:33:40Z</time></trkpt>
<trkpt lat="46.06689" lon="6.92042"><ele></ele><time>2021-8-27T14:33:43Z</time></trkpt>
<trkpt lat="46.06695" lon="6.92067"><ele></ele><time>2021-8-27T14:33:46Z</time></trkpt>
<trkpt lat="46.06701" lon="6.92096"><ele></ele><time>2021-8-27T14:33:49Z</time></trkpt>
<trkpt lat="46.06703" lon="6.92101"><ele></ele><time>2021-8-27T14:33:52Z</time></trkpt>
<trkpt lat="46.06705" lon="6.92111"><ele></ele><time>2021-8-27T14:33:55Z</time></trkpt>
<trkpt lat="46.06706" lon="6.92115"><ele></ele><time>2021-8-27T14:33:58Z</time></trkpt>
<trkpt lat="46.06708" lon="6.92119"><ele></ele><time>2021-8-27T14:34:1Z</time></trkpt>
<trkpt lat="46.06711" lon="6.92132"><ele></ele><time>2021-8-27T14:34:4Z</time></trkpt>
<trkpt lat="46.06712" lon="6.92137"><ele></ele><time>2021-8-27T14:34:7Z</time></trkpt>
<trkpt lat="46.06714" lon="6.92148"><ele></ele><time>2021-8-27T14:34:10Z</time></trkpt>
<trkpt lat="46.0671" lon="6.92177"><ele></ele><time>2021-8-27T14:34:13Z</time></trkpt>
<trkpt lat="46.06704" lon="6.92206"><ele></ele><time>2021-8-27T14:34:16Z</time></trkpt>
<trkpt lat="46.06697" lon="6.92234"><ele></ele><time>2021-8-27T14:34:19Z</time></trkpt>
<trkpt lat="46.06686" lon="6.92257"><ele></ele><time>2021-8-27T14:34:22Z</time></trkpt>
<trkpt lat="46.0667" lon="6.92271"><ele></ele><time>2021-8-27T14:34:25Z</time></trkpt>
<trkpt lat="46.0666" lon="6.92272"><ele></ele><time>2021-8-27T14:34:28Z</time></trkpt>
<trkpt lat="46.06657" lon="6.92271"><ele></ele><time>2021-8-27T14:34:31Z</time></trkpt>
<trkpt lat="46.06647" lon="6.92269"><ele></ele><time>2021-8-27T14:34:34Z</time></trkpt>
<trkpt lat="46.06628" lon="6.92267"><ele></ele><time>2021-8-27T14:34:37Z</time></trkpt>
<trkpt lat="46.06609" lon="6.92263"><ele></ele><time>2021-8-27T14:34:40Z</time></trkpt>
<trkpt lat="46.0659" lon="6.92252"><ele></ele><time>2021-8-27T14:34:43Z</time></trkpt>
<trkpt lat="46.06573" lon="6.92242"><ele></ele><time>2021-8-27T14:34:46Z</time></trkpt>
<trkpt lat="46.06567" lon="6.92239"><ele></ele><time>2021-8-27T14:34:49Z</time></trkpt>
<trkpt lat="46.06553" lon="6.92237"><ele></ele><time>2021-8-27T14:34:52Z</time></trkpt>
<trkpt lat="46.06549" lon="6.92241"><ele></ele><time>2021-8-27T14:34:55Z</time></trkpt>
<trkpt lat="46.06544" lon="6.92271"><ele></ele><time>2021-8-27T14:34:58Z</time></trkpt>
<trkpt lat="46.06535" lon="6.92297"><ele></ele><time>2021-8-27T14:35:1Z</time></trkpt>
<trkpt lat="46.06526" lon="6.92325"><ele></ele><time>2021-8-27T14:35:4Z</time></trkpt>
<trkpt lat="46.06524" lon="6.92352"><ele></ele><time>2021-8-27T14:35:7Z</time></trkpt>
<trkpt lat="46.06523" lon="6.92381"><ele></ele><time>2021-8-27T14:35:10Z</time></trkpt>
<trkpt lat="46.06527" lon="6.9241"><ele></ele><time>2021-8-27T14:35:13Z</time></trkpt>
<trkpt lat="46.06536" lon="6.92435"><ele></ele><time>2021-8-27T14:35:16Z</time></trkpt>
<trkpt lat="46.06545" lon="6.9246"><ele></ele><time>2021-8-27T14:35:19Z</time></trkpt>
<trkpt lat="46.06552" lon="6.92486"><ele></ele><time>2021-8-27T14:35:22Z</time></trkpt>
<trkpt lat="46.06555" lon="6.92506"><ele></ele><time>2021-8-27T14:35:25Z</time></trkpt>
<trkpt lat="46.06546" lon="6.92541"><ele></ele><time>2021-8-27T14:35:28Z</time></trkpt>
<trkpt lat="46.06541" lon="6.92554"><ele></ele><time>2021-8-27T14:35:31Z</time></trkpt>
<trkpt lat="46.06532" lon="6.92575"><ele></ele><time>2021-8-27T14:35:34Z</time></trkpt>
<trkpt lat="46.06527" lon="6.92588"><ele></ele><time>2021-8-27T14:35:37Z</time></trkpt>
<trkpt lat="46.06526" lon="6.92596"><ele></ele><time>2021-8-27T14:35:40Z</time></trkpt>
<trkpt lat="46.06525" lon="6.92599"><ele></ele><time>2021-8-27T14:35:43Z</time></trkpt>
<trkpt lat="46.06523" lon="6.92607"><ele></ele><time>2021-8-27T14:35:46Z</time></trkpt>
<trkpt lat="46.06517" lon="6.92629"><ele></ele><time>2021-8-27T14:35:49Z</time></trkpt>
<trkpt lat="46.06509" lon="6.92655"><ele></ele><time>2021-8-27T14:35:52Z</time></trkpt>
<trkpt lat="46.06502" lon="6.92678"><ele></ele><time>2021-8-27T14:35:55Z</time></trkpt>
<trkpt lat="46.06501" lon="6.92684"><ele></ele><time>2021-8-27T14:35:58Z</time></trkpt>
<trkpt lat="46.06493" lon="6.92709"><ele></ele><time>2021-8-27T14:36:1Z</time></trkpt>
<trkpt lat="46.06492" lon="6.92718"><ele></ele><time>2021-8-27T14:36:4Z</time></trkpt>
<trkpt lat="46.06494" lon="6.92748"><ele></ele><time>2021-8-27T14:36:7Z</time></trkpt>
<trkpt lat="46.06499" lon="6.92773"><ele></ele><time>2021-8-27T14:36:10Z</time></trkpt>
<trkpt lat="46.06513" lon="6.92794"><ele></ele><time>2021-8-27T14:36:13Z</time></trkpt>
<trkpt lat="46.06532" lon="6.9281"><ele></ele><time>2021-8-27T14:36:16Z</time></trkpt>
<trkpt lat="46.06542" lon="6.92833"><ele></ele><time>2021-8-27T14:36:19Z</time></trkpt>
<trkpt lat="46.06545" lon="6.92857"><ele></ele><time>2021-8-27T14:36:22Z</time></trkpt>
<trkpt lat="46.06547" lon="6.92879"><ele></ele><time>2021-8-27T14:36:25Z</time></trkpt>
<trkpt lat="46.06547" lon="6.92894"><ele></ele><time>2021-8-27T14:36:28Z</time></trkpt>
<trkpt lat="46.06545" lon="6.92916"><ele></ele><time>2021-8-27T14:36:31Z</time></trkpt>
<trkpt lat="46.06559" lon="6.92944"><ele></ele><time>2021-8-27T14:36:34Z</time></trkpt>
<trkpt lat="46.06567" lon="6.92953"><ele></ele><time>2021-8-27T14:36:37Z</time></trkpt>
<trkpt lat="46.06583" lon="6.92969"><ele></ele><time>2021-8-27T14:36:40Z</time></trkpt>
<trkpt lat="46.06596" lon="6.92988"><ele></ele><time>2021-8-27T14:36:43Z</time></trkpt>
<trkpt lat="46.06602" lon="6.92998"><ele></ele><time>2021-8-27T14:36:46Z</time></trkpt>
<trkpt lat="46.0661" lon="6.93019"><ele></ele><time>2021-8-27T14:36:49Z</time></trkpt>
<trkpt lat="46.06613" lon="6.93042"><ele></ele><time>2021-8-27T14:36:52Z</time></trkpt>
<trkpt lat="46.06623" lon="6.93062"><ele></ele><time>2021-8-27T14:36:55Z</time></trkpt>
<trkpt lat="46.0665" lon="6.93077"><ele></ele><time>2021-8-27T14:36:58Z</time></trkpt>
<trkpt lat="46.06656" lon="6.93086"><ele></ele><time>2021-8-27T14:37:1Z</time></trkpt>
<trkpt lat="46.06657" lon="6.93089"><ele></ele><time>2021-8-27T14:37:4Z</time></trkpt>
<trkpt lat="46.06672" lon="6.93097"><ele></ele><time>2021-8-27T14:37:7Z</time></trkpt>
<trkpt lat="46.06675" lon="6.931"><ele></ele><time>2021-8-27T14:37:10Z</time></trkpt>
<trkpt lat="46.06677" lon="6.93101"><ele></ele><time>2021-8-27T14:37:13Z</time></trkpt>
<trkpt lat="46.06687" lon="6.93104"><ele></ele><time>2021-8-27T14:37:16Z</time></trkpt>
<trkpt lat="46.06703" lon="6.93123"><ele></ele><time>2021-8-27T14:37:19Z</time></trkpt>
<trkpt lat="46.06719" lon="6.93144"><ele></ele><time>2021-8-27T14:37:22Z</time></trkpt>
<trkpt lat="46.06733" lon="6.93162"><ele></ele><time>2021-8-27T14:37:25Z</time></trkpt>
<trkpt lat="46.06745" lon="6.93182"><ele></ele><time>2021-8-27T14:37:28Z</time></trkpt>
<trkpt lat="46.0675" lon="6.93198"><ele></ele><time>2021-8-27T14:37:31Z</time></trkpt>
<trkpt lat="46.06763" lon="6.93227"><ele></ele><time>2021-8-27T14:37:34Z</time></trkpt>
<trkpt lat="46.06771" lon="6.93253"><ele></ele><time>2021-8-27T14:37:37Z</time></trkpt>
<trkpt lat="46.06778" lon="6.93282"><ele></ele><time>2021-8-27T14:37:40Z</time></trkpt>
<trkpt lat="46.06783" lon="6.9331"><ele></ele><time>2021-8-27T14:37:43Z</time></trkpt>
<trkpt lat="46.06787" lon="6.93338"><ele></ele><time>2021-8-27T14:37:46Z</time></trkpt>
<trkpt lat="46.06787" lon="6.9337"><ele></ele><time>2021-8-27T14:37:49Z</time></trkpt>
<trkpt lat="46.06784" lon="6.93395"><ele></ele><time>2021-8-27T14:37:52Z</time></trkpt>
<trkpt lat="46.06781" lon="6.93421"><ele></ele><time>2021-8-27T14:37:55Z</time></trkpt>
<trkpt lat="46.06778" lon="6.9345"><ele></ele><time>2021-8-27T14:37:58Z</time></trkpt>
<trkpt lat="46.06773" lon="6.93474"><ele></ele><time>2021-8-27T14:38:1Z</time></trkpt>
<trkpt lat="46.06765" lon="6.93483"><ele></ele><time>2021-8-27T14:38:4Z</time></trkpt>
<trkpt lat="46.06762" lon="6.93484"><ele></ele><time>2021-8-27T14:38:7Z</time></trkpt>
<trkpt lat="46.06753" lon="6.93489"><ele></ele><time>2021-8-27T14:38:10Z</time></trkpt>
<trkpt lat="46.06749" lon="6.93516"><ele></ele><time>2021-8-27T14:38:13Z</time></trkpt>
<trkpt lat="46.06749" lon="6.93542"><ele></ele><time>2021-8-27T14:38:16Z</time></trkpt>
<trkpt lat="46.06741" lon="6.9356"><ele></ele><time>2021-8-27T14:38:19Z</time></trkpt>
<trkpt lat="46.06737" lon="6.93586"><ele></ele><time>2021-8-27T14:38:22Z</time></trkpt>
<trkpt lat="46.0674" lon="6.93602"><ele></ele><time>2021-8-27T14:38:25Z</time></trkpt>
<trkpt lat="46.06741" lon="6.93606"><ele></ele><time>2021-8-27T14:38:28Z</time></trkpt>
<trkpt lat="46.06748" lon="6.93628"><ele></ele><time>2021-8-27T14:38:31Z</time></trkpt>
<trkpt lat="46.0675" lon="6.9364"><ele></ele><time>2021-8-27T14:38:34Z</time></trkpt>
<trkpt lat="46.06747" lon="6.93664"><ele></ele><time>2021-8-27T14:38:37Z</time></trkpt>
<trkpt lat="46.06744" lon="6.93676"><ele></ele><time>2021-8-27T14:38:40Z</time></trkpt>
<trkpt lat="46.06741" lon="6.93687"><ele></ele><time>2021-8-27T14:38:43Z</time></trkpt>
<trkpt lat="46.06733" lon="6.93712"><ele></ele><time>2021-8-27T14:38:46Z</time></trkpt>
<trkpt lat="46.06726" lon="6.93733"><ele></ele><time>2021-8-27T14:38:49Z</time></trkpt>
<trkpt lat="46.06721" lon="6.93742"><ele></ele><time>2021-8-27T14:38:52Z</time></trkpt>
<trkpt lat="46.06715" lon="6.93749"><ele></ele><time>2021-8-27T14:38:55Z</time></trkpt>
<trkpt lat="46.06717" lon="6.93766"><ele></ele><time>2021-8-27T14:38:58Z</time></trkpt>
<trkpt lat="46.06722" lon="6.93765"><ele></ele><time>2021-8-27T14:39:1Z</time></trkpt>
<trkpt lat="46.06728" lon="6.93757"><ele></ele><time>2021-8-27T14:39:4Z</time></trkpt>
<trkpt lat="46.06742" lon="6.93739"><ele></ele><time>2021-8-27T14:39:7Z</time></trkpt>
<trkpt lat="46.06747" lon="6.93735"><ele></ele><time>2021-8-27T14:39:10Z</time></trkpt>
<trkpt lat="46.06759" lon="6.93716"><ele></ele><time>2021-8-27T14:39:13Z</time></trkpt>
<trkpt lat="46.06769" lon="6.93695"><ele></ele><time>2021-8-27T14:39:16Z</time></trkpt>
<trkpt lat="46.06781" lon="6.93675"><ele></ele><time>2021-8-27T14:39:19Z</time></trkpt>
<trkpt lat="46.06787" lon="6.93669"><ele></ele><time>2021-8-27T14:39:22Z</time></trkpt>
<trkpt lat="46.06794" lon="6.93662"><ele></ele><time>2021-8-27T14:39:25Z</time></trkpt>
<trkpt lat="46.06802" lon="6.93655"><ele></ele><time>2021-8-27T14:39:28Z</time></trkpt>
<trkpt lat="46.06811" lon="6.93659"><ele></ele><time>2021-8-27T14:39:31Z</time></trkpt>
<trkpt lat="46.06827" lon="6.93678"><ele></ele><time>2021-8-27T14:39:34Z</time></trkpt>
<trkpt lat="46.06836" lon="6.93691"><ele></ele><time>2021-8-27T14:39:37Z</time></trkpt>
<trkpt lat="46.06851" lon="6.93715"><ele></ele><time>2021-8-27T14:39:40Z</time></trkpt>
<trkpt lat="46.0686" lon="6.9373"><ele></ele><time>2021-8-27T14:39:43Z</time></trkpt>
<trkpt lat="46.06868" lon="6.93743"><ele></ele><time>2021-8-27T14:39:46Z</time></trkpt>
<trkpt lat="46.0688" lon="6.93761"><ele></ele><time>2021-8-27T14:39:49Z</time></trkpt>
<trkpt lat="46.06896" lon="6.93786"><ele></ele><time>2021-8-27T14:39:52Z</time></trkpt>
<trkpt lat="46.06899" lon="6.93794"><ele></ele><time>2021-8-27T14:39:55Z</time></trkpt>
<trkpt lat="46.06908" lon="6.93819"><ele></ele><time>2021-8-27T14:39:58Z</time></trkpt>
<trkpt lat="46.06913" lon="6.93839"><ele></ele><time>2021-8-27T14:40:1Z</time></trkpt>
<trkpt lat="46.06917" lon="6.93873"><ele></ele><time>2021-8-27T14:40:4Z</time></trkpt>
<trkpt lat="46.0692" lon="6.93897"><ele></ele><time>2021-8-27T14:40:7Z</time></trkpt>
<trkpt lat="46.06929" lon="6.93932"><ele></ele><time>2021-8-27T14:40:10Z</time></trkpt>
<trkpt lat="46.06935" lon="6.9396"><ele></ele><time>2021-8-27T14:40:13Z</time></trkpt>
<trkpt lat="46.06941" lon="6.93988"><ele></ele><time>2021-8-27T14:40:16Z</time></trkpt>
<trkpt lat="46.06948" lon="6.94015"><ele></ele><time>2021-8-27T14:40:19Z</time></trkpt>
<trkpt lat="46.06955" lon="6.9404"><ele></ele><time>2021-8-27T14:40:22Z</time></trkpt>
<trkpt lat="46.06964" lon="6.94072"><ele></ele><time>2021-8-27T14:40:25Z</time></trkpt>
<trkpt lat="46.06971" lon="6.94096"><ele></ele><time>2021-8-27T14:40:28Z</time></trkpt>
<trkpt lat="46.06972" lon="6.941"><ele></ele><time>2021-8-27T14:40:31Z</time></trkpt>
<trkpt lat="46.06959" lon="6.94116"><ele></ele><time>2021-8-27T14:40:34Z</time></trkpt>
<trkpt lat="46.0695" lon="6.94119"><ele></ele><time>2021-8-27T14:40:37Z</time></trkpt>
<trkpt lat="46.06935" lon="6.94134"><ele></ele><time>2021-8-27T14:40:40Z</time></trkpt>
<trkpt lat="46.06928" lon="6.94154"><ele></ele><time>2021-8-27T14:40:43Z</time></trkpt>
<trkpt lat="46.06927" lon="6.94182"><ele></ele><time>2021-8-27T14:40:46Z</time></trkpt>
<trkpt lat="46.06929" lon="6.94213"><ele></ele><time>2021-8-27T14:40:49Z</time></trkpt>
<trkpt lat="46.0693" lon="6.94225"><ele></ele><time>2021-8-27T14:40:52Z</time></trkpt>
<trkpt lat="46.06932" lon="6.94244"><ele></ele><time>2021-8-27T14:40:55Z</time></trkpt>
<trkpt lat="46.06931" lon="6.94261"><ele></ele><time>2021-8-27T14:40:58Z</time></trkpt>
<trkpt lat="46.06929" lon="6.94292"><ele></ele><time>2021-8-27T14:41:1Z</time></trkpt>
<trkpt lat="46.06933" lon="6.94303"><ele></ele><time>2021-8-27T14:41:4Z</time></trkpt>
<trkpt lat="46.06933" lon="6.94328"><ele></ele><time>2021-8-27T14:41:7Z</time></trkpt>
<trkpt lat="46.06931" lon="6.94333"><ele></ele><time>2021-8-27T14:41:10Z</time></trkpt>
<trkpt lat="46.06916" lon="6.94351"><ele></ele><time>2021-8-27T14:41:13Z</time></trkpt>
<trkpt lat="46.06907" lon="6.94362"><ele></ele><time>2021-8-27T14:41:16Z</time></trkpt>
<trkpt lat="46.06893" lon="6.94381"><ele></ele><time>2021-8-27T14:41:19Z</time></trkpt>
<trkpt lat="46.06874" lon="6.94378"><ele></ele><time>2021-8-27T14:41:22Z</time></trkpt>
<trkpt lat="46.06866" lon="6.9438"><ele></ele><time>2021-8-27T14:41:25Z</time></trkpt>
<trkpt lat="46.0688" lon="6.94395"><ele></ele><time>2021-8-27T14:41:28Z</time></trkpt>
<trkpt lat="46.06886" lon="6.94404"><ele></ele><time>2021-8-27T14:41:31Z</time></trkpt>
<trkpt lat="46.06882" lon="6.94412"><ele></ele><time>2021-8-27T14:41:34Z</time></trkpt>
<trkpt lat="46.06865" lon="6.9441"><ele></ele><time>2021-8-27T14:41:37Z</time></trkpt>
<trkpt lat="46.0684" lon="6.94407"><ele></ele><time>2021-8-27T14:41:40Z</time></trkpt>
<trkpt lat="46.06822" lon="6.94414"><ele></ele><time>2021-8-27T14:41:43Z</time></trkpt>
<trkpt lat="46.06805" lon="6.94425"><ele></ele><time>2021-8-27T14:41:46Z</time></trkpt>
<trkpt lat="46.0679" lon="6.9442"><ele></ele><time>2021-8-27T14:41:49Z</time></trkpt>
<trkpt lat="46.06772" lon="6.94429"><ele></ele><time>2021-8-27T14:41:52Z</time></trkpt>
<trkpt lat="46.06757" lon="6.94448"><ele></ele><time>2021-8-27T14:41:55Z</time></trkpt>
<trkpt lat="46.06744" lon="6.94466"><ele></ele><time>2021-8-27T14:41:58Z</time></trkpt>
<trkpt lat="46.06734" lon="6.94477"><ele></ele><time>2021-8-27T14:42:1Z</time></trkpt>
<trkpt lat="46.06717" lon="6.94489"><ele></ele><time>2021-8-27T14:42:4Z</time></trkpt>
<trkpt lat="46.06704" lon="6.94501"><ele></ele><time>2021-8-27T14:42:7Z</time></trkpt>
<trkpt lat="46.06694" lon="6.94505"><ele></ele><time>2021-8-27T14:42:10Z</time></trkpt>
<trkpt lat="46.06692" lon="6.94505"><ele></ele><time>2021-8-27T14:42:13Z</time></trkpt>
<trkpt lat="46.06692" lon="6.94504"><ele></ele><time>2021-8-27T14:42:16Z</time></trkpt>
<trkpt lat="46.06691" lon="6.94505"><ele></ele><time>2021-8-27T14:42:19Z</time></trkpt>
<trkpt lat="46.06691" lon="6.94505"><ele></ele><time>2021-8-27T14:42:22Z</time></trkpt>
<trkpt lat="46.06693" lon="6.94507"><ele></ele><time>2021-8-27T14:42:25Z</time></trkpt>
<trkpt lat="46.06702" lon="6.94529"><ele></ele><time>2021-8-27T14:42:28Z</time></trkpt>
<trkpt lat="46.06712" lon="6.94539"><ele></ele><time>2021-8-27T14:42:31Z</time></trkpt>
<trkpt lat="46.06714" lon="6.94541"><ele></ele><time>2021-8-27T14:42:34Z</time></trkpt>
<trkpt lat="46.06718" lon="6.94546"><ele></ele><time>2021-8-27T14:42:37Z</time></trkpt>
<trkpt lat="46.06712" lon="6.94554"><ele></ele><time>2021-8-27T14:42:40Z</time></trkpt>
<trkpt lat="46.06696" lon="6.94565"><ele></ele><time>2021-8-27T14:42:43Z</time></trkpt>
<trkpt lat="46.06686" lon="6.94558"><ele></ele><time>2021-8-27T14:42:46Z</time></trkpt>
<trkpt lat="46.06677" lon="6.94553"><ele></ele><time>2021-8-27T14:42:49Z</time></trkpt>
<trkpt lat="46.06668" lon="6.9455"><ele></ele><time>2021-8-27T14:42:52Z</time></trkpt>
<trkpt lat="46.06658" lon="6.94554"><ele></ele><time>2021-8-27T14:42:55Z</time></trkpt>
<trkpt lat="46.06654" lon="6.94553"><ele></ele><time>2021-8-27T14:42:58Z</time></trkpt>
<trkpt lat="46.06645" lon="6.9456"><ele></ele><time>2021-8-27T14:43:1Z</time></trkpt>
<trkpt lat="46.06648" lon="6.94568"><ele></ele><time>2021-8-27T14:43:4Z</time></trkpt>
<trkpt lat="46.06651" lon="6.9457"><ele></ele><time>2021-8-27T14:43:7Z</time></trkpt>
<trkpt lat="46.06657" lon="6.94573"><ele></ele><time>2021-8-27T14:43:10Z</time></trkpt>
<trkpt lat="46.06662" lon="6.94575"><ele></ele><time>2021-8-27T14:43:13Z</time></trkpt>
<trkpt lat="46.06668" lon="6.94581"><ele></ele><time>2021-8-27T14:43:16Z</time></trkpt>
<trkpt lat="46.06667" lon="6.9458"><ele></ele><time>2021-8-27T14:43:19Z</time></trkpt>
<trkpt lat="46.06656" lon="6.94586"><ele></ele><time>2021-8-27T14:43:22Z</time></trkpt>
<trkpt lat="46.06647" lon="6.94599"><ele></ele><time>2021-8-27T14:43:25Z</time></trkpt>
<trkpt lat="46.06647" lon="6.94598"><ele></ele><time>2021-8-27T14:43:28Z</time></trkpt>
<trkpt lat="46.06648" lon="6.94598"><ele></ele><time>2021-8-27T14:43:31Z</time></trkpt>
<trkpt lat="46.0665" lon="6.94598"><ele></ele><time>2021-8-27T14:43:34Z</time></trkpt>
<trkpt lat="46.06649" lon="6.94599"><ele></ele><time>2021-8-27T14:43:37Z</time></trkpt>
<trkpt lat="46.06648" lon="6.94597"><ele></ele><time>2021-8-27T14:43:40Z</time></trkpt>
<trkpt lat="46.06648" lon="6.94598"><ele></ele><time>2021-8-27T14:43:43Z</time></trkpt>
<trkpt lat="46.06649" lon="6.94599"><ele></ele><time>2021-8-27T14:43:46Z</time></trkpt>
<trkpt lat="46.06651" lon="6.94598"><ele></ele><time>2021-8-27T14:43:49Z</time></trkpt>
<trkpt lat="46.06651" lon="6.94598"><ele></ele><time>2021-8-27T14:43:52Z</time></trkpt>
<trkpt lat="46.06648" lon="6.94603"><ele></ele><time>2021-8-27T14:43:55Z</time></trkpt>
<trkpt lat="46.06647" lon="6.94604"><ele></ele><time>2021-8-27T14:43:58Z</time></trkpt>
<trkpt lat="46.06647" lon="6.94604"><ele></ele><time>2021-8-27T14:44:1Z</time></trkpt>
<trkpt lat="46.06647" lon="6.94602"><ele></ele><time>2021-8-27T14:44:4Z</time></trkpt>
<trkpt lat="46.06648" lon="6.94601"><ele></ele><time>2021-8-27T14:44:7Z</time></trkpt>
<trkpt lat="46.06649" lon="6.946"><ele></ele><time>2021-8-27T14:44:10Z</time></trkpt>
<trkpt lat="46.0665" lon="6.94601"><ele></ele><time>2021-8-27T14:44:13Z</time></trkpt>
<trkpt lat="46.06658" lon="6.94604"><ele></ele><time>2021-8-27T14:44:16Z</time></trkpt>
<trkpt lat="46.06655" lon="6.94606"><ele></ele><time>2021-8-27T14:44:19Z</time></trkpt>
<trkpt lat="46.06652" lon="6.94609"><ele></ele><time>2021-8-27T14:44:22Z</time></trkpt>
<trkpt lat="46.06637" lon="6.94624"><ele></ele><time>2021-8-27T14:44:25Z</time></trkpt>
<trkpt lat="46.06643" lon="6.94627"><ele></ele><time>2021-8-27T14:44:28Z</time></trkpt>
<trkpt lat="46.06647" lon="6.94627"><ele></ele><time>2021-8-27T14:44:31Z</time></trkpt>
<trkpt lat="46.0665" lon="6.94626"><ele></ele><time>2021-8-27T14:44:34Z</time></trkpt>
<trkpt lat="46.06669" lon="6.94625"><ele></ele><time>2021-8-27T14:44:37Z</time></trkpt>
<trkpt lat="46.06675" lon="6.94629"><ele></ele><time>2021-8-27T14:44:40Z</time></trkpt>
<trkpt lat="46.06679" lon="6.94636"><ele></ele><time>2021-8-27T14:44:43Z</time></trkpt>
<trkpt lat="46.06694" lon="6.94644"><ele></ele><time>2021-8-27T14:44:46Z</time></trkpt>
<trkpt lat="46.06699" lon="6.94646"><ele></ele><time>2021-8-27T14:44:49Z</time></trkpt>
<trkpt lat="46.06701" lon="6.94646"><ele></ele><time>2021-8-27T14:44:52Z</time></trkpt>
<trkpt lat="46.06717" lon="6.94643"><ele></ele><time>2021-8-27T14:44:55Z</time></trkpt>
<trkpt lat="46.06735" lon="6.94633"><ele></ele><time>2021-8-27T14:44:58Z</time></trkpt>
<trkpt lat="46.06742" lon="6.94629"><ele></ele><time>2021-8-27T14:45:1Z</time></trkpt>
<trkpt lat="46.06745" lon="6.94628"><ele></ele><time>2021-8-27T14:45:4Z</time></trkpt>
<trkpt lat="46.06755" lon="6.94617"><ele></ele><time>2021-8-27T14:45:7Z</time></trkpt>
<trkpt lat="46.0677" lon="6.94593"><ele></ele><time>2021-8-27T14:45:10Z</time></trkpt>
<trkpt lat="46.06777" lon="6.94581"><ele></ele><time>2021-8-27T14:45:13Z</time></trkpt>
<trkpt lat="46.06793" lon="6.94594"><ele></ele><time>2021-8-27T14:45:16Z</time></trkpt>
<trkpt lat="46.06795" lon="6.94598"><ele></ele><time>2021-8-27T14:45:19Z</time></trkpt>
<trkpt lat="46.0681" lon="6.94612"><ele></ele><time>2021-8-27T14:45:22Z</time></trkpt>
<trkpt lat="46.06818" lon="6.94618"><ele></ele><time>2021-8-27T14:45:25Z</time></trkpt>
<trkpt lat="46.06819" lon="6.94628"><ele></ele><time>2021-8-27T14:45:28Z</time></trkpt>
<trkpt lat="46.06806" lon="6.94635"><ele></ele><time>2021-8-27T14:45:31Z</time></trkpt>
<trkpt lat="46.06802" lon="6.94635"><ele></ele><time>2021-8-27T14:45:34Z</time></trkpt>
<trkpt lat="46.06798" lon="6.94635"><ele></ele><time>2021-8-27T14:45:37Z</time></trkpt>
<trkpt lat="46.0678" lon="6.94633"><ele></ele><time>2021-8-27T14:45:40Z</time></trkpt>
<trkpt lat="46.06773" lon="6.94636"><ele></ele><time>2021-8-27T14:45:43Z</time></trkpt>
<trkpt lat="46.06763" lon="6.94655"><ele></ele><time>2021-8-27T14:45:46Z</time></trkpt>
<trkpt lat="46.06769" lon="6.94657"><ele></ele><time>2021-8-27T14:45:49Z</time></trkpt>
<trkpt lat="46.06786" lon="6.94665"><ele></ele><time>2021-8-27T14:45:52Z</time></trkpt>
<trkpt lat="46.06788" lon="6.94673"><ele></ele><time>2021-8-27T14:45:55Z</time></trkpt>
<trkpt lat="46.06802" lon="6.94692"><ele></ele><time>2021-8-27T14:45:58Z</time></trkpt>
<trkpt lat="46.06806" lon="6.94706"><ele></ele><time>2021-8-27T14:46:1Z</time></trkpt>
<trkpt lat="46.06821" lon="6.94722"><ele></ele><time>2021-8-27T14:46:4Z</time></trkpt>
<trkpt lat="46.06823" lon="6.94731"><ele></ele><time>2021-8-27T14:46:7Z</time></trkpt>
<trkpt lat="46.06811" lon="6.94732"><ele></ele><time>2021-8-27T14:46:10Z</time></trkpt>
<trkpt lat="46.06804" lon="6.94731"><ele></ele><time>2021-8-27T14:46:13Z</time></trkpt>
<trkpt lat="46.06783" lon="6.94727"><ele></ele><time>2021-8-27T14:46:16Z</time></trkpt>
<trkpt lat="46.06763" lon="6.94749"><ele></ele><time>2021-8-27T14:46:19Z</time></trkpt>
<trkpt lat="46.06763" lon="6.94756"><ele></ele><time>2021-8-27T14:46:22Z</time></trkpt>
<trkpt lat="46.06763" lon="6.94757"><ele></ele><time>2021-8-27T14:46:25Z</time></trkpt>
<trkpt lat="46.06764" lon="6.94762"><ele></ele><time>2021-8-27T14:46:28Z</time></trkpt>
<trkpt lat="46.06767" lon="6.94756"><ele></ele><time>2021-8-27T14:46:31Z</time></trkpt>
<trkpt lat="46.06787" lon="6.94753"><ele></ele><time>2021-8-27T14:46:34Z</time></trkpt>
<trkpt lat="46.06794" lon="6.94759"><ele></ele><time>2021-8-27T14:46:37Z</time></trkpt>
<trkpt lat="46.06806" lon="6.94767"><ele></ele><time>2021-8-27T14:46:40Z</time></trkpt>
<trkpt lat="46.06827" lon="6.94767"><ele></ele><time>2021-8-27T14:46:43Z</time></trkpt>
<trkpt lat="46.06834" lon="6.94766"><ele></ele><time>2021-8-27T14:46:46Z</time></trkpt>
<trkpt lat="46.0684" lon="6.94764"><ele></ele><time>2021-8-27T14:46:49Z</time></trkpt>
<trkpt lat="46.06853" lon="6.94757"><ele></ele><time>2021-8-27T14:46:52Z</time></trkpt>
<trkpt lat="46.06874" lon="6.94758"><ele></ele><time>2021-8-27T14:46:55Z</time></trkpt>
<trkpt lat="46.06896" lon="6.94771"><ele></ele><time>2021-8-27T14:46:58Z</time></trkpt>
<trkpt lat="46.06902" lon="6.94777"><ele></ele><time>2021-8-27T14:47:1Z</time></trkpt>
<trkpt lat="46.06911" lon="6.94792"><ele></ele><time>2021-8-27T14:47:4Z</time></trkpt>
<trkpt lat="46.06919" lon="6.94807"><ele></ele><time>2021-8-27T14:47:7Z</time></trkpt>
<trkpt lat="46.0693" lon="6.94827"><ele></ele><time>2021-8-27T14:47:10Z</time></trkpt>
<trkpt lat="46.0694" lon="6.94836"><ele></ele><time>2021-8-27T14:47:13Z</time></trkpt>
<trkpt lat="46.06945" lon="6.94839"><ele></ele><time>2021-8-27T14:47:16Z</time></trkpt>
<trkpt lat="46.06956" lon="6.94844"><ele></ele><time>2021-8-27T14:47:19Z</time></trkpt>
<trkpt lat="46.06973" lon="6.94837"><ele></ele><time>2021-8-27T14:47:22Z</time></trkpt>
<trkpt lat="46.06987" lon="6.94816"><ele></ele><time>2021-8-27T14:47:25Z</time></trkpt>
<trkpt lat="46.06997" lon="6.94794"><ele></ele><time>2021-8-27T14:47:28Z</time></trkpt>
<trkpt lat="46.07004" lon="6.94781"><ele></ele><time>2021-8-27T14:47:31Z</time></trkpt>
<trkpt lat="46.07022" lon="6.94784"><ele></ele><time>2021-8-27T14:47:34Z</time></trkpt>
<trkpt lat="46.07032" lon="6.94804"><ele></ele><time>2021-8-27T14:47:37Z</time></trkpt>
<trkpt lat="46.07042" lon="6.94827"><ele></ele><time>2021-8-27T14:47:40Z</time></trkpt>
<trkpt lat="46.07044" lon="6.94834"><ele></ele><time>2021-8-27T14:47:43Z</time></trkpt>
<trkpt lat="46.07052" lon="6.94861"><ele></ele><time>2021-8-27T14:47:46Z</time></trkpt>
<trkpt lat="46.07062" lon="6.94889"><ele></ele><time>2021-8-27T14:47:49Z</time></trkpt>
<trkpt lat="46.07065" lon="6.94913"><ele></ele><time>2021-8-27T14:47:52Z</time></trkpt>
<trkpt lat="46.07066" lon="6.94941"><ele></ele><time>2021-8-27T14:47:55Z</time></trkpt>
<trkpt lat="46.07065" lon="6.94949"><ele></ele><time>2021-8-27T14:47:58Z</time></trkpt>
<trkpt lat="46.07071" lon="6.94982"><ele></ele><time>2021-8-27T14:48:1Z</time></trkpt>
<trkpt lat="46.07085" lon="6.95006"><ele></ele><time>2021-8-27T14:48:4Z</time></trkpt>
<trkpt lat="46.07089" lon="6.95012"><ele></ele><time>2021-8-27T14:48:7Z</time></trkpt>
<trkpt lat="46.07087" lon="6.95038"><ele></ele><time>2021-8-27T14:48:10Z</time></trkpt>
<trkpt lat="46.07085" lon="6.95042"><ele></ele><time>2021-8-27T14:48:13Z</time></trkpt>
<trkpt lat="46.07084" lon="6.95046"><ele></ele><time>2021-8-27T14:48:16Z</time></trkpt>
<trkpt lat="46.07082" lon="6.9505"><ele></ele><time>2021-8-27T14:48:19Z</time></trkpt>
<trkpt lat="46.07084" lon="6.9505"><ele></ele><time>2021-8-27T14:48:22Z</time></trkpt>
<trkpt lat="46.07085" lon="6.9505"><ele></ele><time>2021-8-27T14:48:25Z</time></trkpt>
<trkpt lat="46.07085" lon="6.9505"><ele></ele><time>2021-8-27T14:48:28Z</time></trkpt>
<trkpt lat="46.07085" lon="6.95051"><ele></ele><time>2021-8-27T14:48:31Z</time></trkpt>
<trkpt lat="46.07085" lon="6.95051"><ele></ele><time>2021-8-27T14:48:34Z</time></trkpt>
<trkpt lat="46.07096" lon="6.95072"><ele></ele><time>2021-8-27T14:48:37Z</time></trkpt>
<trkpt lat="46.07109" lon="6.95099"><ele></ele><time>2021-8-27T14:48:40Z</time></trkpt>
<trkpt lat="46.07113" lon="6.95106"><ele></ele><time>2021-8-27T14:48:43Z</time></trkpt>
<trkpt lat="46.07129" lon="6.95131"><ele></ele><time>2021-8-27T14:48:46Z</time></trkpt>
<trkpt lat="46.07148" lon="6.95158"><ele></ele><time>2021-8-27T14:48:49Z</time></trkpt>
<trkpt lat="46.07161" lon="6.95177"><ele></ele><time>2021-8-27T14:48:52Z</time></trkpt>
<trkpt lat="46.07174" lon="6.95196"><ele></ele><time>2021-8-27T14:48:55Z</time></trkpt>
<trkpt lat="46.07187" lon="6.95215"><ele></ele><time>2021-8-27T14:48:58Z</time></trkpt>
<trkpt lat="46.07203" lon="6.95235"><ele></ele><time>2021-8-27T14:49:1Z</time></trkpt>
<trkpt lat="46.0721" lon="6.95246"><ele></ele><time>2021-8-27T14:49:4Z</time></trkpt>
<trkpt lat="46.07221" lon="6.95268"><ele></ele><time>2021-8-27T14:49:7Z</time></trkpt>
<trkpt lat="46.07236" lon="6.95287"><ele></ele><time>2021-8-27T14:49:10Z</time></trkpt>
<trkpt lat="46.07254" lon="6.95301"><ele></ele><time>2021-8-27T14:49:13Z</time></trkpt>
<trkpt lat="46.07274" lon="6.9531"><ele></ele><time>2021-8-27T14:49:16Z</time></trkpt>
<trkpt lat="46.07284" lon="6.95314"><ele></ele><time>2021-8-27T14:49:19Z</time></trkpt>
<trkpt lat="46.07305" lon="6.95321"><ele></ele><time>2021-8-27T14:49:22Z</time></trkpt>
<trkpt lat="46.07325" lon="6.95337"><ele></ele><time>2021-8-27T14:49:25Z</time></trkpt>
<trkpt lat="46.0734" lon="6.95363"><ele></ele><time>2021-8-27T14:49:28Z</time></trkpt>
<trkpt lat="46.07348" lon="6.95393"><ele></ele><time>2021-8-27T14:49:31Z</time></trkpt>
<trkpt lat="46.07357" lon="6.95418"><ele></ele><time>2021-8-27T14:49:34Z</time></trkpt>
<trkpt lat="46.07372" lon="6.95434"><ele></ele><time>2021-8-27T14:49:37Z</time></trkpt>
<trkpt lat="46.07391" lon="6.95447"><ele></ele><time>2021-8-27T14:49:40Z</time></trkpt>
<trkpt lat="46.07408" lon="6.95466"><ele></ele><time>2021-8-27T14:49:43Z</time></trkpt>
<trkpt lat="46.07423" lon="6.95491"><ele></ele><time>2021-8-27T14:49:46Z</time></trkpt>
<trkpt lat="46.07438" lon="6.95518"><ele></ele><time>2021-8-27T14:49:49Z</time></trkpt>
<trkpt lat="46.07445" lon="6.95531"><ele></ele><time>2021-8-27T14:49:52Z</time></trkpt>
<trkpt lat="46.07463" lon="6.9555"><ele></ele><time>2021-8-27T14:49:55Z</time></trkpt>
<trkpt lat="46.07486" lon="6.95562"><ele></ele><time>2021-8-27T14:49:58Z</time></trkpt>
<trkpt lat="46.07497" lon="6.95567"><ele></ele><time>2021-8-27T14:50:1Z</time></trkpt>
<trkpt lat="46.07517" lon="6.95583"><ele></ele><time>2021-8-27T14:50:4Z</time></trkpt>
<trkpt lat="46.07524" lon="6.95592"><ele></ele><time>2021-8-27T14:50:7Z</time></trkpt>
<trkpt lat="46.07531" lon="6.95599"><ele></ele><time>2021-8-27T14:50:10Z</time></trkpt>
<trkpt lat="46.07545" lon="6.95613"><ele></ele><time>2021-8-27T14:50:13Z</time></trkpt>
<trkpt lat="46.07541" lon="6.95621"><ele></ele><time>2021-8-27T14:50:16Z</time></trkpt>
<trkpt lat="46.07515" lon="6.95603"><ele></ele><time>2021-8-27T14:50:19Z</time></trkpt>
<trkpt lat="46.07509" lon="6.95592"><ele></ele><time>2021-8-27T14:50:22Z</time></trkpt>
<trkpt lat="46.07486" lon="6.95578"><ele></ele><time>2021-8-27T14:50:25Z</time></trkpt>
<trkpt lat="46.07479" lon="6.95576"><ele></ele><time>2021-8-27T14:50:28Z</time></trkpt>
<trkpt lat="46.07453" lon="6.95567"><ele></ele><time>2021-8-27T14:50:31Z</time></trkpt>
<trkpt lat="46.07435" lon="6.95558"><ele></ele><time>2021-8-27T14:50:34Z</time></trkpt>
<trkpt lat="46.07415" lon="6.95545"><ele></ele><time>2021-8-27T14:50:37Z</time></trkpt>
<trkpt lat="46.07395" lon="6.9553"><ele></ele><time>2021-8-27T14:50:40Z</time></trkpt>
<trkpt lat="46.07372" lon="6.95522"><ele></ele><time>2021-8-27T14:50:43Z</time></trkpt>
<trkpt lat="46.07348" lon="6.9552"><ele></ele><time>2021-8-27T14:50:46Z</time></trkpt>
<trkpt lat="46.07337" lon="6.95521"><ele></ele><time>2021-8-27T14:50:49Z</time></trkpt>
<trkpt lat="46.07326" lon="6.95521"><ele></ele><time>2021-8-27T14:50:52Z</time></trkpt>
<trkpt lat="46.07307" lon="6.95514"><ele></ele><time>2021-8-27T14:50:55Z</time></trkpt>
<trkpt lat="46.07287" lon="6.95503"><ele></ele><time>2021-8-27T14:50:58Z</time></trkpt>
<trkpt lat="46.07265" lon="6.95497"><ele></ele><time>2021-8-27T14:51:1Z</time></trkpt>
<trkpt lat="46.07254" lon="6.95496"><ele></ele><time>2021-8-27T14:51:4Z</time></trkpt>
<trkpt lat="46.07231" lon="6.95492"><ele></ele><time>2021-8-27T14:51:7Z</time></trkpt>
<trkpt lat="46.07209" lon="6.95489"><ele></ele><time>2021-8-27T14:51:10Z</time></trkpt>
<trkpt lat="46.07199" lon="6.95486"><ele></ele><time>2021-8-27T14:51:13Z</time></trkpt>
<trkpt lat="46.0718" lon="6.95473"><ele></ele><time>2021-8-27T14:51:16Z</time></trkpt>
<trkpt lat="46.07163" lon="6.95453"><ele></ele><time>2021-8-27T14:51:19Z</time></trkpt>
<trkpt lat="46.07154" lon="6.95441"><ele></ele><time>2021-8-27T14:51:22Z</time></trkpt>
<trkpt lat="46.07145" lon="6.95431"><ele></ele><time>2021-8-27T14:51:25Z</time></trkpt>
<trkpt lat="46.07122" lon="6.95415"><ele></ele><time>2021-8-27T14:51:28Z</time></trkpt>
<trkpt lat="46.07097" lon="6.95407"><ele></ele><time>2021-8-27T14:51:31Z</time></trkpt>
<trkpt lat="46.07083" lon="6.95406"><ele></ele><time>2021-8-27T14:51:34Z</time></trkpt>
<trkpt lat="46.07057" lon="6.95401"><ele></ele><time>2021-8-27T14:51:37Z</time></trkpt>
<trkpt lat="46.07033" lon="6.95387"><ele></ele><time>2021-8-27T14:51:40Z</time></trkpt>
<trkpt lat="46.07011" lon="6.95366"><ele></ele><time>2021-8-27T14:51:43Z</time></trkpt>
<trkpt lat="46.06994" lon="6.95347"><ele></ele><time>2021-8-27T14:51:46Z</time></trkpt>
<trkpt lat="46.06982" lon="6.95335"><ele></ele><time>2021-8-27T14:51:49Z</time></trkpt>
<trkpt lat="46.06972" lon="6.95353"><ele></ele><time>2021-8-27T14:51:52Z</time></trkpt>
<trkpt lat="46.06987" lon="6.9537"><ele></ele><time>2021-8-27T14:51:55Z</time></trkpt>
<trkpt lat="46.07005" lon="6.95388"><ele></ele><time>2021-8-27T14:51:58Z</time></trkpt>
<trkpt lat="46.07018" lon="6.95402"><ele></ele><time>2021-8-27T14:52:1Z</time></trkpt>
<trkpt lat="46.0704" lon="6.95427"><ele></ele><time>2021-8-27T14:52:4Z</time></trkpt>
<trkpt lat="46.07055" lon="6.95446"><ele></ele><time>2021-8-27T14:52:7Z</time></trkpt>
<trkpt lat="46.07072" lon="6.95465"><ele></ele><time>2021-8-27T14:52:10Z</time></trkpt>
<trkpt lat="46.0709" lon="6.95486"><ele></ele><time>2021-8-27T14:52:13Z</time></trkpt>
<trkpt lat="46.07107" lon="6.95508"><ele></ele><time>2021-8-27T14:52:16Z</time></trkpt>
<trkpt lat="46.07125" lon="6.95532"><ele></ele><time>2021-8-27T14:52:19Z</time></trkpt>
<trkpt lat="46.07135" lon="6.95543"><ele></ele><time>2021-8-27T14:52:22Z</time></trkpt>
<trkpt lat="46.07145" lon="6.95554"><ele></ele><time>2021-8-27T14:52:25Z</time></trkpt>
<trkpt lat="46.07167" lon="6.9557"><ele></ele><time>2021-8-27T14:52:28Z</time></trkpt>
<trkpt lat="46.07191" lon="6.95582"><ele></ele><time>2021-8-27T14:52:31Z</time></trkpt>
<trkpt lat="46.07216" lon="6.95595"><ele></ele><time>2021-8-27T14:52:34Z</time></trkpt>
<trkpt lat="46.07228" lon="6.95604"><ele></ele><time>2021-8-27T14:52:37Z</time></trkpt>
<trkpt lat="46.07251" lon="6.95625"><ele></ele><time>2021-8-27T14:52:40Z</time></trkpt>
<trkpt lat="46.07272" lon="6.95651"><ele></ele><time>2021-8-27T14:52:43Z</time></trkpt>
<trkpt lat="46.07292" lon="6.95677"><ele></ele><time>2021-8-27T14:52:46Z</time></trkpt>
<trkpt lat="46.07301" lon="6.95689"><ele></ele><time>2021-8-27T14:52:49Z</time></trkpt>
<trkpt lat="46.07323" lon="6.95704"><ele></ele><time>2021-8-27T14:52:52Z</time></trkpt>
<trkpt lat="46.07346" lon="6.95717"><ele></ele><time>2021-8-27T14:52:55Z</time></trkpt>
<trkpt lat="46.07358" lon="6.95726"><ele></ele><time>2021-8-27T14:52:58Z</time></trkpt>
<trkpt lat="46.07379" lon="6.95748"><ele></ele><time>2021-8-27T14:53:1Z</time></trkpt>
<trkpt lat="46.07401" lon="6.9577"><ele></ele><time>2021-8-27T14:53:4Z</time></trkpt>
<trkpt lat="46.07424" lon="6.95791"><ele></ele><time>2021-8-27T14:53:7Z</time></trkpt>
<trkpt lat="46.07448" lon="6.9581"><ele></ele><time>2021-8-27T14:53:10Z</time></trkpt>
<trkpt lat="46.07459" lon="6.9582"><ele></ele><time>2021-8-27T14:53:13Z</time></trkpt>
<trkpt lat="46.07478" lon="6.95847"><ele></ele><time>2021-8-27T14:53:16Z</time></trkpt>
<trkpt lat="46.07497" lon="6.95875"><ele></ele><time>2021-8-27T14:53:19Z</time></trkpt>
<trkpt lat="46.07518" lon="6.959"><ele></ele><time>2021-8-27T14:53:22Z</time></trkpt>
<trkpt lat="46.07529" lon="6.95912"><ele></ele><time>2021-8-27T14:53:25Z</time></trkpt>
<trkpt lat="46.07548" lon="6.95943"><ele></ele><time>2021-8-27T14:53:28Z</time></trkpt>
<trkpt lat="46.07565" lon="6.95976"><ele></ele><time>2021-8-27T14:53:31Z</time></trkpt>
<trkpt lat="46.07584" lon="6.96007"><ele></ele><time>2021-8-27T14:53:34Z</time></trkpt>
<trkpt lat="46.07604" lon="6.96036"><ele></ele><time>2021-8-27T14:53:37Z</time></trkpt>
<trkpt lat="46.07623" lon="6.96066"><ele></ele><time>2021-8-27T14:53:40Z</time></trkpt>
<trkpt lat="46.07643" lon="6.96096"><ele></ele><time>2021-8-27T14:53:43Z</time></trkpt>
<trkpt lat="46.07652" lon="6.96109"><ele></ele><time>2021-8-27T14:53:46Z</time></trkpt>
<trkpt lat="46.07674" lon="6.96125"><ele></ele><time>2021-8-27T14:53:49Z</time></trkpt>
<trkpt lat="46.07697" lon="6.96138"><ele></ele><time>2021-8-27T14:53:52Z</time></trkpt>
<trkpt lat="46.07721" lon="6.96156"><ele></ele><time>2021-8-27T14:53:55Z</time></trkpt>
<trkpt lat="46.07732" lon="6.96168"><ele></ele><time>2021-8-27T14:53:58Z</time></trkpt>
<trkpt lat="46.07753" lon="6.96193"><ele></ele><time>2021-8-27T14:54:1Z</time></trkpt>
<trkpt lat="46.07774" lon="6.96219"><ele></ele><time>2021-8-27T14:54:4Z</time></trkpt>
<trkpt lat="46.07794" lon="6.96245"><ele></ele><time>2021-8-27T14:54:7Z</time></trkpt>
<trkpt lat="46.07814" lon="6.96271"><ele></ele><time>2021-8-27T14:54:10Z</time></trkpt>
<trkpt lat="46.07833" lon="6.96299"><ele></ele><time>2021-8-27T14:54:13Z</time></trkpt>
<trkpt lat="46.07842" lon="6.96313"><ele></ele><time>2021-8-27T14:54:16Z</time></trkpt>
<trkpt lat="46.0786" lon="6.96341"><ele></ele><time>2021-8-27T14:54:19Z</time></trkpt>
<trkpt lat="46.07877" lon="6.96367"><ele></ele><time>2021-8-27T14:54:22Z</time></trkpt>
<trkpt lat="46.07895" lon="6.96392"><ele></ele><time>2021-8-27T14:54:25Z</time></trkpt>
<trkpt lat="46.07915" lon="6.96415"><ele></ele><time>2021-8-27T14:54:28Z</time></trkpt>
<trkpt lat="46.07935" lon="6.96433"><ele></ele><time>2021-8-27T14:54:31Z</time></trkpt>
<trkpt lat="46.07956" lon="6.9645"><ele></ele><time>2021-8-27T14:54:34Z</time></trkpt>
<trkpt lat="46.07978" lon="6.96465"><ele></ele><time>2021-8-27T14:54:37Z</time></trkpt>
<trkpt lat="46.08001" lon="6.96479"><ele></ele><time>2021-8-27T14:54:40Z</time></trkpt>
<trkpt lat="46.08024" lon="6.96492"><ele></ele><time>2021-8-27T14:54:43Z</time></trkpt>
<trkpt lat="46.08036" lon="6.96496"><ele></ele><time>2021-8-27T14:54:46Z</time></trkpt>
<trkpt lat="46.0806" lon="6.965"><ele></ele><time>2021-8-27T14:54:49Z</time></trkpt>
<trkpt lat="46.08083" lon="6.96505"><ele></ele><time>2021-8-27T14:54:52Z</time></trkpt>
<trkpt lat="46.08102" lon="6.96517"><ele></ele><time>2021-8-27T14:54:55Z</time></trkpt>
<trkpt lat="46.08114" lon="6.96538"><ele></ele><time>2021-8-27T14:54:58Z</time></trkpt>
<trkpt lat="46.08123" lon="6.96565"><ele></ele><time>2021-8-27T14:55:1Z</time></trkpt>
<trkpt lat="46.08127" lon="6.96579"><ele></ele><time>2021-8-27T14:55:4Z</time></trkpt>
<trkpt lat="46.08139" lon="6.96605"><ele></ele><time>2021-8-27T14:55:7Z</time></trkpt>
<trkpt lat="46.08152" lon="6.96632"><ele></ele><time>2021-8-27T14:55:10Z</time></trkpt>
<trkpt lat="46.08167" lon="6.96659"><ele></ele><time>2021-8-27T14:55:13Z</time></trkpt>
<trkpt lat="46.08175" lon="6.96672"><ele></ele><time>2021-8-27T14:55:16Z</time></trkpt>
<trkpt lat="46.08193" lon="6.96691"><ele></ele><time>2021-8-27T14:55:19Z</time></trkpt>
<trkpt lat="46.08214" lon="6.96698"><ele></ele><time>2021-8-27T14:55:22Z</time></trkpt>
<trkpt lat="46.08237" lon="6.96695"><ele></ele><time>2021-8-27T14:55:25Z</time></trkpt>
<trkpt lat="46.08248" lon="6.96694"><ele></ele><time>2021-8-27T14:55:28Z</time></trkpt>
<trkpt lat="46.08267" lon="6.96704"><ele></ele><time>2021-8-27T14:55:31Z</time></trkpt>
<trkpt lat="46.08277" lon="6.96727"><ele></ele><time>2021-8-27T14:55:34Z</time></trkpt>
<trkpt lat="46.08284" lon="6.96753"><ele></ele><time>2021-8-27T14:55:37Z</time></trkpt>
<trkpt lat="46.0829" lon="6.96781"><ele></ele><time>2021-8-27T14:55:40Z</time></trkpt>
<trkpt lat="46.08297" lon="6.96811"><ele></ele><time>2021-8-27T14:55:43Z</time></trkpt>
<trkpt lat="46.08302" lon="6.96826"><ele></ele><time>2021-8-27T14:55:46Z</time></trkpt>
<trkpt lat="46.08315" lon="6.96854"><ele></ele><time>2021-8-27T14:55:49Z</time></trkpt>
<trkpt lat="46.0833" lon="6.9688"><ele></ele><time>2021-8-27T14:55:52Z</time></trkpt>
<trkpt lat="46.08339" lon="6.96913"><ele></ele><time>2021-8-27T14:55:55Z</time></trkpt>
<trkpt lat="46.0834" lon="6.96949"><ele></ele><time>2021-8-27T14:55:58Z</time></trkpt>
<trkpt lat="46.0834" lon="6.96965"><ele></ele><time>2021-8-27T14:56:1Z</time></trkpt>
<trkpt lat="46.08341" lon="6.96981"><ele></ele><time>2021-8-27T14:56:4Z</time></trkpt>
<trkpt lat="46.0835" lon="6.97006"><ele></ele><time>2021-8-27T14:56:7Z</time></trkpt>
<trkpt lat="46.08362" lon="6.97032"><ele></ele><time>2021-8-27T14:56:10Z</time></trkpt>
<trkpt lat="46.08367" lon="6.97047"><ele></ele><time>2021-8-27T14:56:13Z</time></trkpt>
<trkpt lat="46.08373" lon="6.9708"><ele></ele><time>2021-8-27T14:56:16Z</time></trkpt>
<trkpt lat="46.08381" lon="6.97111"><ele></ele><time>2021-8-27T14:56:19Z</time></trkpt>
<trkpt lat="46.08392" lon="6.97142"><ele></ele><time>2021-8-27T14:56:22Z</time></trkpt>
<trkpt lat="46.08395" lon="6.97158"><ele></ele><time>2021-8-27T14:56:25Z</time></trkpt>
<trkpt lat="46.084" lon="6.97194"><ele></ele><time>2021-8-27T14:56:28Z</time></trkpt>
<trkpt lat="46.08405" lon="6.9723"><ele></ele><time>2021-8-27T14:56:31Z</time></trkpt>
<trkpt lat="46.08406" lon="6.97247"><ele></ele><time>2021-8-27T14:56:34Z</time></trkpt>
<trkpt lat="46.08407" lon="6.97281"><ele></ele><time>2021-8-27T14:56:37Z</time></trkpt>
<trkpt lat="46.08413" lon="6.97314"><ele></ele><time>2021-8-27T14:56:40Z</time></trkpt>
<trkpt lat="46.08417" lon="6.97331"><ele></ele><time>2021-8-27T14:56:43Z</time></trkpt>
<trkpt lat="46.08422" lon="6.97347"><ele></ele><time>2021-8-27T14:56:46Z</time></trkpt>
<trkpt lat="46.08437" lon="6.97378"><ele></ele><time>2021-8-27T14:56:49Z</time></trkpt>
<trkpt lat="46.08453" lon="6.97403"><ele></ele><time>2021-8-27T14:56:52Z</time></trkpt>
<trkpt lat="46.08462" lon="6.97415"><ele></ele><time>2021-8-27T14:56:55Z</time></trkpt>
<trkpt lat="46.08479" lon="6.9744"><ele></ele><time>2021-8-27T14:56:58Z</time></trkpt>
<trkpt lat="46.08494" lon="6.9747"><ele></ele><time>2021-8-27T14:57:1Z</time></trkpt>
<trkpt lat="46.0851" lon="6.975"><ele></ele><time>2021-8-27T14:57:4Z</time></trkpt>
<trkpt lat="46.08527" lon="6.9753"><ele></ele><time>2021-8-27T14:57:7Z</time></trkpt>
<trkpt lat="46.08545" lon="6.97557"><ele></ele><time>2021-8-27T14:57:10Z</time></trkpt>
<trkpt lat="46.08561" lon="6.97582"><ele></ele><time>2021-8-27T14:57:13Z</time></trkpt>
<trkpt lat="46.08568" lon="6.97595"><ele></ele><time>2021-8-27T14:57:16Z</time></trkpt>
<trkpt lat="46.08579" lon="6.97625"><ele></ele><time>2021-8-27T14:57:19Z</time></trkpt>
<trkpt lat="46.08584" lon="6.97658"><ele></ele><time>2021-8-27T14:57:22Z</time></trkpt>
<trkpt lat="46.08581" lon="6.97692"><ele></ele><time>2021-8-27T14:57:25Z</time></trkpt>
<trkpt lat="46.08571" lon="6.97721"><ele></ele><time>2021-8-27T14:57:28Z</time></trkpt>
<trkpt lat="46.08554" lon="6.97743"><ele></ele><time>2021-8-27T14:57:31Z</time></trkpt>
<trkpt lat="46.08545" lon="6.97752"><ele></ele><time>2021-8-27T14:57:34Z</time></trkpt>
<trkpt lat="46.08526" lon="6.97771"><ele></ele><time>2021-8-27T14:57:37Z</time></trkpt>
<trkpt lat="46.08517" lon="6.97781"><ele></ele><time>2021-8-27T14:57:40Z</time></trkpt>
<trkpt lat="46.08509" lon="6.97792"><ele></ele><time>2021-8-27T14:57:43Z</time></trkpt>
<trkpt lat="46.08501" lon="6.97817"><ele></ele><time>2021-8-27T14:57:46Z</time></trkpt>
<trkpt lat="46.085" lon="6.97844"><ele></ele><time>2021-8-27T14:57:49Z</time></trkpt>
<trkpt lat="46.08506" lon="6.9787"><ele></ele><time>2021-8-27T14:57:52Z</time></trkpt>
<trkpt lat="46.08509" lon="6.97883"><ele></ele><time>2021-8-27T14:57:55Z</time></trkpt>
<trkpt lat="46.08517" lon="6.97906"><ele></ele><time>2021-8-27T14:57:58Z</time></trkpt>
<trkpt lat="46.08523" lon="6.97931"><ele></ele><time>2021-8-27T14:58:1Z</time></trkpt>
<trkpt lat="46.08529" lon="6.97956"><ele></ele><time>2021-8-27T14:58:4Z</time></trkpt>
<trkpt lat="46.08532" lon="6.97981"><ele></ele><time>2021-8-27T14:58:7Z</time></trkpt>
<trkpt lat="46.08535" lon="6.98007"><ele></ele><time>2021-8-27T14:58:10Z</time></trkpt>
<trkpt lat="46.08538" lon="6.98033"><ele></ele><time>2021-8-27T14:58:13Z</time></trkpt>
<trkpt lat="46.08544" lon="6.9807"><ele></ele><time>2021-8-27T14:58:16Z</time></trkpt>
<trkpt lat="46.0855" lon="6.98107"><ele></ele><time>2021-8-27T14:58:19Z</time></trkpt>
<trkpt lat="46.08553" lon="6.98133"><ele></ele><time>2021-8-27T14:58:22Z</time></trkpt>
<trkpt lat="46.08556" lon="6.98169"><ele></ele><time>2021-8-27T14:58:25Z</time></trkpt>
<trkpt lat="46.08556" lon="6.98189"><ele></ele><time>2021-8-27T14:58:28Z</time></trkpt>
<trkpt lat="46.08537" lon="6.98195"><ele></ele><time>2021-8-27T14:58:31Z</time></trkpt>
<trkpt lat="46.08522" lon="6.98171"><ele></ele><time>2021-8-27T14:58:34Z</time></trkpt>
<trkpt lat="46.08507" lon="6.98143"><ele></ele><time>2021-8-27T14:58:37Z</time></trkpt>
<trkpt lat="46.08494" lon="6.98121"><ele></ele><time>2021-8-27T14:58:40Z</time></trkpt>
<trkpt lat="46.0849" lon="6.98116"><ele></ele><time>2021-8-27T14:58:43Z</time></trkpt>
<trkpt lat="46.08484" lon="6.98108"><ele></ele><time>2021-8-27T14:58:46Z</time></trkpt>
<trkpt lat="46.08482" lon="6.98112"><ele></ele><time>2021-8-27T14:58:49Z</time></trkpt>
<trkpt lat="46.08483" lon="6.98111"><ele></ele><time>2021-8-27T14:58:52Z</time></trkpt>
</trkseg></trk></gpx>